Provisional Data: Driftwood Branch Sinnemahoning Creek


Please select a monitoring station.
Please select start date.
Please select start date.

Toggle Unit: C/F Toggle Unit: C/F
Sample Time Temperature (C) Temperature (F) Specific Conductivity (mS/cm) pH   Turbidity (NTU+) DO (mg/L)
12/23/2021 12:00:00 AM 2.19 35.942 0.056 6.81 2.49 13.43
12/23/2021 12:15:00 AM 2.16 35.888 0.056 6.82 2.44 13.44
12/23/2021 12:30:00 AM 2.15 35.87 0.056 6.82 2.35 13.44
12/23/2021 12:45:00 AM 2.13 35.834 0.056 6.82 2.37 13.45
12/23/2021 1:00:00 AM 2.1 35.78 0.056 6.82 2.49 13.46
12/23/2021 1:15:00 AM 2.08 35.744 0.056 6.81 2.6 13.46
12/23/2021 1:30:00 AM 2.06 35.708 0.056 6.79 2.56 13.48
12/23/2021 1:45:00 AM 2.04 35.672 0.056 6.81 2.41 13.48
12/23/2021 2:00:00 AM 2.01 35.618 0.056 6.78 2.43 13.5
12/23/2021 2:15:00 AM 2 35.6 0.056 6.81 2.5 13.51
12/23/2021 2:30:00 AM 1.98 35.564 0.056 6.81 2.53 13.52
12/23/2021 2:45:00 AM 1.95 35.51 0.056 6.82 2.43 13.52
12/23/2021 3:00:00 AM 1.92 35.456 0.056 6.79 2.54 13.54
12/23/2021 3:15:00 AM 1.88 35.384 0.056 6.81 2.62 13.56
12/23/2021 3:30:00 AM 1.84 35.312 0.056 6.81 2.42 13.56
12/23/2021 3:45:00 AM 1.8 35.24 0.056 6.79 2.42 13.59
12/23/2021 4:00:00 AM 1.77 35.186 0.056 6.81 2.48 13.59
12/23/2021 4:15:00 AM 1.75 35.15 0.056 6.81 2.47 13.61
12/23/2021 4:30:00 AM 1.72 35.096 0.056 6.78 2.42 13.62
12/23/2021 4:45:00 AM 1.71 35.078 0.056 6.8 2.47 13.63
12/23/2021 5:00:00 AM 1.69 35.042 0.056 6.81 2.45 13.64
12/23/2021 5:15:00 AM 1.67 35.006 0.056 6.79 2.48 13.65
12/23/2021 5:30:00 AM 1.67 35.006 0.056 6.8 2.5 13.66
12/23/2021 5:45:00 AM 1.66 34.988 0.056 6.78 2.46 13.66
12/23/2021 6:00:00 AM 1.65 34.97 0.056 6.81 2.31 13.67
12/23/2021 6:15:00 AM 1.64 34.952 0.056 6.8 2.34 13.68
12/23/2021 6:30:00 AM 1.63 34.934 0.056 6.79 2.26 13.69
12/23/2021 6:45:00 AM 1.62 34.916 0.056 6.81 2.21 13.7
12/23/2021 7:00:00 AM 1.61 34.898 0.056 6.78 2.18 13.7
12/23/2021 7:15:00 AM 1.61 34.898 0.056 6.8 2.2 13.71
12/23/2021 7:30:00 AM 1.6 34.88 0.056 6.78 2.1 13.72
12/23/2021 7:45:00 AM 1.59 34.862 0.056 6.79 2.22 13.73
12/23/2021 8:00:00 AM 1.58 34.844 0.056 6.8 2.2 13.75
12/23/2021 8:15:00 AM 1.58 34.844 0.056 6.81 2.22 13.79
12/23/2021 8:30:00 AM 1.58 34.844 0.056 6.82 2.2 13.85
12/23/2021 8:45:00 AM 1.59 34.862 0.056 6.84 2.16 13.89
12/23/2021 9:00:00 AM 1.59 34.862 0.056 6.86 2.14 13.94
12/23/2021 9:15:00 AM 1.59 34.862 0.056 6.82 2.08 13.98
12/23/2021 9:30:00 AM 1.62 34.916 0.056 6.87 2.1 14.02
12/23/2021 9:45:00 AM 1.66 34.988 0.055 6.88 2.01 14.06
12/23/2021 10:00:00 AM 1.7 35.06 0.055 6.89 2.03 14.08
12/23/2021 10:15:00 AM 1.74 35.132 0.055 6.89 2.06 14.1
12/23/2021 10:30:00 AM 1.78 35.204 0.055 6.88 1.98 14.12
12/23/2021 10:45:00 AM 1.83 35.294 0.055 6.9 2.01 14.11
12/23/2021 11:00:00 AM 1.87 35.366 0.055 6.93 2 14.13
12/23/2021 11:15:00 AM 1.93 35.474 0.055 6.94 1.91 14.13
12/23/2021 11:30:00 AM 2.01 35.618 0.055 6.92 1.91 14.11
12/23/2021 11:45:00 AM 2.1 35.78 0.055 6.94 1.96 14.08
12/23/2021 12:00:00 PM 2.19 35.942 0.055 6.92 1.96 14.07
12/23/2021 12:15:00 PM 2.32 36.176 0.055 6.95 1.91 14.05
12/23/2021 12:30:00 PM 2.42 36.356 0.055 6.93 1.87 14.02
12/23/2021 12:45:00 PM 2.43 36.374 0.055 6.95 1.86 13.99
12/23/2021 1:00:00 PM 2.41 36.338 0.055 6.95 1.87 13.98
12/23/2021 1:15:00 PM 2.43 36.374 0.055 6.96 1.89 13.96
12/23/2021 1:30:00 PM 2.47 36.446 0.055 6.97 1.86 13.95
12/23/2021 1:45:00 PM 2.52 36.536 0.055 6.97 1.86 13.93
12/23/2021 2:00:00 PM 2.56 36.608 0.055 6.93 1.86 13.9
12/23/2021 2:15:00 PM 2.62 36.716 0.055 6.96 1.94 13.87
12/23/2021 2:30:00 PM 2.67 36.806 0.054 6.97 1.89 13.85
12/23/2021 2:45:00 PM 2.7 36.86 0.054 6.96 1.79 13.82
12/23/2021 3:00:00 PM 2.73 36.914 0.054 6.96 1.85 13.79
12/23/2021 3:15:00 PM 2.76 36.968 0.054 6.98 1.94 13.76
12/23/2021 3:30:00 PM 2.78 37.004 0.054 6.97 1.86 13.72
12/23/2021 3:45:00 PM 2.78 37.004 0.054 6.95 1.88 13.67
12/23/2021 4:00:00 PM 2.77 36.986 0.054 6.9 1.89 13.6
12/23/2021 4:15:00 PM 2.76 36.968 0.055 6.91 1.86 13.54
12/23/2021 4:30:00 PM 2.75 36.95 0.055 6.89 1.88 13.5
12/23/2021 4:45:00 PM 2.73 36.914 0.055 6.87 1.9 13.45
12/23/2021 5:00:00 PM 2.72 36.896 0.055 6.87 1.94 13.41
12/23/2021 5:15:00 PM 2.69 36.842 0.055 6.88 1.9 13.39
12/23/2021 5:30:00 PM 2.66 36.788 0.055 6.86 1.96 13.37
12/23/2021 5:45:00 PM 2.64 36.752 0.055 6.86 1.95 13.35
12/23/2021 6:00:00 PM 2.61 36.698 0.055 6.86 2.15 13.34
12/23/2021 6:15:00 PM 2.58 36.644 0.055 6.8 2 13.34
12/23/2021 6:30:00 PM 2.57 36.626 0.055 6.82 2.07 13.34
12/23/2021 6:45:00 PM 2.55 36.59 0.055 6.83 2 13.34
12/23/2021 7:00:00 PM 2.53 36.554 0.055 6.82 2.02 13.34
12/23/2021 7:15:00 PM 2.51 36.518 0.055 6.84 2.01 13.34
12/23/2021 7:30:00 PM 2.5 36.5 0.055 6.82 2.03 13.34
12/23/2021 7:45:00 PM 2.49 36.482 0.055 6.82 2.06 13.34
12/23/2021 8:00:00 PM 2.48 36.464 0.055 6.83 2.01 13.34
12/23/2021 8:15:00 PM 2.48 36.464 0.055 6.81 2.05 13.34
12/23/2021 8:30:00 PM 2.47 36.446 0.055 6.83 2.07 13.33
12/23/2021 8:45:00 PM 2.46 36.428 0.055 6.82 2.05 13.34
12/23/2021 9:00:00 PM 2.46 36.428 0.055 6.82 2.07 13.34
12/23/2021 9:15:00 PM 2.45 36.41 0.055 6.82 2.07 13.33
12/23/2021 9:30:00 PM 2.44 36.392 0.055 6.83 2.22 13.34
12/23/2021 9:45:00 PM 2.44 36.392 0.055 6.83 2.16 13.33
12/23/2021 10:00:00 PM 2.45 36.41 0.055 6.83 2.21 13.33
12/23/2021 10:15:00 PM 2.44 36.392 0.055 6.83 2.2 13.33
12/23/2021 10:30:00 PM 2.43 36.374 0.055 6.83 2.22 13.33
12/23/2021 10:45:00 PM 2.38 36.284 0.055 6.81 2.26 13.32
12/23/2021 11:00:00 PM 2.37 36.266 0.055 6.81 2.28 13.32
12/23/2021 11:15:00 PM 2.34 36.212 0.055 6.81 2.32 13.33
12/23/2021 11:30:00 PM 2.29 36.122 0.055 6.79 2.26 13.33
12/23/2021 11:45:00 PM 2.2 35.96 0.055 6.81 2.28 13.33
12/24/2021 12:00:00 AM 2.17 35.906 0.055 6.81 2.27 13.36
12/24/2021 12:15:00 AM 2.17 35.906 0.055 6.81 2.33 13.37
12/24/2021 12:30:00 AM 2.17 35.906 0.055 6.8 2.22 13.37
12/24/2021 12:45:00 AM 2.18 35.924 0.055 6.82 2.27 13.38
12/24/2021 1:00:00 AM 2.2 35.96 0.055 6.82 2.3 13.38
12/24/2021 1:15:00 AM 2.21 35.978 0.055 6.8 2.43 13.4
12/24/2021 1:30:00 AM 2.21 35.978 0.055 6.8 2.29 13.4
12/24/2021 1:45:00 AM 2.21 35.978 0.055 6.81 2.29 13.4
12/24/2021 2:00:00 AM 2.22 35.996 0.055 6.79 2.32 13.4
12/24/2021 2:15:00 AM 2.23 36.014 0.055 6.79 2.21 13.39
12/24/2021 2:30:00 AM 2.24 36.032 0.055 6.8 2.17 13.39
12/24/2021 2:45:00 AM 2.26 36.068 0.055 6.81 2.13 13.38
12/24/2021 3:00:00 AM 2.26 36.068 0.055 6.81 2.13 13.39
12/24/2021 3:15:00 AM 2.27 36.086 0.055 6.81 2.13 13.38
12/24/2021 3:30:00 AM 2.28 36.104 0.055 6.78 2.1 13.38
12/24/2021 3:45:00 AM 2.29 36.122 0.055 6.81 2.15 13.37
12/24/2021 4:00:00 AM 2.29 36.122 0.055 6.81 2.12 13.38
12/24/2021 4:15:00 AM 2.31 36.158 0.055 6.79 2.06 13.37
12/24/2021 4:30:00 AM 2.32 36.176 0.055 6.82 2.18 13.37
12/24/2021 4:45:00 AM 2.32 36.176 0.055 6.81 2.15 13.37
12/24/2021 5:00:00 AM 2.33 36.194 0.055 6.81 2.23 13.36
12/24/2021 5:15:00 AM 2.34 36.212 0.055 6.82 2.18 13.37
12/24/2021 5:30:00 AM 2.34 36.212 0.055 6.81 2.15 13.36
12/24/2021 5:45:00 AM 2.35 36.23 0.055 6.79 2.27 13.36
12/24/2021 6:00:00 AM 2.36 36.248 0.055 6.81 2.14 13.36
12/24/2021 6:15:00 AM 2.36 36.248 0.055 6.82 2.15 13.36
12/24/2021 6:30:00 AM 2.37 36.266 0.055 6.78 2.19 13.36
12/24/2021 6:45:00 AM 2.38 36.284 0.055 6.81 2.13 13.35
12/24/2021 7:00:00 AM 2.39 36.302 0.055 6.81 2.11 13.35
12/24/2021 7:15:00 AM 2.39 36.302 0.055 6.81 2.15 13.35
12/24/2021 7:30:00 AM 2.4 36.32 0.055 6.8 2.15 13.35
12/24/2021 7:45:00 AM 2.41 36.338 0.055 6.81 2.1 13.36
12/24/2021 8:00:00 AM 2.42 36.356 0.055 6.79 2.02 13.36
12/24/2021 8:15:00 AM 2.43 36.374 0.055 6.79 2.02 13.38
12/24/2021 8:30:00 AM 2.45 36.41 0.055 6.83 2.07 13.41
12/24/2021 8:45:00 AM 2.47 36.446 0.055 6.82 2.06 13.44
12/24/2021 9:00:00 AM 2.49 36.482 0.055 6.84 2.04 13.48
12/24/2021 9:15:00 AM 2.52 36.536 0.055 6.82 2.03 13.52
12/24/2021 9:30:00 AM 2.55 36.59 0.055 6.87 2.02 13.56
12/24/2021 9:45:00 AM 2.6 36.68 0.055 6.88 2.03 13.6
12/24/2021 10:00:00 AM 2.65 36.77 0.055 6.88 2.07 13.64
12/24/2021 10:15:00 AM 2.71 36.878 0.055 6.91 2.01 13.67
12/24/2021 10:30:00 AM 2.78 37.004 0.055 6.92 1.94 13.69
12/24/2021 10:45:00 AM 2.85 37.13 0.055 6.93 1.98 13.69
12/24/2021 11:00:00 AM 2.92 37.256 0.054 6.94 1.91 13.68
12/24/2021 11:15:00 AM 3.01 37.418 0.054 6.94 1.9 13.67
12/24/2021 11:30:00 AM 3.12 37.616 0.054 6.96 1.94 13.65
12/24/2021 11:45:00 AM 3.23 37.814 0.054 6.94 1.96 13.63
12/24/2021 12:00:00 PM 3.32 37.976 0.054 6.97 1.94 13.59
12/24/2021 12:15:00 PM 3.41 38.138 0.054 6.92 1.94 13.57
12/24/2021 12:30:00 PM 3.48 38.264 0.054 6.98 1.92 13.54
12/24/2021 12:45:00 PM 3.55 38.39 0.054 6.95 1.95 13.52
12/24/2021 1:00:00 PM 3.6 38.48 0.054 6.98 1.88 13.49
12/24/2021 1:15:00 PM 3.67 38.606 0.054 6.94 1.89 13.47
12/24/2021 1:30:00 PM 3.73 38.714 0.054 6.98 1.9 13.44
12/24/2021 1:45:00 PM 3.8 38.84 0.054 6.99 1.87 13.41
12/24/2021 2:00:00 PM 3.86 38.948 0.054 6.98 1.84 13.38
12/24/2021 2:15:00 PM 3.9 39.02 0.054 7 1.85 13.35
12/24/2021 2:30:00 PM 3.94 39.092 0.054 6.99 1.89 13.33
12/24/2021 2:45:00 PM 3.97 39.146 0.054 6.97 1.86 13.29
12/24/2021 3:00:00 PM 4.01 39.218 0.054 6.99 1.9 13.26
12/24/2021 3:15:00 PM 4.06 39.308 0.054 6.98 1.87 13.24
12/24/2021 3:30:00 PM 4.1 39.38 0.054 6.98 1.86 13.2
12/24/2021 3:45:00 PM 4.11 39.398 0.054 6.98 1.89 13.15
12/24/2021 4:00:00 PM 4.12 39.416 0.054 6.98 1.88 13.1
12/24/2021 4:15:00 PM 4.14 39.452 0.054 6.96 1.97 13.04
12/24/2021 4:30:00 PM 4.15 39.47 0.054 6.92 1.97 12.97
12/24/2021 4:45:00 PM 4.14 39.452 0.054 6.92 1.98 12.91
12/24/2021 5:00:00 PM 4.14 39.452 0.054 6.91 1.93 12.86
12/24/2021 5:15:00 PM 4.14 39.452 0.054 6.89 1.96 12.81
12/24/2021 5:30:00 PM 4.13 39.434 0.054 6.89 2 12.78
12/24/2021 5:45:00 PM 4.11 39.398 0.054 6.87 2.04 12.76
12/24/2021 6:00:00 PM 4.09 39.362 0.054 6.87 1.94 12.74
12/24/2021 6:15:00 PM 4.08 39.344 0.054 6.83 2.03 12.73
12/24/2021 6:30:00 PM 4.07 39.326 0.054 6.87 2.06 12.73
12/24/2021 6:45:00 PM 4.06 39.308 0.055 6.86 2.1 12.72
12/24/2021 7:00:00 PM 4.04 39.272 0.055 6.85 2.06 12.71
12/24/2021 7:15:00 PM 4.03 39.254 0.055 6.86 2.04 12.71
12/24/2021 7:30:00 PM 4.03 39.254 0.055 6.85 2.08 12.71
12/24/2021 7:45:00 PM 4.03 39.254 0.055 6.85 2.03 12.7
12/24/2021 8:00:00 PM 4.02 39.236 0.055 6.84 2.09 12.71
12/24/2021 8:15:00 PM 4.02 39.236 0.055 6.85 2.08 12.71
12/24/2021 8:30:00 PM 4.01 39.218 0.055 6.86 2.15 12.7
12/24/2021 8:45:00 PM 4.01 39.218 0.055 6.84 2.18 12.7
12/24/2021 9:00:00 PM 4.01 39.218 0.055 6.84 2.07 12.7
12/24/2021 9:15:00 PM 4.02 39.236 0.055 6.84 2.15 12.7
12/24/2021 9:30:00 PM 4.02 39.236 0.055 6.85 2.15 12.69
12/24/2021 9:45:00 PM 4.01 39.218 0.055 6.84 2.25 12.69
12/24/2021 10:00:00 PM 4.02 39.236 0.055 6.83 2.17 12.68
12/24/2021 10:15:00 PM 4.02 39.236 0.055 6.84 2.33 12.68
12/24/2021 10:30:00 PM 4.02 39.236 0.055 6.84 2.26 12.68
12/24/2021 10:45:00 PM 4.02 39.236 0.055 6.83 2.21 12.68
12/24/2021 11:00:00 PM 4.03 39.254 0.055 6.83 2.26 12.68
12/24/2021 11:15:00 PM 4.03 39.254 0.055 6.83 2.22 12.67
12/24/2021 11:30:00 PM 4.04 39.272 0.055 6.82 2.19 12.67
12/24/2021 11:45:00 PM 4.04 39.272 0.055 6.83 2.24 12.67
12/25/2021 12:00:00 AM 4.05 39.29 0.055 6.83 2.2 12.66
12/25/2021 12:15:00 AM 4.05 39.29 0.055 6.82 2.31 12.66
12/25/2021 12:30:00 AM 4.06 39.308 0.055 6.84 2.24 12.65
12/25/2021 12:45:00 AM 4.07 39.326 0.055 6.79 2.23 12.64
12/25/2021 1:00:00 AM 4.07 39.326 0.055 6.84 2.23 12.64
12/25/2021 1:15:00 AM 4.08 39.344 0.055 6.82 2.25 12.63
12/25/2021 1:30:00 AM 4.09 39.362 0.055 6.83 2.27 12.62
12/25/2021 1:45:00 AM 4.1 39.38 0.055 6.8 2.34 12.62
12/25/2021 2:00:00 AM 4.11 39.398 0.055 6.82 2.34 12.61
12/25/2021 2:15:00 AM 4.11 39.398 0.055 6.83 2.31 12.6
12/25/2021 2:30:00 AM 4.12 39.416 0.055 6.83 2.32 12.6
12/25/2021 2:45:00 AM 4.13 39.434 0.055 6.84 2.28 12.59
12/25/2021 3:00:00 AM 4.14 39.452 0.055 6.8 2.29 12.59
12/25/2021 3:15:00 AM 4.14 39.452 0.055 6.83 2.3 12.58
12/25/2021 3:30:00 AM 4.15 39.47 0.055 6.82 2.28 12.58
12/25/2021 3:45:00 AM 4.16 39.488 0.055 6.82 2.35 12.57
12/25/2021 4:00:00 AM 4.17 39.506 0.055 6.83 2.26 12.57
12/25/2021 4:15:00 AM 4.18 39.524 0.055 6.84 2.22 12.56
12/25/2021 4:30:00 AM 4.18 39.524 0.055 6.83 2.39 12.56
12/25/2021 4:45:00 AM 4.19 39.542 0.055 6.83 2.26 12.55
12/25/2021 5:00:00 AM 4.2 39.56 0.055 6.84 2.38 12.54
12/25/2021 5:15:00 AM 4.21 39.578 0.055 6.83 2.34 12.53
12/25/2021 5:30:00 AM 4.22 39.596 0.055 6.84 2.35 12.53
12/25/2021 5:45:00 AM 4.22 39.596 0.055 6.82 2.41 12.52
12/25/2021 6:00:00 AM 4.23 39.614 0.055 6.82 2.45 12.52
12/25/2021 6:15:00 AM 4.23 39.614 0.057 6.83 2.37 12.52
12/25/2021 6:30:00 AM 4.23 39.614 0.057 6.84 2.43 12.51
12/25/2021 6:45:00 AM 4.24 39.632 0.057 6.8 2.46 12.51
12/25/2021 7:00:00 AM 4.25 39.65 0.056 6.81 2.43 12.5
12/25/2021 7:15:00 AM 4.25 39.65 0.056 6.84 2.53 12.49
12/25/2021 7:30:00 AM 4.26 39.668 0.056 6.84 2.52 12.49
12/25/2021 7:45:00 AM 4.27 39.686 0.055 6.84 2.54 12.48
12/25/2021 8:00:00 AM 4.27 39.686 0.055 6.85 2.51 12.48
12/25/2021 8:15:00 AM 4.29 39.722 0.055 6.85 2.56 12.49
12/25/2021 8:30:00 AM 4.3 39.74 0.055 6.85 2.67 12.5
12/25/2021 8:45:00 AM 4.31 39.758 0.055 6.86 2.71 12.51
12/25/2021 9:00:00 AM 4.33 39.794 0.055 6.83 2.76 12.52
12/25/2021 9:15:00 AM 4.35 39.83 0.055 6.85 3.16 12.55
12/25/2021 9:30:00 AM 4.37 39.866 0.055 6.87 3.82 12.58
12/25/2021 9:45:00 AM 4.4 39.92 0.055 6.89 4.1 12.6
12/25/2021 10:00:00 AM 4.43 39.974 0.055 6.85 4.17 12.62
12/25/2021 10:15:00 AM 4.45 40.01 0.055 6.9 4 12.63
12/25/2021 10:30:00 AM 4.48 40.064 0.055 6.88 4.07 12.64
12/25/2021 10:45:00 AM 4.51 40.118 0.055 6.91 4.01 12.64
12/25/2021 11:00:00 AM 4.53 40.154 0.055 6.92 4.06 12.66
12/25/2021 11:15:00 AM 4.56 40.208 0.055 6.92 4.03 12.66
12/25/2021 11:30:00 AM 4.59 40.262 0.055 6.93 4.34 12.65
12/25/2021 11:45:00 AM 4.62 40.316 0.055 6.94 4.52 12.65
12/25/2021 12:00:00 PM 4.66 40.388 0.055 6.95 4.47 12.66
12/25/2021 12:15:00 PM 4.68 40.424 0.055 6.95 4.54 12.64
12/25/2021 12:30:00 PM 4.72 40.496 0.055 6.96 4.71 12.65
12/25/2021 12:45:00 PM 4.77 40.586 0.056 6.95 5.09 12.67
12/25/2021 1:00:00 PM 4.8 40.64 0.056 6.98 5.06 12.67
12/25/2021 1:15:00 PM 4.85 40.73 0.056 6.96 5.28 12.67
12/25/2021 1:30:00 PM 4.89 40.802 0.056 6.99 5.15 12.67
12/25/2021 1:45:00 PM 4.91 40.838 0.056 6.98 5.36 12.62
12/25/2021 2:00:00 PM 4.92 40.856 0.057 6.96 5.61 12.57
12/25/2021 2:15:00 PM 4.95 40.91 0.057 6.94 5.53 12.55
12/25/2021 2:30:00 PM 4.99 40.982 0.057 6.95 5.62 12.56
12/25/2021 2:45:00 PM 5.02 41.036 0.057 6.96 5.72 12.53
12/25/2021 3:00:00 PM 5.05 41.09 0.057 6.92 5.58 12.5
12/25/2021 3:15:00 PM 5.08 41.144 0.057 6.96 5.89 12.47
12/25/2021 3:30:00 PM 5.1 41.18 0.057 6.94 6.14 12.43
12/25/2021 3:45:00 PM 5.15 41.27 0.057 6.92 5.98 12.45
12/25/2021 4:00:00 PM 5.18 41.324 0.056 6.94 5.62 12.44
12/25/2021 4:15:00 PM 5.2 41.36 0.056 6.93 5.59 12.39
12/25/2021 4:30:00 PM 5.22 41.396 0.056 6.9 5.53 12.34
12/25/2021 4:45:00 PM 5.24 41.432 0.056 6.9 5.31 12.29
12/25/2021 5:00:00 PM 5.26 41.468 0.056 6.89 5.44 12.26
12/25/2021 5:15:00 PM 5.28 41.504 0.056 6.88 5.88 12.24
12/25/2021 5:30:00 PM 5.3 41.54 0.055 6.87 5.48 12.21
12/25/2021 5:45:00 PM 5.33 41.594 0.055 6.86 5.54 12.19
12/25/2021 6:00:00 PM 5.35 41.63 0.055 6.87 5.72 12.18
12/25/2021 6:15:00 PM 5.37 41.666 0.055 6.86 5.68 12.17
12/25/2021 6:30:00 PM 5.39 41.702 0.055 6.87 5.65 12.16
12/25/2021 6:45:00 PM 5.41 41.738 0.055 6.86 5.78 12.15
12/25/2021 7:00:00 PM 5.43 41.774 0.055 6.84 5.65 12.14
12/25/2021 7:15:00 PM 5.45 41.81 0.055 6.86 5.6 12.13
12/25/2021 7:30:00 PM 5.47 41.846 0.055 6.86 5.23 12.13
12/25/2021 7:45:00 PM 5.5 41.9 0.055 6.86 5.37 12.12
12/25/2021 8:00:00 PM 5.52 41.936 0.055 6.83 5.31 12.12
12/25/2021 8:15:00 PM 5.55 41.99 0.055 6.86 5.04 12.11
12/25/2021 8:30:00 PM 5.57 42.026 0.055 6.85 4.97 12.11
12/25/2021 8:45:00 PM 5.59 42.062 0.055 6.86 5.07 12.1
12/25/2021 9:00:00 PM 5.61 42.098 0.055 6.85 5.08 12.1
12/25/2021 9:15:00 PM 5.63 42.134 0.055 6.86 4.82 12.09
12/25/2021 9:30:00 PM 5.65 42.17 0.055 6.81 4.7 12.09
12/25/2021 9:45:00 PM 5.66 42.188 0.055 6.86 4.72 12.09
12/25/2021 10:00:00 PM 5.69 42.242 0.055 6.85 4.6 12.07
12/25/2021 10:15:00 PM 5.71 42.278 0.055 6.87 4.7 12.08
12/25/2021 10:30:00 PM 5.73 42.314 0.055 6.84 4.42 12.08
12/25/2021 10:45:00 PM 5.74 42.332 0.055 6.87 4.49 12.07
12/25/2021 11:00:00 PM 5.76 42.368 0.055 6.86 4.5 12.07
12/25/2021 11:15:00 PM 5.77 42.386 0.055 6.87 4.48 12.07
12/25/2021 11:30:00 PM 5.77 42.386 0.055 6.87 4.28 12.07
12/25/2021 11:45:00 PM 5.77 42.386 0.055 6.87 4.28 12.07
12/26/2021 12:00:00 AM 5.76 42.368 0.055 6.88 4.22 12.07
12/26/2021 12:15:00 AM 5.76 42.368 0.054 6.87 4.32 12.07
12/26/2021 12:30:00 AM 5.75 42.35 0.055 6.86 4.26 12.08
12/26/2021 12:45:00 AM 5.72 42.296 0.054 6.82 4.14 12.09
12/26/2021 1:00:00 AM 5.69 42.242 0.055 6.87 4.04 12.09
12/26/2021 1:15:00 AM 5.66 42.188 0.055 6.87 3.88 12.1
12/26/2021 1:30:00 AM 5.63 42.134 0.055 6.85 3.96 12.11
12/26/2021 1:45:00 AM 5.62 42.116 0.055 6.87 3.91 12.12
12/26/2021 2:00:00 AM 5.61 42.098 0.055 6.86 3.95 12.13
12/26/2021 2:15:00 AM 5.6 42.08 0.055 6.86 3.86 12.13
12/26/2021 2:30:00 AM 5.59 42.062 0.055 6.87 3.84 12.14
12/26/2021 2:45:00 AM 5.57 42.026 0.055 6.86 3.82 12.14
12/26/2021 3:00:00 AM 5.56 42.008 0.055 6.86 3.67 12.15
12/26/2021 3:15:00 AM 5.55 41.99 0.055 6.86 3.6 12.17
12/26/2021 3:30:00 AM 5.54 41.972 0.055 6.86 3.66 12.17
12/26/2021 3:45:00 AM 5.52 41.936 0.055 6.86 3.56 12.18
12/26/2021 4:00:00 AM 5.49 41.882 0.055 6.87 3.59 12.19
12/26/2021 4:15:00 AM 5.47 41.846 0.055 6.87 3.64 12.2
12/26/2021 4:30:00 AM 5.46 41.828 0.055 6.84 3.57 12.21
12/26/2021 4:45:00 AM 5.44 41.792 0.055 6.86 3.5 12.22
12/26/2021 5:00:00 AM 5.42 41.756 0.055 6.86 3.57 12.22
12/26/2021 5:15:00 AM 5.41 41.738 0.055 6.86 3.54 12.23
12/26/2021 5:30:00 AM 5.39 41.702 0.055 6.86 3.53 12.24
12/26/2021 5:45:00 AM 5.35 41.63 0.055 6.85 3.69 12.25
12/26/2021 6:00:00 AM 5.32 41.576 0.055 6.86 3.78 12.26
12/26/2021 6:15:00 AM 5.3 41.54 0.055 6.86 3.77 12.27
12/26/2021 6:30:00 AM 5.26 41.468 0.055 6.87 3.55 12.28
12/26/2021 6:45:00 AM 5.23 41.414 0.055 6.85 3.41 12.3
12/26/2021 7:00:00 AM 5.2 41.36 0.055 6.86 3.38 12.31
12/26/2021 7:15:00 AM 5.15 41.27 0.055 6.79 3.23 12.32
12/26/2021 7:30:00 AM 5.11 41.198 0.055 6.86 3.24 12.34
12/26/2021 7:45:00 AM 5.07 41.126 0.055 6.86 3.16 12.36
12/26/2021 8:00:00 AM 5.02 41.036 0.055 6.82 3.09 12.4
12/26/2021 8:15:00 AM 4.98 40.964 0.055 6.87 2.97 12.44
12/26/2021 8:30:00 AM 4.96 40.928 0.055 6.88 2.99 12.5
12/26/2021 8:45:00 AM 4.94 40.892 0.055 6.88 3.2 12.56
12/26/2021 9:00:00 AM 4.94 40.892 0.055 6.9 2.9 12.62
12/26/2021 9:15:00 AM 4.94 40.892 0.055 6.91 2.89 12.69
12/26/2021 9:30:00 AM 4.95 40.91 0.055 6.87 2.89 12.75
12/26/2021 9:45:00 AM 4.94 40.892 0.055 6.94 2.86 12.78
12/26/2021 10:00:00 AM 4.96 40.928 0.055 6.93 2.89 12.83
12/26/2021 10:15:00 AM 5 41 0.054 6.96 2.79 12.86
12/26/2021 10:30:00 AM 5.02 41.036 0.054 6.97 2.67 12.89
12/26/2021 10:45:00 AM 5.06 41.108 0.054 6.94 2.65 12.91
12/26/2021 11:00:00 AM 5.1 41.18 0.054 6.97 2.73 12.92
12/26/2021 11:15:00 AM 5.12 41.216 0.054 6.99 2.67 12.92
12/26/2021 11:30:00 AM 5.15 41.27 0.054 7 2.62 12.93
12/26/2021 11:45:00 AM 5.17 41.306 0.054 7.01 2.68 12.93
12/26/2021 12:00:00 PM 5.21 41.378 0.054 7.02 2.57 12.94
12/26/2021 12:15:00 PM 5.23 41.414 0.054 7.02 2.65 12.92
12/26/2021 12:30:00 PM 5.25 41.45 0.054 7.02 2.65 12.91
12/26/2021 12:45:00 PM 5.28 41.504 0.054 7.03 2.54 12.91
12/26/2021 1:00:00 PM 5.32 41.576 0.054 7.03 2.55 12.92
12/26/2021 1:15:00 PM 5.38 41.684 0.054 7.01 2.55 12.91
12/26/2021 1:30:00 PM 5.44 41.792 0.054 7.05 2.53 12.92
12/26/2021 1:45:00 PM 5.53 41.954 0.054 7.05 2.41 12.9
12/26/2021 2:00:00 PM 5.57 42.026 0.054 7.06 2.49 12.88
12/26/2021 2:15:00 PM 5.57 42.026 0.054 7.06 2.46 12.86
12/26/2021 2:30:00 PM 5.55 41.99 0.054 7.05 2.42 12.84
12/26/2021 2:45:00 PM 5.54 41.972 0.054 7.05 2.47 12.83
12/26/2021 3:00:00 PM 5.53 41.954 0.054 7 2.41 12.81
12/26/2021 3:15:00 PM 5.51 41.918 0.054 7.03 2.38 12.79
12/26/2021 3:30:00 PM 5.49 41.882 0.054 7.03 2.39 12.76
12/26/2021 3:45:00 PM 5.48 41.864 0.054 7.02 2.46 12.74
12/26/2021 4:00:00 PM 5.45 41.81 0.054 7.01 2.41 12.68
12/26/2021 4:15:00 PM 5.42 41.756 0.054 6.99 2.56 12.62
12/26/2021 4:30:00 PM 5.37 41.666 0.054 6.98 2.38 12.58
12/26/2021 4:45:00 PM 5.31 41.558 0.054 6.96 2.44 12.54
12/26/2021 5:00:00 PM 5.25 41.45 0.054 6.93 2.43 12.51
12/26/2021 5:15:00 PM 5.19 41.342 0.054 6.93 2.39 12.49
12/26/2021 5:30:00 PM 5.12 41.216 0.054 6.91 2.56 12.47
12/26/2021 5:45:00 PM 5.04 41.072 0.054 6.89 2.58 12.47
12/26/2021 6:00:00 PM 4.97 40.946 0.054 6.85 2.61 12.47
12/26/2021 6:15:00 PM 4.89 40.802 0.054 6.88 2.56 12.49
12/26/2021 6:30:00 PM 4.82 40.676 0.054 6.87 2.57 12.51
12/26/2021 6:45:00 PM 4.74 40.532 0.054 6.87 2.68 12.52
12/26/2021 7:00:00 PM 4.67 40.406 0.054 6.81 2.58 12.54
12/26/2021 7:15:00 PM 4.6 40.28 0.054 6.86 2.65 12.57
12/26/2021 7:30:00 PM 4.53 40.154 0.054 6.85 2.52 12.58
12/26/2021 7:45:00 PM 4.46 40.028 0.054 6.84 2.54 12.6
12/26/2021 8:00:00 PM 4.39 39.902 0.054 6.85 2.59 12.63
12/26/2021 8:15:00 PM 4.33 39.794 0.054 6.85 2.57 12.65
12/26/2021 8:30:00 PM 4.28 39.704 0.054 6.86 2.68 12.67
12/26/2021 8:45:00 PM 4.22 39.596 0.054 6.83 2.61 12.69
12/26/2021 9:00:00 PM 4.16 39.488 0.054 6.84 2.6 12.71
12/26/2021 9:15:00 PM 4.11 39.398 0.054 6.83 2.65 12.74
12/26/2021 9:30:00 PM 4.05 39.29 0.054 6.83 2.66 12.75
12/26/2021 9:45:00 PM 4.01 39.218 0.054 6.83 2.66 12.77
12/26/2021 10:00:00 PM 3.97 39.146 0.054 6.83 2.65 12.79
12/26/2021 10:15:00 PM 3.94 39.092 0.054 6.83 2.74 12.8
12/26/2021 10:30:00 PM 3.91 39.038 0.055 6.78 2.82 12.82
12/26/2021 10:45:00 PM 3.87 38.966 0.055 6.82 2.77 12.83
12/26/2021 11:00:00 PM 3.84 38.912 0.055 6.83 2.8 12.85
12/26/2021 11:15:00 PM 3.8 38.84 0.055 6.83 2.69 12.86
12/26/2021 11:30:00 PM 3.78 38.804 0.055 6.82 2.8 12.88
12/26/2021 11:45:00 PM 3.74 38.732 0.055 6.83 2.71 12.89
12/27/2021 12:00:00 AM 3.7 38.66 0.055 6.84 2.78 12.9
12/27/2021 12:15:00 AM 3.67 38.606 0.054 6.83 2.7 12.91
12/27/2021 12:30:00 AM 3.63 38.534 0.055 6.83 2.67 12.92
12/27/2021 12:45:00 AM 3.6 38.48 0.054 6.83 2.67 12.94
12/27/2021 1:00:00 AM 3.56 38.408 0.054 6.83 2.83 12.95
12/27/2021 1:15:00 AM 3.53 38.354 0.055 6.83 2.75 12.96
12/27/2021 1:30:00 AM 3.49 38.282 0.054 6.84 2.69 12.97
12/27/2021 1:45:00 AM 3.45 38.21 0.054 6.79 2.63 12.97
12/27/2021 2:00:00 AM 3.41 38.138 0.054 6.84 2.7 12.99
12/27/2021 2:15:00 AM 3.37 38.066 0.054 6.78 2.74 13
12/27/2021 2:30:00 AM 3.34 38.012 0.054 6.82 2.65 13.01
12/27/2021 2:45:00 AM 3.31 37.958 0.054 6.83 2.52 13.02
12/27/2021 3:00:00 AM 3.29 37.922 0.054 6.84 2.64 13.03
12/27/2021 3:15:00 AM 3.27 37.886 0.054 6.83 2.66 13.04
12/27/2021 3:30:00 AM 3.25 37.85 0.054 6.84 2.65 13.05
12/27/2021 3:45:00 AM 3.24 37.832 0.054 6.84 2.65 13.06
12/27/2021 4:00:00 AM 3.22 37.796 0.054 6.84 2.69 13.06
12/27/2021 4:15:00 AM 3.2 37.76 0.054 6.83 2.74 13.07
12/27/2021 4:30:00 AM 3.19 37.742 0.054 6.83 2.69 13.07
12/27/2021 4:45:00 AM 3.18 37.724 0.054 6.84 2.62 13.08
12/27/2021 5:00:00 AM 3.16 37.688 0.054 6.84 2.71 13.09
12/27/2021 5:15:00 AM 3.15 37.67 0.054 6.84 2.69 13.09
12/27/2021 5:30:00 AM 3.14 37.652 0.054 6.78 2.67 13.09
12/27/2021 5:45:00 AM 3.13 37.634 0.054 6.84 2.7 13.09
12/27/2021 6:00:00 AM 3.13 37.634 0.054 6.82 2.8 13.1
12/27/2021 6:15:00 AM 3.12 37.616 0.054 6.84 2.76 13.1
12/27/2021 6:30:00 AM 3.12 37.616 0.054 6.84 2.64 13.1
12/27/2021 6:45:00 AM 3.11 37.598 0.054 6.84 2.6 13.09
12/27/2021 7:00:00 AM 3.11 37.598 0.054 6.84 2.53 13.09
12/27/2021 7:15:00 AM 3.11 37.598 0.054 6.84 2.52 13.1
12/27/2021 7:30:00 AM 3.11 37.598 0.054 6.83 2.45 13.1
12/27/2021 7:45:00 AM 3.12 37.616 0.054 6.84 2.46 13.1
12/27/2021 8:00:00 AM 3.12 37.616 0.054 6.84 2.48 13.1
12/27/2021 8:15:00 AM 3.13 37.634 0.054 6.84 2.46 13.1
12/27/2021 8:30:00 AM 3.12 37.616 0.054 6.84 2.39 13.12
12/27/2021 8:45:00 AM 3.11 37.598 0.054 6.83 2.34 13.14
12/27/2021 9:00:00 AM 3.05 37.49 0.054 6.86 2.32 13.17
12/27/2021 9:15:00 AM 3.03 37.454 0.054 6.87 2.32 13.22
12/27/2021 9:30:00 AM 3.04 37.472 0.054 6.87 2.37 13.26
12/27/2021 9:45:00 AM 3.06 37.508 0.054 6.88 2.29 13.32
12/27/2021 10:00:00 AM 3.09 37.562 0.054 6.89 2.32 13.36
12/27/2021 10:15:00 AM 3.08 37.544 0.053 6.92 2.3 13.39
12/27/2021 10:30:00 AM 3.09 37.562 0.053 6.91 2.27 13.42
12/27/2021 10:45:00 AM 3.11 37.598 0.053 6.94 2.28 13.43
12/27/2021 11:00:00 AM 3.11 37.598 0.053 6.94 2.31 13.43
12/27/2021 11:15:00 AM 3.12 37.616 0.053 6.95 2.18 13.44
12/27/2021 11:30:00 AM 3.14 37.652 0.053 6.96 2.18 13.44
12/27/2021 11:45:00 AM 3.16 37.688 0.053 6.96 2.28 13.42
12/27/2021 12:00:00 PM 3.16 37.688 0.053 6.96 2.2 13.4
12/27/2021 12:15:00 PM 3.12 37.616 0.053 6.96 2.21 13.39
12/27/2021 12:30:00 PM 3.17 37.706 0.056 6.97 2.32 13.41
12/27/2021 12:45:00 PM 3.2 37.76 0.056 6.97 2.26 13.4
12/27/2021 1:00:00 PM 3.24 37.832 0.055 6.91 2.18 13.39
12/27/2021 1:15:00 PM 3.26 37.868 0.054 6.97 2.17 13.37
12/27/2021 1:30:00 PM 3.28 37.904 0.054 6.97 2.1 13.35
12/27/2021 1:45:00 PM 3.3 37.94 0.054 6.97 2.08 13.32
12/27/2021 2:00:00 PM 3.31 37.958 0.055 6.97 2.21 13.3
12/27/2021 2:15:00 PM 3.33 37.994 0.055 6.95 2.25 13.28
12/27/2021 2:30:00 PM 3.34 38.012 0.054 6.92 2.15 13.24
12/27/2021 2:45:00 PM 3.35 38.03 0.053 6.94 2.26 13.2
12/27/2021 3:00:00 PM 3.36 38.048 0.053 6.93 2.28 13.18
12/27/2021 3:15:00 PM 3.36 38.048 0.053 6.94 2.21 13.14
12/27/2021 3:30:00 PM 3.37 38.066 0.053 6.93 2.26 13.12
12/27/2021 3:45:00 PM 3.38 38.084 0.053 6.93 2.26 13.09
12/27/2021 4:00:00 PM 3.39 38.102 0.053 6.88 2.22 13.07
12/27/2021 4:15:00 PM 3.4 38.12 0.053 6.91 2.26 13.05
12/27/2021 4:30:00 PM 3.41 38.138 0.053 6.89 2.31 13.02
12/27/2021 4:45:00 PM 3.42 38.156 0.053 6.88 2.26 12.99
12/27/2021 5:00:00 PM 3.42 38.156 0.053 6.87 2.48 12.97
12/27/2021 5:15:00 PM 3.43 38.174 0.053 6.88 2.4 12.95
12/27/2021 5:30:00 PM 3.43 38.174 0.053 6.88 2.5 12.93
12/27/2021 5:45:00 PM 3.44 38.192 0.054 6.84 2.5 12.92
12/27/2021 6:00:00 PM 3.45 38.21 0.054 6.85 2.5 12.91
12/27/2021 6:15:00 PM 3.46 38.228 0.054 6.87 2.48 12.9
12/27/2021 6:30:00 PM 3.47 38.246 0.054 6.84 2.56 12.89
12/27/2021 6:45:00 PM 3.47 38.246 0.054 6.87 2.54 12.88
12/27/2021 7:00:00 PM 3.48 38.264 0.054 6.86 2.52 12.88
12/27/2021 7:15:00 PM 3.49 38.282 0.055 6.85 2.52 12.87
12/27/2021 7:30:00 PM 3.5 38.3 0.054 6.86 2.58 12.86
12/27/2021 7:45:00 PM 3.51 38.318 0.054 6.86 2.57 12.86
12/27/2021 8:00:00 PM 3.51 38.318 0.054 6.87 2.54 12.85
12/27/2021 8:15:00 PM 3.52 38.336 0.054 6.86 2.51 12.85
12/27/2021 8:30:00 PM 3.54 38.372 0.054 6.86 2.57 12.84
12/27/2021 8:45:00 PM 3.55 38.39 0.054 6.79 2.71 12.84
12/27/2021 9:00:00 PM 3.56 38.408 0.054 6.86 2.7 12.84
12/27/2021 9:15:00 PM 3.57 38.426 0.054 6.87 2.72 12.82
12/27/2021 9:30:00 PM 3.58 38.444 0.054 6.86 2.73 12.82
12/27/2021 9:45:00 PM 3.59 38.462 0.054 6.83 2.71 12.82
12/27/2021 10:00:00 PM 3.59 38.462 0.054 6.86 2.82 12.82
12/27/2021 10:15:00 PM 3.61 38.498 0.054 6.87 2.88 12.81
12/27/2021 10:30:00 PM 3.62 38.516 0.054 6.85 3.06 12.8
12/27/2021 10:45:00 PM 3.63 38.534 0.054 6.86 2.91 12.8
12/27/2021 11:00:00 PM 3.64 38.552 0.054 6.85 3.01 12.8
12/27/2021 11:15:00 PM 3.65 38.57 0.054 6.86 2.75 12.79
12/27/2021 11:30:00 PM 3.66 38.588 0.054 6.86 2.77 12.79
12/27/2021 11:45:00 PM 3.67 38.606 0.054 6.85 2.78 12.79
12/28/2021 12:00:00 AM 3.68 38.624 0.055 6.85 2.8 12.78
12/28/2021 12:15:00 AM 3.69 38.642 0.054 6.85 2.84 12.78
12/28/2021 12:30:00 AM 3.71 38.678 0.054 6.86 2.79 12.78
12/28/2021 12:45:00 AM 3.71 38.678 0.054 6.86 2.8 12.78
12/28/2021 1:00:00 AM 3.72 38.696 0.054 6.85 2.82 12.78
12/28/2021 1:15:00 AM 3.73 38.714 0.054 6.87 2.82 12.78
12/28/2021 1:30:00 AM 3.74 38.732 0.054 6.86 2.75 12.77
12/28/2021 1:45:00 AM 3.75 38.75 0.054 6.86 2.77 12.77
12/28/2021 2:00:00 AM 3.75 38.75 0.054 6.86 2.78 12.77
12/28/2021 2:15:00 AM 3.75 38.75 0.054 6.86 2.69 12.77
12/28/2021 2:30:00 AM 3.76 38.768 0.054 6.87 2.75 12.77
12/28/2021 2:45:00 AM 3.77 38.786 0.054 6.86 2.74 12.77
12/28/2021 3:00:00 AM 3.78 38.804 0.054 6.86 2.72 12.77
12/28/2021 3:15:00 AM 3.78 38.804 0.054 6.87 2.64 12.77
12/28/2021 3:30:00 AM 3.78 38.804 0.054 6.86 2.62 12.77
12/28/2021 3:45:00 AM 3.78 38.804 0.054 6.86 2.71 12.77
12/28/2021 4:00:00 AM 3.77 38.786 0.054 6.86 2.91 12.78
12/28/2021 4:15:00 AM 3.77 38.786 0.054 6.86 2.83 12.77
12/28/2021 4:30:00 AM 3.75 38.75 0.054 6.86 2.93 12.78
12/28/2021 4:45:00 AM 3.73 38.714 0.054 6.86 2.96 12.78
12/28/2021 5:00:00 AM 3.7 38.66 0.054 6.87 2.69 12.79
12/28/2021 5:15:00 AM 3.67 38.606 0.054 6.85 2.68 12.8
12/28/2021 5:30:00 AM 3.64 38.552 0.054 6.86 2.83 12.81
12/28/2021 5:45:00 AM 3.61 38.498 0.054 6.85 2.84 12.82
12/28/2021 6:00:00 AM 3.58 38.444 0.054 6.85 2.71 12.84
12/28/2021 6:15:00 AM 3.53 38.354 0.054 6.85 2.68 12.86
12/28/2021 6:30:00 AM 3.49 38.282 0.054 6.81 2.77 12.87
12/28/2021 6:45:00 AM 3.46 38.228 0.054 6.82 2.68 12.88
12/28/2021 7:00:00 AM 3.43 38.174 0.054 6.85 2.73 12.89
12/28/2021 7:15:00 AM 3.39 38.102 0.054 6.85 2.64 12.91
12/28/2021 7:30:00 AM 3.36 38.048 0.054 6.81 2.61 12.92
12/28/2021 7:45:00 AM 3.33 37.994 0.054 6.86 2.65 12.94
12/28/2021 8:00:00 AM 3.3 37.94 0.054 6.84 2.54 12.98
12/28/2021 8:15:00 AM 3.28 37.904 0.054 6.84 2.53 13.03
12/28/2021 8:30:00 AM 3.27 37.886 0.054 6.88 2.46 13.07
12/28/2021 8:45:00 AM 3.26 37.868 0.054 6.88 2.47 13.12
12/28/2021 9:00:00 AM 3.25 37.85 0.054 6.87 2.42 13.15
12/28/2021 9:15:00 AM 3.25 37.85 0.054 6.9 2.55 13.2
12/28/2021 9:30:00 AM 3.28 37.904 0.054 6.91 2.44 13.25
12/28/2021 9:45:00 AM 3.29 37.922 0.054 6.93 2.47 13.28
12/28/2021 10:00:00 AM 3.34 38.012 0.053 6.93 2.4 13.31
12/28/2021 10:15:00 AM 3.41 38.138 0.053 6.94 2.41 13.34
12/28/2021 10:30:00 AM 3.47 38.246 0.053 6.95 2.3 13.36
12/28/2021 10:45:00 AM 3.54 38.372 0.053 6.96 2.3 13.37
12/28/2021 11:00:00 AM 3.61 38.498 0.053 6.97 2.3 13.37
12/28/2021 11:15:00 AM 3.69 38.642 0.053 6.99 2.36 13.37
12/28/2021 11:30:00 AM 3.78 38.804 0.053 6.99 2.29 13.37
12/28/2021 11:45:00 AM 3.88 38.984 0.053 7 2.25 13.36
12/28/2021 12:00:00 PM 3.94 39.092 0.053 7 2.22 13.33
12/28/2021 12:15:00 PM 4 39.2 0.053 7 2.23 13.29
12/28/2021 12:30:00 PM 4.05 39.29 0.053 7.01 2.2 13.25
12/28/2021 12:45:00 PM 4.1 39.38 0.053 7.01 2.18 13.22
12/28/2021 1:00:00 PM 4.13 39.434 0.053 7.02 2.24 13.18
12/28/2021 1:15:00 PM 4.16 39.488 0.053 6.99 2.13 13.14
12/28/2021 1:30:00 PM 4.19 39.542 0.053 6.99 2.12 13.1
12/28/2021 1:45:00 PM 4.25 39.65 0.052 6.98 2.08 13.09
12/28/2021 2:00:00 PM 4.3 39.74 0.052 7.01 2.13 13.08
12/28/2021 2:15:00 PM 4.34 39.812 0.052 7.01 2.2 13.06
12/28/2021 2:30:00 PM 4.37 39.866 0.052 7 2.15 13.02
12/28/2021 2:45:00 PM 4.39 39.902 0.052 6.98 2.19 12.96
12/28/2021 3:00:00 PM 4.4 39.92 0.052 6.95 2.17 12.9
12/28/2021 3:15:00 PM 4.41 39.938 0.052 6.98 2.17 12.84
12/28/2021 3:30:00 PM 4.42 39.956 0.052 6.93 2.22 12.81
12/28/2021 3:45:00 PM 4.43 39.974 0.052 6.96 2.18 12.79
12/28/2021 4:00:00 PM 4.43 39.974 0.052 6.93 2.25 12.75
12/28/2021 4:15:00 PM 4.43 39.974 0.052 6.9 2.17 12.74
12/28/2021 4:30:00 PM 4.43 39.974 0.052 6.93 2.62 12.71
12/28/2021 4:45:00 PM 4.43 39.974 0.053 6.89 3.36 12.67
12/28/2021 5:00:00 PM 4.44 39.992 0.053 6.91 3.76 12.65
12/28/2021 5:15:00 PM 4.43 39.974 0.053 6.91 3.28 12.63
12/28/2021 5:30:00 PM 4.41 39.938 0.053 6.9 2.97 12.62
12/28/2021 5:45:00 PM 4.37 39.866 0.052 6.89 2.63 12.61
12/28/2021 6:00:00 PM 4.31 39.758 0.055 6.88 2.56 12.61
12/28/2021 6:15:00 PM 4.19 39.542 0.054 6.88 2.6 12.6
12/28/2021 6:30:00 PM 4.09 39.362 0.054 6.84 2.51 12.61
12/28/2021 6:45:00 PM 4 39.2 0.053 6.87 2.61 12.61
12/28/2021 7:00:00 PM 3.9 39.02 0.053 6.87 2.61 12.63
12/28/2021 7:15:00 PM 3.76 38.768 0.053 6.83 2.58 12.66
12/28/2021 7:30:00 PM 3.64 38.552 0.053 6.87 2.61 12.68
12/28/2021 7:45:00 PM 3.56 38.408 0.053 6.85 2.59 12.72
12/28/2021 8:00:00 PM 3.48 38.264 0.052 6.83 2.82 12.75
12/28/2021 8:15:00 PM 3.34 38.012 0.052 6.85 2.62 12.77
12/28/2021 8:30:00 PM 3.26 37.868 0.052 6.82 2.83 12.81
12/28/2021 8:45:00 PM 3.24 37.832 0.052 6.83 2.76 12.84
12/28/2021 9:00:00 PM 3.24 37.832 0.052 6.82 2.76 12.88
12/28/2021 9:15:00 PM 3.25 37.85 0.053 6.84 2.85 12.9
12/28/2021 9:30:00 PM 3.24 37.832 0.054 6.84 2.85 12.92
12/28/2021 9:45:00 PM 3.21 37.778 0.053 6.81 2.83 12.94
12/28/2021 10:00:00 PM 3.2 37.76 0.053 6.82 2.92 12.94
12/28/2021 10:15:00 PM 3.21 37.778 0.053 6.8 2.81 12.95
12/28/2021 10:30:00 PM 3.23 37.814 0.053 6.83 2.78 12.94
12/28/2021 10:45:00 PM 3.24 37.832 0.053 6.83 2.83 12.94
12/28/2021 11:00:00 PM 3.24 37.832 0.053 6.82 2.86 12.95
12/28/2021 11:15:00 PM 3.24 37.832 0.053 6.82 2.77 12.95
12/28/2021 11:30:00 PM 3.23 37.814 0.053 6.82 2.83 12.95
12/28/2021 11:45:00 PM 3.24 37.832 0.053 6.83 2.91 12.95
12/29/2021 12:00:00 AM 3.24 37.832 0.053 6.77 2.79 12.95
12/29/2021 12:15:00 AM 3.24 37.832 0.053 6.81 2.74 12.94
12/29/2021 12:30:00 AM 3.25 37.85 0.053 6.81 2.91 12.94
12/29/2021 12:45:00 AM 3.26 37.868 0.053 6.83 2.93 12.94
12/29/2021 1:00:00 AM 3.27 37.886 0.053 6.82 2.9 12.93
12/29/2021 1:15:00 AM 3.28 37.904 0.053 6.81 2.81 12.93
12/29/2021 1:30:00 AM 3.29 37.922 0.053 6.82 2.88 12.92
12/29/2021 1:45:00 AM 3.31 37.958 0.053 6.82 2.86 12.91
12/29/2021 2:00:00 AM 3.32 37.976 0.053 6.78 2.88 12.9
12/29/2021 2:15:00 AM 3.34 38.012 0.053 6.81 2.89 12.9
12/29/2021 2:30:00 AM 3.35 38.03 0.053 6.82 2.99 12.89
12/29/2021 2:45:00 AM 3.37 38.066 0.053 6.81 2.95 12.89
12/29/2021 3:00:00 AM 3.38 38.084 0.053 6.79 3.04 12.89
12/29/2021 3:15:00 AM 3.39 38.102 0.053 6.78 2.9 12.88
12/29/2021 3:30:00 AM 3.41 38.138 0.053 6.79 3.16 12.88
12/29/2021 3:45:00 AM 3.42 38.156 0.053 6.81 2.96 12.87
12/29/2021 4:00:00 AM 3.43 38.174 0.053 6.8 3.12 12.87
12/29/2021 4:15:00 AM 3.44 38.192 0.053 6.8 2.95 12.86
12/29/2021 4:30:00 AM 3.45 38.21 0.053 6.78 3.15 12.86
12/29/2021 4:45:00 AM 3.47 38.246 0.053 6.79 2.92 12.86
12/29/2021 5:00:00 AM 3.48 38.264 0.053 6.81 2.99 12.85
12/29/2021 5:15:00 AM 3.49 38.282 0.054 6.78 3.04 12.85
12/29/2021 5:30:00 AM 3.5 38.3 0.054 6.81 2.96 12.85
12/29/2021 5:45:00 AM 3.5 38.3 0.054 6.76 3.15 12.84
12/29/2021 6:00:00 AM 3.52 38.336 0.054 6.78 2.96 12.83
12/29/2021 6:15:00 AM 3.53 38.354 0.054 6.79 3.11 12.83
12/29/2021 6:30:00 AM 3.54 38.372 0.054 6.79 3.03 12.83
12/29/2021 6:45:00 AM 3.55 38.39 0.054 6.81 2.92 12.83
12/29/2021 7:00:00 AM 3.56 38.408 0.054 6.81 2.99 12.83
12/29/2021 7:15:00 AM 3.57 38.426 0.054 6.78 2.99 12.83
12/29/2021 7:30:00 AM 3.58 38.444 0.054 6.8 2.94 12.83
12/29/2021 7:45:00 AM 3.6 38.48 0.055 6.79 3.02 12.83
12/29/2021 8:00:00 AM 3.61 38.498 0.055 6.79 2.99 12.83
12/29/2021 8:15:00 AM 3.62 38.516 0.055 6.81 3 12.84
12/29/2021 8:30:00 AM 3.64 38.552 0.055 6.82 2.9 12.86
12/29/2021 8:45:00 AM 3.66 38.588 0.055 6.79 2.87 12.9
12/29/2021 9:00:00 AM 3.68 38.624 0.055 6.83 2.85 12.92
12/29/2021 9:15:00 AM 3.7 38.66 0.055 6.85 2.8 12.94
12/29/2021 9:30:00 AM 3.72 38.696 0.055 6.85 2.87 12.97
12/29/2021 9:45:00 AM 3.75 38.75 0.055 6.85 2.88 13
12/29/2021 10:00:00 AM 3.78 38.804 0.055 6.87 2.78 13.02
12/29/2021 10:15:00 AM 3.82 38.876 0.055 6.88 2.74 13.05
12/29/2021 10:30:00 AM 3.85 38.93 0.055 6.9 2.78 13.06
12/29/2021 10:45:00 AM 3.88 38.984 0.055 6.91 2.76 13.08
12/29/2021 11:00:00 AM 3.92 39.056 0.055 6.91 2.67 13.08
12/29/2021 11:15:00 AM 3.95 39.11 0.055 6.87 2.67 13.08
12/29/2021 11:30:00 AM 3.98 39.164 0.055 6.91 2.67 13.07
12/29/2021 11:45:00 AM 4.01 39.218 0.055 6.9 2.82 13.06
12/29/2021 12:00:00 PM 4.04 39.272 0.055 6.88 2.71 13.07
12/29/2021 12:15:00 PM 4.08 39.344 0.055 6.92 2.67 13.07
12/29/2021 12:30:00 PM 4.13 39.434 0.055 6.93 2.71 13.08
12/29/2021 12:45:00 PM 4.17 39.506 0.055 6.92 2.84 13.07
12/29/2021 1:00:00 PM 4.2 39.56 0.055 6.93 2.81 13.06
12/29/2021 1:15:00 PM 4.23 39.614 0.055 6.94 2.82 13.05
12/29/2021 1:30:00 PM 4.27 39.686 0.055 6.95 2.96 13.04
12/29/2021 1:45:00 PM 4.32 39.776 0.055 6.96 2.83 13.06
12/29/2021 2:00:00 PM 4.37 39.866 0.055 6.97 2.98 13.05
12/29/2021 2:15:00 PM 4.42 39.956 0.055 6.95 2.87 13.04
12/29/2021 2:30:00 PM 4.47 40.046 0.055 6.97 3.05 13.02
12/29/2021 2:45:00 PM 4.5 40.1 0.055 6.97 2.94 12.99
12/29/2021 3:00:00 PM 4.53 40.154 0.055 6.96 2.98 12.95
12/29/2021 3:15:00 PM 4.56 40.208 0.055 6.95 3 12.92
12/29/2021 3:30:00 PM 4.58 40.244 0.055 6.95 3.14 12.89
12/29/2021 3:45:00 PM 4.6 40.28 0.055 6.91 3.16 12.83
12/29/2021 4:00:00 PM 4.62 40.316 0.055 6.93 3.19 12.79
12/29/2021 4:15:00 PM 4.63 40.334 0.055 6.9 3.22 12.74
12/29/2021 4:30:00 PM 4.65 40.37 0.056 6.92 3.4 12.69
12/29/2021 4:45:00 PM 4.65 40.37 0.056 6.91 3.47 12.65
12/29/2021 5:00:00 PM 4.66 40.388 0.056 6.9 3.48 12.63
12/29/2021 5:15:00 PM 4.67 40.406 0.056 6.89 3.73 12.59
12/29/2021 5:30:00 PM 4.68 40.424 0.056 6.9 3.8 12.57
12/29/2021 5:45:00 PM 4.68 40.424 0.056 6.84 3.9 12.55
12/29/2021 6:00:00 PM 4.68 40.424 0.056 6.87 4.11 12.54
12/29/2021 6:15:00 PM 4.69 40.442 0.056 6.87 4.11 12.54
12/29/2021 6:30:00 PM 4.69 40.442 0.056 6.87 4.25 12.52
12/29/2021 6:45:00 PM 4.69 40.442 0.056 6.86 4.46 12.53
12/29/2021 7:00:00 PM 4.7 40.46 0.056 6.86 4.31 12.52
12/29/2021 7:15:00 PM 4.7 40.46 0.056 6.81 4.56 12.52
12/29/2021 7:30:00 PM 4.7 40.46 0.056 6.85 4.69 12.52
12/29/2021 7:45:00 PM 4.7 40.46 0.056 6.83 4.77 12.52
12/29/2021 8:00:00 PM 4.71 40.478 0.056 6.85 4.71 12.52
12/29/2021 8:15:00 PM 4.71 40.478 0.056 6.85 4.63 12.51
12/29/2021 8:30:00 PM 4.72 40.496 0.057 6.84 4.6 12.51
12/29/2021 8:45:00 PM 4.72 40.496 0.057 6.84 4.58 12.51
12/29/2021 9:00:00 PM 4.73 40.514 0.057 6.85 4.47 12.51
12/29/2021 9:15:00 PM 4.73 40.514 0.057 6.85 4.51 12.49
12/29/2021 9:30:00 PM 4.73 40.514 0.057 6.85 4.5 12.5
12/29/2021 9:45:00 PM 4.74 40.532 0.057 6.85 4.43 12.5
12/29/2021 10:00:00 PM 4.74 40.532 0.057 6.86 4.44 12.49
12/29/2021 10:15:00 PM 4.74 40.532 0.057 6.86 4.4 12.5
12/29/2021 10:30:00 PM 4.75 40.55 0.057 6.86 4.44 12.49
12/29/2021 10:45:00 PM 4.75 40.55 0.057 6.84 4.44 12.49
12/29/2021 11:00:00 PM 4.76 40.568 0.057 6.85 4.2 12.49
12/29/2021 11:15:00 PM 4.76 40.568 0.057 6.86 4.3 12.49
12/29/2021 11:30:00 PM 4.76 40.568 0.056 6.85 4.37 12.49
12/29/2021 11:45:00 PM 4.77 40.586 0.057 6.86 4.08 12.48
12/30/2021 12:00:00 AM 4.77 40.586 0.057 6.85 4.24 12.48
12/30/2021 12:15:00 AM 4.77 40.586 0.056 6.86 4.17 12.48
12/30/2021 12:30:00 AM 4.78 40.604 0.056 6.85 4.07 12.48
12/30/2021 12:45:00 AM 4.78 40.604 0.056 6.85 4.08 12.48
12/30/2021 1:00:00 AM 4.79 40.622 0.056 6.81 4.02 12.47
12/30/2021 1:15:00 AM 4.79 40.622 0.056 6.85 4.16 12.47
12/30/2021 1:30:00 AM 4.79 40.622 0.056 6.85 3.97 12.47
12/30/2021 1:45:00 AM 4.79 40.622 0.056 6.86 3.99 12.47
12/30/2021 2:00:00 AM 4.8 40.64 0.056 6.86 3.98 12.47
12/30/2021 2:15:00 AM 4.8 40.64 0.056 6.85 3.96 12.47
12/30/2021 2:30:00 AM 4.8 40.64 0.056 6.85 4.05 12.46
12/30/2021 2:45:00 AM 4.81 40.658 0.056 6.86 4.05 12.46
12/30/2021 3:00:00 AM 4.81 40.658 0.056 6.79 3.84 12.46
12/30/2021 3:15:00 AM 4.81 40.658 0.056 6.85 3.85 12.45
12/30/2021 3:30:00 AM 4.81 40.658 0.056 6.82 3.97 12.46
12/30/2021 3:45:00 AM 4.82 40.676 0.056 6.84 3.92 12.46
12/30/2021 4:00:00 AM 4.82 40.676 0.056 6.84 3.92 12.45
12/30/2021 4:15:00 AM 4.83 40.694 0.056 6.83 4.01 12.45
12/30/2021 4:30:00 AM 4.83 40.694 0.056 6.83 3.93 12.45
12/30/2021 4:45:00 AM 4.83 40.694 0.056 6.85 3.98 12.45
12/30/2021 5:00:00 AM 4.84 40.712 0.056 6.86 3.91 12.45
12/30/2021 5:15:00 AM 4.84 40.712 0.056 6.82 4.06 12.44
12/30/2021 5:30:00 AM 4.85 40.73 0.056 6.84 3.99 12.45
12/30/2021 5:45:00 AM 4.85 40.73 0.056 6.85 3.85 12.44
12/30/2021 6:00:00 AM 4.86 40.748 0.056 6.79 3.8 12.44
12/30/2021 6:15:00 AM 4.86 40.748 0.056 6.83 3.83 12.44
12/30/2021 6:30:00 AM 4.87 40.766 0.056 6.84 3.67 12.45
12/30/2021 6:45:00 AM 4.87 40.766 0.056 6.84 3.67 12.44
12/30/2021 7:00:00 AM 4.87 40.766 0.056 6.85 3.78 12.44
12/30/2021 7:15:00 AM 4.88 40.784 0.056 6.84 3.78 12.44
12/30/2021 7:30:00 AM 4.88 40.784 0.056 6.84 3.54 12.44
12/30/2021 7:45:00 AM 4.89 40.802 0.056 6.84 3.48 12.44
12/30/2021 8:00:00 AM 4.9 40.82 0.056 6.8 3.54 12.45
12/30/2021 8:15:00 AM 4.9 40.82 0.056 6.85 3.47 12.46
12/30/2021 8:30:00 AM 4.91 40.838 0.056 6.85 3.37 12.47
12/30/2021 8:45:00 AM 4.92 40.856 0.056 6.85 3.29 12.48
12/30/2021 9:00:00 AM 4.94 40.892 0.056 6.87 3.5 12.5
12/30/2021 9:15:00 AM 4.95 40.91 0.056 6.84 3.27 12.53
12/30/2021 9:30:00 AM 4.97 40.946 0.055 6.86 3.17 12.55
12/30/2021 9:45:00 AM 5 41 0.055 6.88 3.18 12.61
12/30/2021 10:00:00 AM 5.05 41.09 0.055 6.91 3.11 12.66
12/30/2021 10:15:00 AM 5.08 41.144 0.055 6.9 3.02 12.68
12/30/2021 10:30:00 AM 5.13 41.234 0.055 6.9 3.14 12.71
12/30/2021 10:45:00 AM 5.18 41.324 0.055 6.95 3.06 12.73
12/30/2021 11:00:00 AM 5.22 41.396 0.055 6.96 2.93 12.74
12/30/2021 11:15:00 AM 5.26 41.468 0.055 6.96 2.96 12.73
12/30/2021 11:30:00 AM 5.3 41.54 0.055 6.97 3.01 12.72
12/30/2021 11:45:00 AM 5.34 41.612 0.055 6.98 2.85 12.72
12/30/2021 12:00:00 PM 5.39 41.702 0.055 6.98 2.82 12.72
12/30/2021 12:15:00 PM 5.44 41.792 0.054 6.99 2.81 12.72
12/30/2021 12:30:00 PM 5.49 41.882 0.054 6.99 2.83 12.7
12/30/2021 12:45:00 PM 5.55 41.99 0.054 6.98 2.8 12.7
12/30/2021 1:00:00 PM 5.61 42.098 0.054 7.01 2.83 12.69
12/30/2021 1:15:00 PM 5.66 42.188 0.054 6.99 2.97 12.66
12/30/2021 1:30:00 PM 5.72 42.296 0.054 7 2.88 12.65
12/30/2021 1:45:00 PM 5.78 42.404 0.054 7.02 2.86 12.64
12/30/2021 2:00:00 PM 5.83 42.494 0.054 7.01 2.98 12.6
12/30/2021 2:15:00 PM 5.87 42.566 0.054 7.01 2.94 12.57
12/30/2021 2:30:00 PM 5.93 42.674 0.054 7.01 2.96 12.57
12/30/2021 2:45:00 PM 5.96 42.728 0.054 7.02 3.01 12.54
12/30/2021 3:00:00 PM 5.99 42.782 0.054 7.01 3.06 12.48
12/30/2021 3:15:00 PM 6.02 42.836 0.054 6.99 3.06 12.43
12/30/2021 3:30:00 PM 6.03 42.854 0.054 6.99 3.04 12.36
12/30/2021 3:45:00 PM 6.04 42.872 0.054 6.97 3.09 12.33
12/30/2021 4:00:00 PM 6.05 42.89 0.054 6.94 3.14 12.3
12/30/2021 4:15:00 PM 6.07 42.926 0.054 6.94 3.28 12.28
12/30/2021 4:30:00 PM 6.07 42.926 0.054 6.95 3.17 12.25
12/30/2021 4:45:00 PM 6.07 42.926 0.054 6.93 3.26 12.21
12/30/2021 5:00:00 PM 6.06 42.908 0.054 6.94 3.31 12.17
12/30/2021 5:15:00 PM 6.07 42.926 0.054 6.92 3.3 12.13
12/30/2021 5:30:00 PM 6.07 42.926 0.054 6.9 3.49 12.11
12/30/2021 5:45:00 PM 6.07 42.926 0.054 6.89 3.59 12.09
12/30/2021 6:00:00 PM 6.07 42.926 0.054 6.87 3.58 12.08
12/30/2021 6:15:00 PM 6.07 42.926 0.054 6.88 3.61 12.06
12/30/2021 6:30:00 PM 6.06 42.908 0.054 6.88 3.71 12.06
12/30/2021 6:45:00 PM 6.06 42.908 0.054 6.88 3.72 12.05
12/30/2021 7:00:00 PM 6.04 42.872 0.054 6.87 4.03 12.06
12/30/2021 7:15:00 PM 6.03 42.854 0.054 6.86 3.67 12.05
12/30/2021 7:30:00 PM 6.03 42.854 0.054 6.87 3.7 12.06
12/30/2021 7:45:00 PM 6.02 42.836 0.054 6.87 3.74 12.05
12/30/2021 8:00:00 PM 6.01 42.818 0.054 6.86 3.79 12.06
12/30/2021 8:15:00 PM 6 42.8 0.054 6.87 3.71 12.06
12/30/2021 8:30:00 PM 6 42.8 0.054 6.86 3.64 12.07
12/30/2021 8:45:00 PM 6 42.8 0.054 6.85 3.76 12.06
12/30/2021 9:00:00 PM 6 42.8 0.054 6.85 3.61 12.07
12/30/2021 9:15:00 PM 6 42.8 0.054 6.86 3.61 12.06
12/30/2021 9:30:00 PM 6 42.8 0.054 6.82 3.72 12.07
12/30/2021 9:45:00 PM 6 42.8 0.054 6.87 3.63 12.07
12/30/2021 10:00:00 PM 6 42.8 0.054 6.82 3.78 12.07
12/30/2021 10:15:00 PM 6.01 42.818 0.054 6.87 3.63 12.07
12/30/2021 10:30:00 PM 6.01 42.818 0.054 6.86 3.67 12.07
12/30/2021 10:45:00 PM 6 42.8 0.054 6.84 3.76 12.07
12/30/2021 11:00:00 PM 6 42.8 0.054 6.86 3.65 12.07
12/30/2021 11:15:00 PM 6.01 42.818 0.054 6.85 3.75 12.07
12/30/2021 11:30:00 PM 6.01 42.818 0.054 6.85 3.91 12.06
12/30/2021 11:45:00 PM 6.01 42.818 0.053 6.82 3.99 12.07
12/31/2021 12:00:00 AM 6.01 42.818 0.054 6.83 3.83 12.07
12/31/2021 12:15:00 AM 6.01 42.818 0.053 6.85 3.68 12.07
12/31/2021 12:30:00 AM 6.01 42.818 0.053 6.85 3.87 12.07
12/31/2021 12:45:00 AM 6.01 42.818 0.053 6.84 3.56 12.06
12/31/2021 1:00:00 AM 6.02 42.836 0.053 6.84 3.71 12.06
12/31/2021 1:15:00 AM 6.02 42.836 0.053 6.86 3.77 12.06
12/31/2021 1:30:00 AM 6.02 42.836 0.053 6.85 3.63 12.06
12/31/2021 1:45:00 AM 6.02 42.836 0.053 6.85 3.79 12.07
12/31/2021 2:00:00 AM 6.02 42.836 0.053 6.82 3.87 12.06
12/31/2021 2:15:00 AM 6.03 42.854 0.053 6.84 3.81 12.06
12/31/2021 2:30:00 AM 6.03 42.854 0.053 6.84 3.83 12.06
12/31/2021 2:45:00 AM 6.03 42.854 0.053 6.85 3.77 12.06
12/31/2021 3:00:00 AM 6.03 42.854 0.053 6.82 3.7 12.06
12/31/2021 3:15:00 AM 6.03 42.854 0.053 6.83 3.72 12.06
12/31/2021 3:30:00 AM 6.03 42.854 0.053 6.84 3.72 12.05
12/31/2021 3:45:00 AM 6.02 42.836 0.053 6.83 3.86 12.06
12/31/2021 4:00:00 AM 6.02 42.836 0.053 6.83 3.7 12.05
12/31/2021 4:15:00 AM 6.02 42.836 0.053 6.81 3.93 12.05
12/31/2021 4:30:00 AM 6.02 42.836 0.053 6.83 3.83 12.05
12/31/2021 4:45:00 AM 6.02 42.836 0.053 6.84 3.89 12.05
12/31/2021 5:00:00 AM 6.01 42.818 0.053 6.82 3.67 12.05
12/31/2021 5:15:00 AM 6.01 42.818 0.053 6.81 3.64 12.05
12/31/2021 5:30:00 AM 6.01 42.818 0.053 6.84 3.8 12.05
12/31/2021 5:45:00 AM 6.01 42.818 0.053 6.82 3.85 12.05
12/31/2021 6:00:00 AM 6.01 42.818 0.053 6.84 3.73 12.05
12/31/2021 6:15:00 AM 6.01 42.818 0.053 6.79 3.85 12.05
12/31/2021 6:30:00 AM 6.01 42.818 0.053 6.85 3.76 12.05
12/31/2021 6:45:00 AM 6.01 42.818 0.053 6.79 3.66 12.05
12/31/2021 7:00:00 AM 6.01 42.818 0.053 6.82 3.86 12.05
12/31/2021 7:15:00 AM 6.01 42.818 0.053 6.84 3.64 12.05
12/31/2021 7:30:00 AM 6.02 42.836 0.053 6.84 3.72 12.06
12/31/2021 7:45:00 AM 6.02 42.836 0.053 6.83 3.69 12.06
12/31/2021 8:00:00 AM 6.02 42.836 0.053 6.84 3.87 12.06
12/31/2021 8:15:00 AM 6.02 42.836 0.053 6.84 3.62 12.09
12/31/2021 8:30:00 AM 6.02 42.836 0.053 6.8 3.52 12.13
12/31/2021 8:45:00 AM 6.03 42.854 0.053 6.86 3.43 12.16
12/31/2021 9:00:00 AM 6.05 42.89 0.053 6.87 3.38 12.2
12/31/2021 9:15:00 AM 6.07 42.926 0.052 6.88 3.49 12.23
12/31/2021 9:30:00 AM 6.11 42.998 0.052 6.89 3.3 12.27
12/31/2021 9:45:00 AM 6.13 43.034 0.052 6.85 3.35 12.28
12/31/2021 10:00:00 AM 6.15 43.07 0.052 6.9 3.52 12.28
12/31/2021 10:15:00 AM 6.19 43.142 0.052 6.93 3.34 12.32
12/31/2021 10:30:00 AM 6.23 43.214 0.052 6.94 3.18 12.36
12/31/2021 10:45:00 AM 6.3 43.34 0.052 6.96 3.18 12.39
12/31/2021 11:00:00 AM 6.39 43.502 0.052 6.94 3.28 12.41
12/31/2021 11:15:00 AM 6.45 43.61 0.052 6.98 3.33 12.4
12/31/2021 11:30:00 AM 6.51 43.718 0.052 6.99 3.2 12.39
12/31/2021 11:45:00 AM 6.58 43.844 0.052 6.99 3.21 12.39
12/31/2021 12:00:00 PM 6.64 43.952 0.052 7.01 3.26 12.38
12/31/2021 12:15:00 PM 6.71 44.078 0.051 7.02 3.38 12.37
12/31/2021 12:30:00 PM 6.77 44.186 0.052 7.01 3.18 12.35
12/31/2021 12:45:00 PM 6.85 44.33 0.051 7.02 3.25 12.34
12/31/2021 1:00:00 PM 6.91 44.438 0.051 7.04 3.26 12.32
12/31/2021 1:15:00 PM 6.96 44.528 0.051 7.02 3.14 12.28
12/31/2021 1:30:00 PM 7 44.6 0.051 7.05 3.31 12.27
12/31/2021 1:45:00 PM 7.1 44.78 0.051 7.04 3.12 12.26
12/31/2021 2:00:00 PM 7.19 44.942 0.051 7.01 3.26 12.24
12/31/2021 2:15:00 PM 7.24 45.032 0.051 7.04 3.24 12.22
12/31/2021 2:30:00 PM 7.28 45.104 0.051 7.05 3.55 12.19
12/31/2021 2:45:00 PM 7.33 45.194 0.051 7.03 3.4 12.16
12/31/2021 3:00:00 PM 7.35 45.23 0.051 7.05 3.26 12.13
12/31/2021 3:15:00 PM 7.37 45.266 0.051 7.04 3.3 12.09
12/31/2021 3:30:00 PM 7.39 45.302 0.051 7.03 3.25 12.05
12/31/2021 3:45:00 PM 7.39 45.302 0.051 7.01 3.19 11.99
12/31/2021 4:00:00 PM 7.4 45.32 0.051 6.99 3.37 11.93
12/31/2021 4:15:00 PM 7.4 45.32 0.051 6.98 3.46 11.88
12/31/2021 4:30:00 PM 7.4 45.32 0.051 6.97 3.46 11.82
12/31/2021 4:45:00 PM 7.38 45.284 0.051 6.9 3.7 11.78
12/31/2021 5:00:00 PM 7.36 45.248 0.051 6.93 3.54 11.75
12/31/2021 5:15:00 PM 7.33 45.194 0.051 6.91 3.77 11.72
12/31/2021 5:30:00 PM 7.29 45.122 0.051 6.9 3.63 11.7
12/31/2021 5:45:00 PM 7.26 45.068 0.051 6.9 3.67 11.7
12/31/2021 6:00:00 PM 7.22 44.996 0.051 6.88 3.62 11.7
12/31/2021 6:15:00 PM 7.18 44.924 0.051 6.88 3.62 11.7
12/31/2021 6:30:00 PM 7.15 44.87 0.051 6.86 3.9 11.71
12/31/2021 6:45:00 PM 7.12 44.816 0.051 6.87 3.87 11.71
12/31/2021 7:00:00 PM 7.1 44.78 0.051 6.85 3.83 11.71
12/31/2021 7:15:00 PM 7.08 44.744 0.051 6.84 3.87 11.72
12/31/2021 7:30:00 PM 7.05 44.69 0.051 6.86 3.96 11.72
12/31/2021 7:45:00 PM 7.02 44.636 0.051 6.85 3.7 11.73
12/31/2021 8:00:00 PM 6.98 44.564 0.051 6.86 3.87 11.73
12/31/2021 8:15:00 PM 6.94 44.492 0.051 6.84 3.77 11.74
12/31/2021 8:30:00 PM 6.9 44.42 0.051 6.86 3.81 11.75
12/31/2021 8:45:00 PM 6.87 44.366 0.051 6.84 3.93 11.76
12/31/2021 9:00:00 PM 6.84 44.312 0.051 6.86 3.58 11.76
12/31/2021 9:15:00 PM 6.81 44.258 0.051 6.86 3.81 11.77
12/31/2021 9:30:00 PM 6.78 44.204 0.051 6.85 3.69 11.78
12/31/2021 9:45:00 PM 6.74 44.132 0.051 6.85 3.93 11.79
12/31/2021 10:00:00 PM 6.7 44.06 0.051 6.82 3.66 11.8
12/31/2021 10:15:00 PM 6.67 44.006 0.051 6.84 4.04 11.8
12/31/2021 10:30:00 PM 6.64 43.952 0.051 6.83 4.01 11.82
12/31/2021 10:45:00 PM 6.61 43.898 0.051 6.82 3.89 11.82
12/31/2021 11:00:00 PM 6.58 43.844 0.051 6.83 3.7 11.83
12/31/2021 11:15:00 PM 6.56 43.808 0.051 6.81 4.13 11.84
12/31/2021 11:30:00 PM 6.54 43.772 0.051 6.82 3.78 11.85
12/31/2021 11:45:00 PM 6.52 43.736 0.051 6.83 3.88 11.86
1/1/2022 12:00:00 AM 6.5 43.7 0.051 6.84 3.63 11.86
1/1/2022 12:15:00 AM 6.48 43.664 0.051 6.84 3.95 11.87
1/1/2022 12:30:00 AM 6.46 43.628 0.051 6.83 3.76 11.87
1/1/2022 12:45:00 AM 6.44 43.592 0.051 6.83 3.83 11.88
1/1/2022 1:00:00 AM 6.42 43.556 0.051 6.85 3.9 11.88
1/1/2022 1:15:00 AM 6.4 43.52 0.051 6.83 3.85 11.89
1/1/2022 1:30:00 AM 6.38 43.484 0.051 6.83 3.75 11.89
1/1/2022 1:45:00 AM 6.37 43.466 0.051 6.79 3.7 11.89
1/1/2022 2:00:00 AM 6.37 43.466 0.051 6.83 3.6 11.89
1/1/2022 2:15:00 AM 6.36 43.448 0.051 6.85 3.58 11.9
1/1/2022 2:30:00 AM 6.35 43.43 0.051 6.84 3.81 11.9
1/1/2022 2:45:00 AM 6.35 43.43 0.051 6.82 3.9 11.9
1/1/2022 3:00:00 AM 6.34 43.412 0.051 6.85 3.71 11.9
1/1/2022 3:15:00 AM 6.34 43.412 0.051 6.85 3.78 11.9
1/1/2022 3:30:00 AM 6.34 43.412 0.051 6.84 3.68 11.9
1/1/2022 3:45:00 AM 6.34 43.412 0.051 6.85 3.57 11.91
1/1/2022 4:00:00 AM 6.34 43.412 0.051 6.85 3.67 11.91
1/1/2022 4:15:00 AM 6.34 43.412 0.051 6.85 3.85 11.91
1/1/2022 4:30:00 AM 6.34 43.412 0.051 6.84 3.64 11.91
1/1/2022 4:45:00 AM 6.34 43.412 0.051 6.86 3.83 11.91
1/1/2022 5:00:00 AM 6.33 43.394 0.051 6.79 3.66 11.91
1/1/2022 5:15:00 AM 6.32 43.376 0.051 6.84 3.7 11.91
1/1/2022 5:30:00 AM 6.32 43.376 0.051 6.86 3.72 11.91
1/1/2022 5:45:00 AM 6.31 43.358 0.051 6.84 4 11.91
1/1/2022 6:00:00 AM 6.3 43.34 0.051 6.83 3.67 11.91
1/1/2022 6:15:00 AM 6.3 43.34 0.051 6.86 3.79 11.91
1/1/2022 6:30:00 AM 6.29 43.322 0.051 6.85 3.67 11.91
1/1/2022 6:45:00 AM 6.29 43.322 0.051 6.84 3.68 11.91
1/1/2022 7:00:00 AM 6.28 43.304 0.051 6.85 3.61 11.91
1/1/2022 7:15:00 AM 6.28 43.304 0.051 6.85 3.66 11.92
1/1/2022 7:30:00 AM 6.27 43.286 0.051 6.85 3.69 11.92
1/1/2022 7:45:00 AM 6.27 43.286 0.051 6.84 3.5 11.92
1/1/2022 8:00:00 AM 6.26 43.268 0.051 6.85 3.35 11.93
1/1/2022 8:15:00 AM 6.27 43.286 0.051 6.84 3.3 11.93
1/1/2022 8:30:00 AM 6.27 43.286 0.051 6.84 3.35 11.95
1/1/2022 8:45:00 AM 6.28 43.304 0.051 6.81 3.25 11.97
1/1/2022 9:00:00 AM 6.29 43.322 0.051 6.83 3.14 11.99
1/1/2022 9:15:00 AM 6.3 43.34 0.051 6.87 3.47 12.02
1/1/2022 9:30:00 AM 6.32 43.376 0.051 6.88 3.35 12.05
1/1/2022 9:45:00 AM 6.34 43.412 0.051 6.89 3.07 12.09
1/1/2022 10:00:00 AM 6.37 43.466 0.051 6.9 2.99 12.1
1/1/2022 10:15:00 AM 6.39 43.502 0.051 6.92 3.04 12.11
1/1/2022 10:30:00 AM 6.42 43.556 0.051 6.92 2.96 12.13
1/1/2022 10:45:00 AM 6.44 43.592 0.05 6.92 2.99 12.14
1/1/2022 11:00:00 AM 6.47 43.646 0.05 6.94 3.02 12.16
1/1/2022 11:15:00 AM 6.52 43.736 0.05 6.95 2.86 12.19
1/1/2022 11:30:00 AM 6.57 43.826 0.05 6.96 2.88 12.19
1/1/2022 11:45:00 AM 6.6 43.88 0.05 6.97 2.92 12.2
1/1/2022 12:00:00 PM 6.64 43.952 0.05 6.97 2.88 12.19
1/1/2022 12:15:00 PM 6.68 44.024 0.05 6.98 2.75 12.18
1/1/2022 12:30:00 PM 6.73 44.114 0.05 7 2.78 12.19
1/1/2022 12:45:00 PM 6.79 44.222 0.05 6.99 2.92 12.19
1/1/2022 1:00:00 PM 6.83 44.294 0.05 7 2.94 12.18
1/1/2022 1:15:00 PM 6.88 44.384 0.05 7 2.84 12.16
1/1/2022 1:30:00 PM 6.92 44.456 0.05 7.01 2.84 12.14
1/1/2022 1:45:00 PM 6.96 44.528 0.05 7 2.9 12.13
1/1/2022 2:00:00 PM 7 44.6 0.05 6.97 2.86 12.1
1/1/2022 2:15:00 PM 7.04 44.672 0.05 6.99 2.93 12.07
1/1/2022 2:30:00 PM 7.07 44.726 0.05 6.98 2.89 12.03
1/1/2022 2:45:00 PM 7.1 44.78 0.05 6.97 2.86 11.99
1/1/2022 3:00:00 PM 7.13 44.834 0.05 6.98 2.98 11.95
1/1/2022 3:15:00 PM 7.15 44.87 0.05 6.97 2.88 11.9
1/1/2022 3:30:00 PM 7.18 44.924 0.05 6.96 2.92 11.87
1/1/2022 3:45:00 PM 7.2 44.96 0.05 6.95 2.99 11.83
1/1/2022 4:00:00 PM 7.22 44.996 0.05 6.95 3.15 11.8
1/1/2022 4:15:00 PM 7.23 45.014 0.05 6.89 3.1 11.76
1/1/2022 4:30:00 PM 7.24 45.032 0.05 6.92 3.12 11.73
1/1/2022 4:45:00 PM 7.26 45.068 0.05 6.91 3.36 11.7
1/1/2022 5:00:00 PM 7.27 45.086 0.05 6.91 3.02 11.67
1/1/2022 5:15:00 PM 7.28 45.104 0.05 6.9 3.32 11.65
1/1/2022 5:30:00 PM 7.29 45.122 0.05 6.88 3.33 11.63
1/1/2022 5:45:00 PM 7.29 45.122 0.05 6.88 3.7 11.62
1/1/2022 6:00:00 PM 7.3 45.14 0.05 6.87 3.91 11.6
1/1/2022 6:15:00 PM 7.31 45.158 0.05 6.84 3.43 11.6
1/1/2022 6:30:00 PM 7.32 45.176 0.05 6.86 3.6 11.59
1/1/2022 6:45:00 PM 7.33 45.194 0.05 6.85 3.52 11.58
1/1/2022 7:00:00 PM 7.34 45.212 0.05 6.83 3.68 11.57
1/1/2022 7:15:00 PM 7.35 45.23 0.05 6.84 3.64 11.57
1/1/2022 7:30:00 PM 7.35 45.23 0.05 6.84 3.81 11.56
1/1/2022 7:45:00 PM 7.36 45.248 0.05 6.84 3.76 11.55
1/1/2022 8:00:00 PM 7.37 45.266 0.05 6.84 3.63 11.55
1/1/2022 8:15:00 PM 7.38 45.284 0.05 6.84 3.71 11.54
1/1/2022 8:30:00 PM 7.38 45.284 0.05 6.82 3.83 11.54
1/1/2022 8:45:00 PM 7.39 45.302 0.05 6.83 3.79 11.54
1/1/2022 9:00:00 PM 7.4 45.32 0.05 6.8 3.79 11.53
1/1/2022 9:15:00 PM 7.41 45.338 0.05 6.83 3.9 11.53
1/1/2022 9:30:00 PM 7.42 45.356 0.05 6.84 4.33 11.52
1/1/2022 9:45:00 PM 7.43 45.374 0.05 6.84 4.13 11.52
1/1/2022 10:00:00 PM 7.43 45.374 0.05 6.78 4.35 11.52
1/1/2022 10:15:00 PM 7.44 45.392 0.05 6.84 4.65 11.51
1/1/2022 10:30:00 PM 7.45 45.41 0.05 6.79 4.53 11.5
1/1/2022 10:45:00 PM 7.46 45.428 0.051 6.83 4.55 11.5
1/1/2022 11:00:00 PM 7.47 45.446 0.051 6.85 4.65 11.5
1/1/2022 11:15:00 PM 7.48 45.464 0.051 6.85 4.88 11.5
1/1/2022 11:30:00 PM 7.49 45.482 0.051 6.86 5.42 11.5
1/1/2022 11:45:00 PM 7.49 45.482 0.05 6.87 4.78 11.49
1/2/2022 12:00:00 AM 7.49 45.482 0.05 6.86 5.07 11.49
1/2/2022 12:15:00 AM 7.48 45.464 0.05 6.86 4.99 11.5
1/2/2022 12:30:00 AM 7.47 45.446 0.05 6.86 5.4 11.5
1/2/2022 12:45:00 AM 7.47 45.446 0.05 6.86 5.86 11.5
1/2/2022 1:00:00 AM 7.45 45.41 0.05 6.86 6.24 11.5
1/2/2022 1:15:00 AM 7.44 45.392 0.05 6.84 7.43 11.51
1/2/2022 1:30:00 AM 7.42 45.356 0.05 6.86 9.95 11.51
1/2/2022 1:45:00 AM 7.41 45.338 0.05 6.86 9.77 11.51
1/2/2022 2:00:00 AM 7.39 45.302 0.051 6.87 9.02 11.52
1/2/2022 2:15:00 AM 7.37 45.266 0.051 6.84 9.03 11.52
1/2/2022 2:30:00 AM 7.35 45.23 0.051 6.85 9.55 11.53
1/2/2022 2:45:00 AM 7.33 45.194 0.051 6.85 10.48 11.54
1/2/2022 3:00:00 AM 7.31 45.158 0.051 6.83 9.86 11.55
1/2/2022 3:15:00 AM 7.29 45.122 0.051 6.85 9.82 11.55
1/2/2022 3:30:00 AM 7.26 45.068 0.051 6.87 9.58 11.56
1/2/2022 3:45:00 AM 7.24 45.032 0.051 6.87 9.38 11.57
1/2/2022 4:00:00 AM 7.21 44.978 0.052 6.87 9.9 11.58
1/2/2022 4:15:00 AM 7.18 44.924 0.052 6.87 10.05 11.58
1/2/2022 4:30:00 AM 7.16 44.888 0.052 6.86 10.14 11.59
1/2/2022 4:45:00 AM 7.13 44.834 0.052 6.87 9.83 11.6
1/2/2022 5:00:00 AM 7.11 44.798 0.052 6.86 9.87 11.6
1/2/2022 5:15:00 AM 7.08 44.744 0.052 6.87 9.51 11.61
1/2/2022 5:30:00 AM 7.06 44.708 0.052 6.86 9.33 11.62
1/2/2022 5:45:00 AM 7.03 44.654 0.052 6.86 8.92 11.62
1/2/2022 6:00:00 AM 7.01 44.618 0.052 6.85 8.77 11.63
1/2/2022 6:15:00 AM 6.99 44.582 0.052 6.86 8.18 11.64
1/2/2022 6:30:00 AM 6.97 44.546 0.052 6.86 8.22 11.64
1/2/2022 6:45:00 AM 6.95 44.51 0.052 6.84 8.35 11.65
1/2/2022 7:00:00 AM 6.93 44.474 0.052 6.86 8.11 11.66
1/2/2022 7:15:00 AM 6.91 44.438 0.052 6.87 7.84 11.67
1/2/2022 7:30:00 AM 6.89 44.402 0.052 6.88 7.66 11.68
1/2/2022 7:45:00 AM 6.87 44.366 0.052 6.87 7.46 11.68
1/2/2022 8:00:00 AM 6.85 44.33 0.052 6.86 7.29 11.7
1/2/2022 8:15:00 AM 6.83 44.294 0.052 6.86 6.88 11.71
1/2/2022 8:30:00 AM 6.81 44.258 0.052 6.87 6.8 11.73
1/2/2022 8:45:00 AM 6.79 44.222 0.052 6.86 6.53 11.75
1/2/2022 9:00:00 AM 6.77 44.186 0.052 6.84 6.27 11.77
1/2/2022 9:15:00 AM 6.75 44.15 0.052 6.86 5.68 11.8
1/2/2022 9:30:00 AM 6.73 44.114 0.052 6.87 5.8 11.82
1/2/2022 9:45:00 AM 6.71 44.078 0.052 6.86 5.56 11.86
1/2/2022 10:00:00 AM 6.69 44.042 0.052 6.88 5.4 11.88
1/2/2022 10:15:00 AM 6.67 44.006 0.052 6.87 5.22 11.93
1/2/2022 10:30:00 AM 6.66 43.988 0.052 6.91 5.04 11.97
1/2/2022 10:45:00 AM 6.64 43.952 0.052 6.92 5.02 12.01
1/2/2022 11:00:00 AM 6.62 43.916 0.052 6.93 4.94 12.03
1/2/2022 11:15:00 AM 6.62 43.916 0.052 6.89 4.78 12.08
1/2/2022 11:30:00 AM 6.61 43.898 0.052 6.91 4.4 12.1
1/2/2022 11:45:00 AM 6.6 43.88 0.052 6.91 4.41 12.13
1/2/2022 12:00:00 PM 6.59 43.862 0.052 6.92 4.22 12.15
1/2/2022 12:15:00 PM 6.58 43.844 0.052 6.91 4.27 12.16
1/2/2022 12:30:00 PM 6.57 43.826 0.052 6.93 4.26 12.17
1/2/2022 12:45:00 PM 6.57 43.826 0.052 6.92 4.37 12.19
1/2/2022 1:00:00 PM 6.55 43.79 0.052 6.93 4.15 12.18
1/2/2022 1:15:00 PM 6.53 43.754 0.052 6.94 4.04 12.17
1/2/2022 1:30:00 PM 6.51 43.718 0.052 6.94 4.2 12.17
1/2/2022 1:45:00 PM 6.5 43.7 0.052 6.94 3.98 12.19
1/2/2022 2:00:00 PM 6.48 43.664 0.052 6.87 3.86 12.2
1/2/2022 2:15:00 PM 6.47 43.646 0.052 6.92 3.83 12.22
1/2/2022 2:30:00 PM 6.45 43.61 0.052 6.92 3.89 12.23
1/2/2022 2:45:00 PM 6.42 43.556 0.052 6.92 3.79 12.22
1/2/2022 3:00:00 PM 6.38 43.484 0.052 6.91 3.87 12.19
1/2/2022 3:15:00 PM 6.34 43.412 0.052 6.89 3.83 12.16
1/2/2022 3:30:00 PM 6.31 43.358 0.052 6.86 3.6 12.14
1/2/2022 3:45:00 PM 6.27 43.286 0.052 6.88 3.83 12.13
1/2/2022 4:00:00 PM 6.22 43.196 0.052 6.85 3.87 12.12
1/2/2022 4:15:00 PM 6.17 43.106 0.052 6.86 3.76 12.11
1/2/2022 4:30:00 PM 6.12 43.016 0.052 6.84 3.82 12.1
1/2/2022 4:45:00 PM 6.07 42.926 0.052 6.82 3.72 12.1
1/2/2022 5:00:00 PM 6.02 42.836 0.052 6.84 3.87 12.11
1/2/2022 5:15:00 PM 5.97 42.746 0.052 6.84 3.82 12.11
1/2/2022 5:30:00 PM 5.91 42.638 0.052 6.82 4 12.12
1/2/2022 5:45:00 PM 5.86 42.548 0.052 6.82 3.96 12.14
1/2/2022 6:00:00 PM 5.8 42.44 0.052 6.82 3.84 12.15
1/2/2022 6:15:00 PM 5.75 42.35 0.052 6.81 3.95 12.17
1/2/2022 6:30:00 PM 5.7 42.26 0.052 6.79 4.03 12.19
1/2/2022 6:45:00 PM 5.64 42.152 0.052 6.81 4.05 12.2
1/2/2022 7:00:00 PM 5.59 42.062 0.052 6.79 4.15 12.22
1/2/2022 7:15:00 PM 5.54 41.972 0.052 6.79 3.79 12.24
1/2/2022 7:30:00 PM 5.48 41.864 0.052 6.81 3.85 12.25
1/2/2022 7:45:00 PM 5.44 41.792 0.052 6.8 3.91 12.27
1/2/2022 8:00:00 PM 5.39 41.702 0.052 6.81 3.93 12.29
1/2/2022 8:15:00 PM 5.34 41.612 0.052 6.81 3.97 12.31
1/2/2022 8:30:00 PM 5.28 41.504 0.052 6.81 4.01 12.33
1/2/2022 8:45:00 PM 5.24 41.432 0.052 6.79 3.96 12.34
1/2/2022 9:00:00 PM 5.19 41.342 0.052 6.8 3.88 12.36
1/2/2022 9:15:00 PM 5.14 41.252 0.052 6.81 3.86 12.38
1/2/2022 9:30:00 PM 5.09 41.162 0.052 6.8 4.68 12.4
1/2/2022 9:45:00 PM 5.04 41.072 0.052 6.8 4.28 12.41
1/2/2022 10:00:00 PM 4.99 40.982 0.052 6.81 4.39 12.44
1/2/2022 10:15:00 PM 4.95 40.91 0.052 6.8 3.97 12.45
1/2/2022 10:30:00 PM 4.91 40.838 0.052 6.79 4.01 12.46
1/2/2022 10:45:00 PM 4.86 40.748 0.052 6.79 4.23 12.48
1/2/2022 11:00:00 PM 4.82 40.676 0.052 6.73 3.93 12.5
1/2/2022 11:15:00 PM 4.77 40.586 0.052 6.79 3.71 12.52
1/2/2022 11:30:00 PM 4.73 40.514 0.052 6.74 3.79 12.53
1/2/2022 11:45:00 PM 4.68 40.424 0.052 6.75 3.75 12.55
1/3/2022 12:00:00 AM 4.64 40.352 0.052 6.74 3.76 12.57
1/3/2022 12:15:00 AM 4.59 40.262 0.052 6.69 3.59 12.59
1/3/2022 12:30:00 AM 4.55 40.19 0.052 6.73 3.64 12.6
1/3/2022 12:45:00 AM 4.5 40.1 0.052 6.71 3.66 12.62
1/3/2022 1:00:00 AM 4.46 40.028 0.052 6.72 3.59 12.63
1/3/2022 1:15:00 AM 4.41 39.938 0.052 6.71 3.6 12.66
1/3/2022 1:30:00 AM 4.36 39.848 0.052 6.72 3.49 12.68
1/3/2022 1:45:00 AM 4.32 39.776 0.052 6.71 3.56 12.69
1/3/2022 2:00:00 AM 4.27 39.686 0.052 6.71 3.54 12.71
1/3/2022 2:15:00 AM 4.23 39.614 0.052 6.71 3.44 12.72
1/3/2022 2:30:00 AM 4.19 39.542 0.051 6.71 3.57 12.74
1/3/2022 2:45:00 AM 4.14 39.452 0.052 6.69 3.54 12.75
1/3/2022 3:00:00 AM 4.09 39.362 0.051 6.72 3.53 12.77
1/3/2022 3:15:00 AM 4.04 39.272 0.052 6.7 3.71 12.79
1/3/2022 3:30:00 AM 3.99 39.182 0.051 6.71 3.65 12.81
1/3/2022 3:45:00 AM 3.94 39.092 0.051 6.72 3.47 12.83
1/3/2022 4:00:00 AM 3.89 39.002 0.051 6.69 3.56 12.84
1/3/2022 4:15:00 AM 3.85 38.93 0.051 6.7 3.41 12.86
1/3/2022 4:30:00 AM 3.81 38.858 0.051 6.71 3.35 12.88
1/3/2022 4:45:00 AM 3.77 38.786 0.052 6.7 3.49 12.89
1/3/2022 5:00:00 AM 3.73 38.714 0.051 6.7 3.62 12.91
1/3/2022 5:15:00 AM 3.69 38.642 0.051 6.69 3.36 12.92
1/3/2022 5:30:00 AM 3.65 38.57 0.051 6.7 3.37 12.94
1/3/2022 5:45:00 AM 3.61 38.498 0.051 6.7 3.33 12.95
1/3/2022 6:00:00 AM 3.57 38.426 0.051 6.71 3.35 12.96
1/3/2022 6:15:00 AM 3.52 38.336 0.051 6.7 3.34 12.97
1/3/2022 6:30:00 AM 3.48 38.264 0.051 6.71 3.33 12.99
1/3/2022 6:45:00 AM 3.44 38.192 0.051 6.7 3.41 13.01
1/3/2022 7:00:00 AM 3.39 38.102 0.051 6.7 3.35 13.02
1/3/2022 7:15:00 AM 3.34 38.012 0.051 6.7 3.29 13.04
1/3/2022 7:30:00 AM 3.3 37.94 0.051 6.7 3.29 13.05
1/3/2022 7:45:00 AM 3.25 37.85 0.051 6.71 3.22 13.07
1/3/2022 8:00:00 AM 3.21 37.778 0.051 6.69 3.2 13.1
1/3/2022 8:15:00 AM 3.18 37.724 0.051 6.72 3.09 13.13
1/3/2022 8:30:00 AM 3.15 37.67 0.051 6.72 3.15 13.17
1/3/2022 8:45:00 AM 3.12 37.616 0.051 6.73 3.09 13.22
1/3/2022 9:00:00 AM 3.1 37.58 0.051 6.74 3 13.27
1/3/2022 9:15:00 AM 3.08 37.544 0.051 6.74 3.04 13.32
1/3/2022 9:30:00 AM 3.06 37.508 0.051 6.78 2.94 13.36
1/3/2022 9:45:00 AM 3.04 37.472 0.051 6.79 2.95 13.41
1/3/2022 10:00:00 AM 3.02 37.436 0.051 6.79 2.79 13.45
1/3/2022 10:15:00 AM 3 37.4 0.051 6.81 2.85 13.48
1/3/2022 10:30:00 AM 2.99 37.382 0.051 6.82 2.86 13.51
1/3/2022 10:45:00 AM 2.99 37.382 0.051 6.82 2.76 13.54
1/3/2022 11:00:00 AM 2.98 37.364 0.05 6.84 2.81 13.56
1/3/2022 11:15:00 AM 3 37.4 0.051 6.85 2.63 13.57
1/3/2022 11:30:00 AM 3.03 37.454 0.05 6.86 2.65 13.57
1/3/2022 11:45:00 AM 3.08 37.544 0.05 6.81 2.81 13.57
1/3/2022 12:00:00 PM 3.11 37.598 0.05 6.86 2.62 13.57
1/3/2022 12:15:00 PM 3.15 37.67 0.05 6.9 2.59 13.57
1/3/2022 12:30:00 PM 3.18 37.724 0.05 6.87 2.57 13.55
1/3/2022 12:45:00 PM 3.22 37.796 0.05 6.89 2.57 13.55
1/3/2022 1:00:00 PM 3.24 37.832 0.05 6.9 2.59 13.52
1/3/2022 1:15:00 PM 3.27 37.886 0.05 6.93 2.58 13.51
1/3/2022 1:30:00 PM 3.3 37.94 0.05 6.9 2.62 13.49
1/3/2022 1:45:00 PM 3.32 37.976 0.05 6.93 2.59 13.47
1/3/2022 2:00:00 PM 3.33 37.994 0.05 6.9 2.63 13.45
1/3/2022 2:15:00 PM 3.33 37.994 0.05 6.93 2.75 13.44
1/3/2022 2:30:00 PM 3.33 37.994 0.05 6.93 2.55 13.41
1/3/2022 2:45:00 PM 3.32 37.976 0.05 6.9 2.5 13.4
1/3/2022 3:00:00 PM 3.3 37.94 0.05 6.9 2.58 13.39
1/3/2022 3:15:00 PM 3.27 37.886 0.05 6.89 2.6 13.37
1/3/2022 3:30:00 PM 3.21 37.778 0.05 6.89 2.61 13.37
1/3/2022 3:45:00 PM 3.14 37.652 0.05 6.91 2.57 13.37
1/3/2022 4:00:00 PM 3.07 37.526 0.05 6.87 2.49 13.37
1/3/2022 4:15:00 PM 3 37.4 0.05 6.89 2.68 13.37
1/3/2022 4:30:00 PM 2.92 37.256 0.05 6.84 2.55 13.38
1/3/2022 4:45:00 PM 2.85 37.13 0.05 6.87 2.63 13.39
1/3/2022 5:00:00 PM 2.78 37.004 0.05 6.84 2.65 13.39
1/3/2022 5:15:00 PM 2.72 36.896 0.05 6.84 2.62 13.39
1/3/2022 5:30:00 PM 2.66 36.788 0.05 6.84 2.7 13.39
1/3/2022 5:45:00 PM 2.6 36.68 0.05 6.77 2.72 13.4
1/3/2022 6:00:00 PM 2.53 36.554 0.05 6.8 2.73 13.41
1/3/2022 6:15:00 PM 2.47 36.446 0.05 6.79 2.69 13.43
1/3/2022 6:30:00 PM 2.41 36.338 0.05 6.73 2.71 13.44
1/3/2022 6:45:00 PM 2.35 36.23 0.05 6.74 2.76 13.46
1/3/2022 7:00:00 PM 2.31 36.158 0.05 6.73 2.81 13.47
1/3/2022 7:15:00 PM 2.26 36.068 0.05 6.73 2.88 13.49
1/3/2022 7:30:00 PM 2.21 35.978 0.05 6.73 2.87 13.52
1/3/2022 7:45:00 PM 2.17 35.906 0.05 6.73 2.78 13.53
1/3/2022 8:00:00 PM 2.12 35.816 0.05 6.73 2.91 13.54
1/3/2022 8:15:00 PM 2.08 35.744 0.05 6.74 3.03 13.57
1/3/2022 8:30:00 PM 2.04 35.672 0.05 6.72 2.95 13.58
1/3/2022 8:45:00 PM 2 35.6 0.05 6.74 2.98 13.61
1/3/2022 9:00:00 PM 1.96 35.528 0.05 6.71 2.93 13.62
1/3/2022 9:15:00 PM 1.92 35.456 0.05 6.7 2.86 13.63
1/3/2022 9:30:00 PM 1.88 35.384 0.05 6.73 2.89 13.64
1/3/2022 9:45:00 PM 1.85 35.33 0.05 6.73 2.81 13.66
1/3/2022 10:00:00 PM 1.81 35.258 0.05 6.73 2.94 13.68
1/3/2022 10:15:00 PM 1.78 35.204 0.05 6.74 2.94 13.69
1/3/2022 10:30:00 PM 1.74 35.132 0.05 6.72 2.91 13.71
1/3/2022 10:45:00 PM 1.7 35.06 0.05 6.71 2.79 13.73
1/3/2022 11:00:00 PM 1.67 35.006 0.05 6.74 2.89 13.73
1/3/2022 11:15:00 PM 1.64 34.952 0.05 6.7 2.92 13.75
1/3/2022 11:30:00 PM 1.6 34.88 0.05 6.74 2.84 13.76
1/3/2022 11:45:00 PM 1.57 34.826 0.05 6.71 2.89 13.78
1/4/2022 12:00:00 AM 1.54 34.772 0.05 6.74 2.79 13.79
1/4/2022 12:15:00 AM 1.52 34.736 0.05 6.73 2.99 13.81
1/4/2022 12:30:00 AM 1.5 34.7 0.05 6.72 2.94 13.81
1/4/2022 12:45:00 AM 1.48 34.664 0.05 6.74 2.9 13.83
1/4/2022 1:00:00 AM 1.46 34.628 0.05 6.75 2.93 13.84
1/4/2022 1:15:00 AM 1.45 34.61 0.05 6.75 2.83 13.84
1/4/2022 1:30:00 AM 1.44 34.592 0.05 6.74 2.86 13.85
1/4/2022 1:45:00 AM 1.41 34.538 0.05 6.73 2.95 13.86
1/4/2022 2:00:00 AM 1.38 34.484 0.05 6.74 2.9 13.87
1/4/2022 2:15:00 AM 1.35 34.43 0.05 6.76 2.87 13.88
1/4/2022 2:30:00 AM 1.33 34.394 0.05 6.76 2.8 13.89
1/4/2022 2:45:00 AM 1.29 34.322 0.05 6.77 2.81 13.91
1/4/2022 3:00:00 AM 1.27 34.286 0.05 6.72 2.94 13.91
1/4/2022 3:15:00 AM 1.24 34.232 0.05 6.75 2.89 13.92
1/4/2022 3:30:00 AM 1.22 34.196 0.05 6.76 2.9 13.93
1/4/2022 3:45:00 AM 1.19 34.142 0.05 6.75 2.79 13.94
1/4/2022 4:00:00 AM 1.16 34.088 0.05 6.72 2.92 13.95
1/4/2022 4:15:00 AM 1.13 34.034 0.05 6.75 2.91 13.96
1/4/2022 4:30:00 AM 1.1 33.98 0.05 6.76 2.83 13.97
1/4/2022 4:45:00 AM 1.07 33.926 0.05 6.71 2.86 13.98
1/4/2022 5:00:00 AM 1.04 33.872 0.05 6.75 2.9 14
1/4/2022 5:15:00 AM 1.01 33.818 0.05 6.72 2.79 14.01
1/4/2022 5:30:00 AM 0.98 33.764 0.05 6.75 2.87 14.02
1/4/2022 5:45:00 AM 0.96 33.728 0.05 6.75 2.88 14.03
1/4/2022 6:00:00 AM 0.93 33.674 0.05 6.74 2.77 14.04
1/4/2022 6:15:00 AM 0.9 33.62 0.05 6.71 2.75 14.05
1/4/2022 6:30:00 AM 0.87 33.566 0.05 6.76 2.86 14.07
1/4/2022 6:45:00 AM 0.85 33.53 0.05 6.7 2.78 14.07
1/4/2022 7:00:00 AM 0.82 33.476 0.05 6.75 2.75 14.09
1/4/2022 7:15:00 AM 0.79 33.422 0.05 6.76 2.76 14.1
1/4/2022 7:30:00 AM 0.77 33.386 0.05 6.75 2.79 14.11
1/4/2022 7:45:00 AM 0.74 33.332 0.049 6.76 2.74 14.13
1/4/2022 8:00:00 AM 0.72 33.296 0.049 6.76 2.76 14.16
1/4/2022 8:15:00 AM 0.71 33.278 0.05 6.77 2.76 14.2
1/4/2022 8:30:00 AM 0.7 33.26 0.049 6.79 2.65 14.24
1/4/2022 8:45:00 AM 0.7 33.26 0.049 6.8 2.61 14.27
1/4/2022 9:00:00 AM 0.7 33.26 0.049 6.8 2.7 14.3
1/4/2022 9:15:00 AM 0.71 33.278 0.049 6.82 2.6 14.33
1/4/2022 9:30:00 AM 0.73 33.314 0.049 6.82 2.57 14.35
1/4/2022 9:45:00 AM 0.78 33.404 0.049 6.81 2.57 14.36
1/4/2022 10:00:00 AM 0.83 33.494 0.049 6.81 2.5 14.38
1/4/2022 10:15:00 AM 0.89 33.602 0.049 6.87 2.49 14.38
1/4/2022 10:30:00 AM 0.96 33.728 0.049 6.88 2.43 14.38
1/4/2022 10:45:00 AM 1.06 33.908 0.049 6.88 2.4 14.37
1/4/2022 11:00:00 AM 1.15 34.07 0.049 6.9 2.43 14.36
1/4/2022 11:15:00 AM 1.26 34.268 0.049 6.89 2.41 14.33
1/4/2022 11:30:00 AM 1.38 34.484 0.049 6.89 2.39 14.31
1/4/2022 11:45:00 AM 1.49 34.682 0.049 6.91 2.35 14.27
1/4/2022 12:00:00 PM 1.6 34.88 0.049 6.91 2.42 14.23
1/4/2022 12:15:00 PM 1.71 35.078 0.049 6.92 2.28 14.19
1/4/2022 12:30:00 PM 1.79 35.222 0.049 6.86 2.42 14.15
1/4/2022 12:45:00 PM 1.88 35.384 0.049 6.92 2.69 14.12
1/4/2022 1:00:00 PM 1.96 35.528 0.049 6.93 2.33 14.08
1/4/2022 1:15:00 PM 2.04 35.672 0.048 6.88 2.31 14.02
1/4/2022 1:30:00 PM 2.12 35.816 0.049 6.94 2.37 13.99
1/4/2022 1:45:00 PM 2.21 35.978 0.048 6.88 2.28 13.94
1/4/2022 2:00:00 PM 2.3 36.14 0.049 6.93 2.21 13.9
1/4/2022 2:15:00 PM 2.37 36.266 0.049 6.95 2.32 13.85
1/4/2022 2:30:00 PM 2.44 36.392 0.048 6.93 2.31 13.81
1/4/2022 2:45:00 PM 2.48 36.464 0.048 6.95 2.34 13.78
1/4/2022 3:00:00 PM 2.52 36.536 0.049 6.92 2.34 13.74
1/4/2022 3:15:00 PM 2.54 36.572 0.048 6.94 2.32 13.7
1/4/2022 3:30:00 PM 2.55 36.59 0.048 6.9 2.36 13.67
1/4/2022 3:45:00 PM 2.56 36.608 0.048 6.92 2.32 13.66
1/4/2022 4:00:00 PM 2.57 36.626 0.048 6.93 2.35 13.63
1/4/2022 4:15:00 PM 2.57 36.626 0.048 6.88 2.41 13.6
1/4/2022 4:30:00 PM 2.56 36.608 0.048 6.9 2.43 13.57
1/4/2022 4:45:00 PM 2.55 36.59 0.048 6.91 2.37 13.55
1/4/2022 5:00:00 PM 2.54 36.572 0.048 6.9 2.45 13.52
1/4/2022 5:15:00 PM 2.52 36.536 0.049 6.86 2.38 13.49
1/4/2022 5:30:00 PM 2.5 36.5 0.049 6.81 2.52 13.48
1/4/2022 5:45:00 PM 2.48 36.464 0.049 6.87 2.6 13.46
1/4/2022 6:00:00 PM 2.46 36.428 0.049 6.87 2.57 13.46
1/4/2022 6:15:00 PM 2.42 36.356 0.049 6.86 2.61 13.46
1/4/2022 6:30:00 PM 2.4 36.32 0.049 6.83 2.61 13.45
1/4/2022 6:45:00 PM 2.38 36.284 0.049 6.85 2.71 13.45
1/4/2022 7:00:00 PM 2.36 36.248 0.049 6.77 2.64 13.45
1/4/2022 7:15:00 PM 2.35 36.23 0.049 6.82 2.74 13.44
1/4/2022 7:30:00 PM 2.33 36.194 0.049 6.81 2.64 13.45
1/4/2022 7:45:00 PM 2.32 36.176 0.049 6.8 2.62 13.45
1/4/2022 8:00:00 PM 2.3 36.14 0.049 6.8 2.57 13.45
1/4/2022 8:15:00 PM 2.3 36.14 0.049 6.84 2.69 13.45
1/4/2022 8:30:00 PM 2.28 36.104 0.049 6.8 2.72 13.44
1/4/2022 8:45:00 PM 2.26 36.068 0.049 6.79 2.76 13.46
1/4/2022 9:00:00 PM 2.25 36.05 0.049 6.82 2.72 13.45
1/4/2022 9:15:00 PM 2.24 36.032 0.049 6.82 2.69 13.46
1/4/2022 9:30:00 PM 2.22 35.996 0.049 6.8 2.8 13.45
1/4/2022 9:45:00 PM 2.21 35.978 0.049 6.78 2.79 13.47
1/4/2022 10:00:00 PM 2.19 35.942 0.049 6.79 2.79 13.47
1/4/2022 10:15:00 PM 2.18 35.924 0.049 6.78 2.72 13.47
1/4/2022 10:30:00 PM 2.17 35.906 0.049 6.81 2.78 13.47
1/4/2022 10:45:00 PM 2.16 35.888 0.049 6.81 2.81 13.46
1/4/2022 11:00:00 PM 2.15 35.87 0.049 6.78 2.78 13.47
1/4/2022 11:15:00 PM 2.15 35.87 0.049 6.82 2.73 13.46
1/4/2022 11:30:00 PM 2.15 35.87 0.049 6.78 2.71 13.47
1/4/2022 11:45:00 PM 2.15 35.87 0.049 6.81 2.68 13.46
1/5/2022 12:00:00 AM 2.15 35.87 0.049 6.82 2.62 13.46
1/5/2022 12:15:00 AM 2.15 35.87 0.049 6.77 2.7 13.47
1/5/2022 12:30:00 AM 2.15 35.87 0.049 6.83 2.69 13.46
1/5/2022 12:45:00 AM 2.15 35.87 0.049 6.77 2.73 13.46
1/5/2022 1:00:00 AM 2.14 35.852 0.049 6.78 2.79 13.46
1/5/2022 1:15:00 AM 2.15 35.87 0.049 6.8 2.84 13.46
1/5/2022 1:30:00 AM 2.15 35.87 0.049 6.81 2.7 13.45
1/5/2022 1:45:00 AM 2.15 35.87 0.049 6.79 2.7 13.46
1/5/2022 2:00:00 AM 2.14 35.852 0.049 6.8 2.85 13.45
1/5/2022 2:15:00 AM 2.15 35.87 0.049 6.79 2.75 13.45
1/5/2022 2:30:00 AM 2.14 35.852 0.049 6.82 2.69 13.44
1/5/2022 2:45:00 AM 2.14 35.852 0.049 6.78 2.74 13.44
1/5/2022 3:00:00 AM 2.14 35.852 0.049 6.78 3.21 13.45
1/5/2022 3:15:00 AM 2.13 35.834 0.049 6.8 2.76 13.44
1/5/2022 3:30:00 AM 2.13 35.834 0.049 6.73 2.89 13.45
1/5/2022 3:45:00 AM 2.12 35.816 0.049 6.77 2.71 13.44
1/5/2022 4:00:00 AM 2.12 35.816 0.049 6.79 2.8 13.43
1/5/2022 4:15:00 AM 2.11 35.798 0.049 6.78 2.71 13.43
1/5/2022 4:30:00 AM 2.12 35.816 0.049 6.79 2.6 13.44
1/5/2022 4:45:00 AM 2.12 35.816 0.049 6.79 2.84 13.43
1/5/2022 5:00:00 AM 2.12 35.816 0.049 6.79 2.77 13.42
1/5/2022 5:15:00 AM 2.12 35.816 0.049 6.79 2.74 13.43
1/5/2022 5:30:00 AM 2.12 35.816 0.049 6.72 2.79 13.42
1/5/2022 5:45:00 AM 2.12 35.816 0.049 6.76 2.91 13.41
1/5/2022 6:00:00 AM 2.11 35.798 0.049 6.76 2.95 13.41
1/5/2022 6:15:00 AM 2.1 35.78 0.049 6.79 2.84 13.41
1/5/2022 6:30:00 AM 2.08 35.744 0.049 6.78 2.77 13.41
1/5/2022 6:45:00 AM 2.07 35.726 0.049 6.78 2.84 13.41
1/5/2022 7:00:00 AM 2.07 35.726 0.049 6.76 2.81 13.41
1/5/2022 7:15:00 AM 2.07 35.726 0.049 6.78 2.77 13.41
1/5/2022 7:30:00 AM 2.06 35.708 0.049 6.74 2.68 13.42
1/5/2022 7:45:00 AM 2.05 35.69 0.049 6.76 2.57 13.42
1/5/2022 8:00:00 AM 2.05 35.69 0.049 6.78 2.63 13.43
1/5/2022 8:15:00 AM 2.06 35.708 0.049 6.79 2.48 13.43
1/5/2022 8:30:00 AM 2.08 35.744 0.049 6.79 2.56 13.47
1/5/2022 8:45:00 AM 2.1 35.78 0.049 6.77 2.7 13.49
1/5/2022 9:00:00 AM 2.13 35.834 0.049 6.78 2.6 13.52
1/5/2022 9:15:00 AM 2.15 35.87 0.049 6.82 2.57 13.52
1/5/2022 9:30:00 AM 2.19 35.942 0.049 6.83 2.63 13.54
1/5/2022 9:45:00 AM 2.22 35.996 0.049 6.8 2.52 13.54
1/5/2022 10:00:00 AM 2.26 36.068 0.049 6.8 2.52 13.55
1/5/2022 10:15:00 AM 2.31 36.158 0.049 6.8 2.44 13.56
1/5/2022 10:30:00 AM 2.36 36.248 0.049 6.8 2.39 13.55
1/5/2022 10:45:00 AM 2.41 36.338 0.048 6.81 2.33 13.55
1/5/2022 11:00:00 AM 2.47 36.446 0.048 6.82 2.38 13.55
1/5/2022 11:15:00 AM 2.55 36.59 0.048 6.78 2.28 13.54
1/5/2022 11:30:00 AM 2.61 36.698 0.048 6.83 2.32 13.53
1/5/2022 11:45:00 AM 2.68 36.824 0.048 6.81 2.29 13.52
1/5/2022 12:00:00 PM 2.78 37.004 0.048 6.85 2.38 13.49
1/5/2022 12:15:00 PM 2.88 37.184 0.048 6.85 2.31 13.48
1/5/2022 12:30:00 PM 2.97 37.346 0.048 6.82 2.26 13.45
1/5/2022 12:45:00 PM 3.07 37.526 0.048 6.83 2.32 13.42
1/5/2022 1:00:00 PM 3.15 37.67 0.048 6.85 2.24 13.38
1/5/2022 1:15:00 PM 3.24 37.832 0.048 6.86 2.24 13.34
1/5/2022 1:30:00 PM 3.3 37.94 0.048 6.85 2.38 13.3
1/5/2022 1:45:00 PM 3.37 38.066 0.048 6.86 2.35 13.27
1/5/2022 2:00:00 PM 3.45 38.21 0.048 6.83 2.25 13.24
1/5/2022 2:15:00 PM 3.54 38.372 0.048 6.87 2.23 13.21
1/5/2022 2:30:00 PM 3.62 38.516 0.048 6.87 2.2 13.18
1/5/2022 2:45:00 PM 3.69 38.642 0.048 6.87 2.39 13.15
1/5/2022 3:00:00 PM 3.76 38.768 0.048 6.84 2.29 13.12
1/5/2022 3:15:00 PM 3.83 38.894 0.048 6.88 2.36 13.08
1/5/2022 3:30:00 PM 3.88 38.984 0.048 6.88 2.31 13.05
1/5/2022 3:45:00 PM 3.91 39.038 0.048 6.89 2.36 13.01
1/5/2022 4:00:00 PM 3.93 39.074 0.048 6.89 2.47 12.98
1/5/2022 4:15:00 PM 3.95 39.11 0.048 6.83 2.39 12.93
1/5/2022 4:30:00 PM 3.97 39.146 0.048 6.87 2.41 12.88
1/5/2022 4:45:00 PM 3.98 39.164 0.048 6.84 2.34 12.84
1/5/2022 5:00:00 PM 3.98 39.164 0.048 6.85 2.37 12.8
1/5/2022 5:15:00 PM 3.98 39.164 0.048 6.83 2.46 12.76
1/5/2022 5:30:00 PM 3.98 39.164 0.048 6.84 2.51 12.74
1/5/2022 5:45:00 PM 3.96 39.128 0.048 6.82 2.6 12.72
1/5/2022 6:00:00 PM 3.95 39.11 0.048 6.76 2.65 12.7
1/5/2022 6:15:00 PM 3.93 39.074 0.048 6.81 2.6 12.69
1/5/2022 6:30:00 PM 3.9 39.02 0.048 6.78 2.63 12.69
1/5/2022 6:45:00 PM 3.87 38.966 0.048 6.8 2.97 12.69
1/5/2022 7:00:00 PM 3.84 38.912 0.048 6.77 2.61 12.69
1/5/2022 7:15:00 PM 3.8 38.84 0.048 6.79 2.66 12.7
1/5/2022 7:30:00 PM 3.76 38.768 0.048 6.78 2.63 12.71
1/5/2022 7:45:00 PM 3.72 38.696 0.048 6.79 2.54 12.71
1/5/2022 8:00:00 PM 3.68 38.624 0.048 6.8 2.61 12.73
1/5/2022 8:15:00 PM 3.64 38.552 0.048 6.79 2.7 12.74
1/5/2022 8:30:00 PM 3.6 38.48 0.048 6.8 2.79 12.75
1/5/2022 8:45:00 PM 3.57 38.426 0.048 6.73 2.73 12.76
1/5/2022 9:00:00 PM 3.54 38.372 0.048 6.79 2.69 12.77
1/5/2022 9:15:00 PM 3.51 38.318 0.049 6.77 2.77 12.79
1/5/2022 9:30:00 PM 3.48 38.264 0.048 6.79 2.64 12.79
1/5/2022 9:45:00 PM 3.45 38.21 0.049 6.79 2.9 12.8
1/5/2022 10:00:00 PM 3.41 38.138 0.049 6.79 2.72 12.81
1/5/2022 10:15:00 PM 3.38 38.084 0.049 6.78 2.76 12.83
1/5/2022 10:30:00 PM 3.36 38.048 0.049 6.76 3.11 12.84
1/5/2022 10:45:00 PM 3.34 38.012 0.049 6.79 2.81 12.85
1/5/2022 11:00:00 PM 3.34 38.012 0.048 6.78 2.83 12.85
1/5/2022 11:15:00 PM 3.33 37.994 0.049 6.78 2.88 12.87
1/5/2022 11:30:00 PM 3.3 37.94 0.049 6.79 2.88 12.87
1/5/2022 11:45:00 PM 3.28 37.904 0.049 6.8 2.82 12.89
1/6/2022 12:00:00 AM 3.25 37.85 0.049 6.78 2.87 12.9
1/6/2022 12:15:00 AM 3.2 37.76 0.049 6.79 2.89 12.92
1/6/2022 12:30:00 AM 3.15 37.67 0.049 6.81 2.95 12.92
1/6/2022 12:45:00 AM 3.13 37.634 0.049 6.79 2.74 12.94
1/6/2022 1:00:00 AM 3.11 37.598 0.049 6.8 2.76 12.95
1/6/2022 1:15:00 AM 3.08 37.544 0.049 6.79 2.8 12.96
1/6/2022 1:30:00 AM 3.06 37.508 0.049 6.77 2.81 12.98
1/6/2022 1:45:00 AM 3.04 37.472 0.049 6.8 2.76 12.99
1/6/2022 2:00:00 AM 3.02 37.436 0.049 6.8 2.82 13
1/6/2022 2:15:00 AM 2.99 37.382 0.049 6.8 2.73 13.01
1/6/2022 2:30:00 AM 2.96 37.328 0.049 6.8 2.75 13.03
1/6/2022 2:45:00 AM 2.93 37.274 0.049 6.73 2.75 13.04
1/6/2022 3:00:00 AM 2.89 37.202 0.049 6.8 2.72 13.06
1/6/2022 3:15:00 AM 2.85 37.13 0.049 6.78 2.85 13.08
1/6/2022 3:30:00 AM 2.82 37.076 0.049 6.76 2.88 13.09
1/6/2022 3:45:00 AM 2.8 37.04 0.049 6.77 2.71 13.1
1/6/2022 4:00:00 AM 2.78 37.004 0.049 6.78 2.69 13.11
1/6/2022 4:15:00 AM 2.73 36.914 0.049 6.76 2.69 13.13
1/6/2022 4:30:00 AM 2.7 36.86 0.049 6.78 2.81 13.15
1/6/2022 4:45:00 AM 2.66 36.788 0.049 6.74 2.74 13.16
1/6/2022 5:00:00 AM 2.62 36.716 0.049 6.76 2.79 13.18
1/6/2022 5:15:00 AM 2.57 36.626 0.049 6.76 2.82 13.19
1/6/2022 5:30:00 AM 2.49 36.482 0.049 6.75 2.83 13.22
1/6/2022 5:45:00 AM 2.43 36.374 0.049 6.72 2.97 13.24
1/6/2022 6:00:00 AM 2.37 36.266 0.049 6.75 2.92 13.26
1/6/2022 6:15:00 AM 2.31 36.158 0.049 6.77 2.85 13.29
1/6/2022 6:30:00 AM 2.26 36.068 0.049 6.77 2.88 13.31
1/6/2022 6:45:00 AM 2.21 35.978 0.049 6.74 2.72 13.33
1/6/2022 7:00:00 AM 2.17 35.906 0.049 6.75 2.75 13.36
1/6/2022 7:15:00 AM 2.14 35.852 0.049 6.78 2.77 13.38
1/6/2022 7:30:00 AM 2.11 35.798 0.049 6.78 2.75 13.4
1/6/2022 7:45:00 AM 2.08 35.744 0.049 6.78 2.67 13.41
1/6/2022 8:00:00 AM 2.04 35.672 0.049 6.78 2.64 13.44
1/6/2022 8:15:00 AM 1.99 35.582 0.049 6.78 2.58 13.48
1/6/2022 8:30:00 AM 1.96 35.528 0.049 6.79 2.54 13.52
1/6/2022 8:45:00 AM 1.94 35.492 0.049 6.8 2.59 13.56
1/6/2022 9:00:00 AM 1.94 35.492 0.049 6.73 2.58 13.6
1/6/2022 9:15:00 AM 1.92 35.456 0.049 6.81 2.5 13.66
1/6/2022 9:30:00 AM 1.92 35.456 0.049 6.83 2.55 13.7
1/6/2022 9:45:00 AM 1.92 35.456 0.049 6.82 2.45 13.74
1/6/2022 10:00:00 AM 1.91 35.438 0.049 6.83 2.42 13.77
1/6/2022 10:15:00 AM 1.91 35.438 0.049 6.81 2.47 13.78
1/6/2022 10:30:00 AM 1.93 35.474 0.048 6.84 2.38 13.8
1/6/2022 10:45:00 AM 1.94 35.492 0.048 6.82 2.41 13.82
1/6/2022 11:00:00 AM 1.96 35.528 0.048 6.86 2.33 13.84
1/6/2022 11:15:00 AM 2.01 35.618 0.048 6.84 2.48 13.83
1/6/2022 11:30:00 AM 2.02 35.636 0.048 6.82 2.53 13.85
1/6/2022 11:45:00 AM 2.09 35.762 0.048 6.76 2.52 13.84
1/6/2022 12:00:00 PM 2.15 35.87 0.048 6.81 2.44 13.84
1/6/2022 12:15:00 PM 2.2 35.96 0.048 6.77 2.6 13.82
1/6/2022 12:30:00 PM 2.27 36.086 0.048 6.76 2.4 13.8
1/6/2022 12:45:00 PM 2.3 36.14 0.048 6.79 2.35 13.78
1/6/2022 1:00:00 PM 2.28 36.104 0.048 6.78 2.35 13.77
1/6/2022 1:15:00 PM 2.27 36.086 0.048 6.78 3.15 13.75
1/6/2022 1:30:00 PM 2.27 36.086 0.048 6.77 3.02 13.74
1/6/2022 1:45:00 PM 2.28 36.104 0.048 6.76 2.21 13.75
1/6/2022 2:00:00 PM 2.3 36.14 0.048 6.77 2.27 13.74
1/6/2022 2:15:00 PM 2.32 36.176 0.048 6.77 2.26 13.72
1/6/2022 2:30:00 PM 2.35 36.23 0.048 6.74 2.2 13.71
1/6/2022 2:45:00 PM 2.37 36.266 0.048 6.78 2.18 13.7
1/6/2022 3:00:00 PM 2.39 36.302 0.048 6.76 2.19 13.69
1/6/2022 3:15:00 PM 2.37 36.266 0.048 6.77 2.23 13.68
1/6/2022 3:30:00 PM 2.36 36.248 0.048 6.79 2.14 13.65
1/6/2022 3:45:00 PM 2.34 36.212 0.048 6.78 2.18 13.64
1/6/2022 4:00:00 PM 2.33 36.194 0.048 6.77 2.27 13.61
1/6/2022 4:15:00 PM 2.31 36.158 0.048 6.72 2.17 13.6
1/6/2022 4:30:00 PM 2.28 36.104 0.048 6.74 2.19 13.56
1/6/2022 4:45:00 PM 2.25 36.05 0.048 6.74 2.15 13.55
1/6/2022 5:00:00 PM 2.21 35.978 0.048 6.73 2.21 13.52
1/6/2022 5:15:00 PM 2.18 35.924 0.048 6.73 2.19 13.51
1/6/2022 5:30:00 PM 2.15 35.87 0.048 6.7 2.18 13.5
1/6/2022 5:45:00 PM 2.12 35.816 0.048 6.72 2.1 13.49
1/6/2022 6:00:00 PM 2.1 35.78 0.048 6.7 2.2 13.48
1/6/2022 6:15:00 PM 2.08 35.744 0.048 6.71 2.22 13.48
1/6/2022 6:30:00 PM 2.06 35.708 0.048 6.7 2.24 13.48
1/6/2022 6:45:00 PM 2.04 35.672 0.048 6.71 2.25 13.49
1/6/2022 7:00:00 PM 2.02 35.636 0.048 6.7 2.28 13.48
1/6/2022 7:15:00 PM 1.99 35.582 0.048 6.7 2.29 13.5
1/6/2022 7:30:00 PM 1.96 35.528 0.048 6.67 2.36 13.5
1/6/2022 7:45:00 PM 1.93 35.474 0.048 6.68 2.29 13.5
1/6/2022 8:00:00 PM 1.9 35.42 0.048 6.7 2.36 13.52
1/6/2022 8:15:00 PM 1.86 35.348 0.048 6.7 2.4 13.52
1/6/2022 8:30:00 PM 1.82 35.276 0.048 6.68 2.46 13.53
1/6/2022 8:45:00 PM 1.77 35.186 0.048 6.7 2.37 13.55
1/6/2022 9:00:00 PM 1.72 35.096 0.048 6.69 2.4 13.56
1/6/2022 9:15:00 PM 1.68 35.024 0.048 6.68 2.39 13.57
1/6/2022 9:30:00 PM 1.64 34.952 0.048 6.69 2.39 13.58
1/6/2022 9:45:00 PM 1.61 34.898 0.048 6.69 2.48 13.6
1/6/2022 10:00:00 PM 1.57 34.826 0.048 6.66 2.45 13.61
1/6/2022 10:15:00 PM 1.54 34.772 0.048 6.69 2.52 13.63
1/6/2022 10:30:00 PM 1.52 34.736 0.049 6.7 2.62 13.64
1/6/2022 10:45:00 PM 1.5 34.7 0.049 6.69 2.63 13.65
1/6/2022 11:00:00 PM 1.48 34.664 0.048 6.69 2.55 13.65
1/6/2022 11:15:00 PM 1.47 34.646 0.049 6.7 2.58 13.66
1/6/2022 11:30:00 PM 1.45 34.61 0.048 6.73 2.66 13.67
1/6/2022 11:45:00 PM 1.43 34.574 0.048 6.73 2.59 13.68
1/7/2022 12:00:00 AM 1.41 34.538 0.049 6.74 2.48 13.68
1/7/2022 12:15:00 AM 1.41 34.538 0.048 6.71 2.5 13.68
1/7/2022 12:30:00 AM 1.39 34.502 0.048 6.71 2.5 13.68
1/7/2022 12:45:00 AM 1.38 34.484 0.049 6.72 2.51 13.69
1/7/2022 1:00:00 AM 1.37 34.466 0.048 6.72 2.61 13.69
1/7/2022 1:15:00 AM 1.36 34.448 0.048 6.72 2.44 13.69
1/7/2022 1:30:00 AM 1.35 34.43 0.048 6.69 2.56 13.7
1/7/2022 1:45:00 AM 1.34 34.412 0.049 6.72 2.55 13.7
1/7/2022 2:00:00 AM 1.32 34.376 0.049 6.72 2.64 13.71
1/7/2022 2:15:00 AM 1.31 34.358 0.049 6.7 2.67 13.72
1/7/2022 2:30:00 AM 1.3 34.34 0.049 6.71 2.65 13.72
1/7/2022 2:45:00 AM 1.29 34.322 0.049 6.7 2.54 13.73
1/7/2022 3:00:00 AM 1.29 34.322 0.049 6.68 2.48 13.73
1/7/2022 3:15:00 AM 1.28 34.304 0.049 6.69 2.57 13.74
1/7/2022 3:30:00 AM 1.27 34.286 0.049 6.68 2.59 13.74
1/7/2022 3:45:00 AM 1.26 34.268 0.049 6.69 2.62 13.74
1/7/2022 4:00:00 AM 1.26 34.268 0.049 6.69 2.68 13.75
1/7/2022 4:15:00 AM 1.26 34.268 0.049 6.69 2.69 13.75
1/7/2022 4:30:00 AM 1.26 34.268 0.049 6.69 2.57 13.75
1/7/2022 4:45:00 AM 1.25 34.25 0.049 6.69 2.56 13.75
1/7/2022 5:00:00 AM 1.24 34.232 0.049 6.69 2.79 13.76
1/7/2022 5:15:00 AM 1.23 34.214 0.049 6.7 2.86 13.75
1/7/2022 5:30:00 AM 1.22 34.196 0.049 6.7 2.91 13.77
1/7/2022 5:45:00 AM 1.21 34.178 0.049 6.7 2.73 13.77
1/7/2022 6:00:00 AM 1.2 34.16 0.049 6.69 3.85 13.78
1/7/2022 6:15:00 AM 1.19 34.142 0.049 6.71 2.59 13.78
1/7/2022 6:30:00 AM 1.17 34.106 0.049 6.68 2.64 13.79
1/7/2022 6:45:00 AM 1.15 34.07 0.049 6.69 2.68 13.79
1/7/2022 7:00:00 AM 1.14 34.052 0.049 6.71 2.61 13.8
1/7/2022 7:15:00 AM 1.13 34.034 0.049 6.7 2.61 13.81
1/7/2022 7:30:00 AM 1.11 33.998 0.049 6.71 2.55 13.82
1/7/2022 7:45:00 AM 1.09 33.962 0.049 6.66 2.39 13.83
1/7/2022 8:00:00 AM 1.07 33.926 0.049 6.7 2.46 13.84
1/7/2022 8:15:00 AM 1.05 33.89 0.049 6.71 2.4 13.86
1/7/2022 8:30:00 AM 1.03 33.854 0.049 6.7 2.42 13.9
1/7/2022 8:45:00 AM 1.02 33.836 0.049 6.72 2.36 13.93
1/7/2022 9:00:00 AM 1.02 33.836 0.049 6.72 2.38 13.97
1/7/2022 9:15:00 AM 1.03 33.854 0.049 6.7 2.38 14.01
1/7/2022 9:30:00 AM 1.03 33.854 0.049 6.74 2.34 14.05
1/7/2022 9:45:00 AM 1.05 33.89 0.049 6.75 2.39 14.08
1/7/2022 10:00:00 AM 1.07 33.926 0.049 6.76 2.33 14.11
1/7/2022 10:15:00 AM 1.1 33.98 0.049 6.74 2.26 14.13
1/7/2022 10:30:00 AM 1.17 34.106 0.049 6.77 2.26 14.14
1/7/2022 10:45:00 AM 1.22 34.196 0.049 6.77 2.21 14.15
1/7/2022 11:00:00 AM 1.25 34.25 0.049 6.78 2.18 14.15
1/7/2022 11:15:00 AM 1.29 34.322 0.048 6.78 2.21 14.15
1/7/2022 11:30:00 AM 1.32 34.376 0.049 6.78 2.17 14.15
1/7/2022 11:45:00 AM 1.34 34.412 0.048 6.76 2.16 14.15
1/7/2022 12:00:00 PM 1.37 34.466 0.048 6.79 2.11 14.14
1/7/2022 12:15:00 PM 1.41 34.538 0.048 6.79 2.16 14.13
1/7/2022 12:30:00 PM 1.47 34.646 0.048 6.79 2.21 14.12
1/7/2022 12:45:00 PM 1.53 34.754 0.048 6.81 2.17 14.11
1/7/2022 1:00:00 PM 1.55 34.79 0.048 6.79 2.17 14.1
1/7/2022 1:15:00 PM 1.59 34.862 0.048 6.8 2.17 14.08
1/7/2022 1:30:00 PM 1.62 34.916 0.048 6.81 2.12 14.07
1/7/2022 1:45:00 PM 1.66 34.988 0.049 6.79 2.12 14.06
1/7/2022 2:00:00 PM 1.67 35.006 0.048 6.8 2.12 14.05
1/7/2022 2:15:00 PM 1.67 35.006 0.049 6.8 2.14 14.04
1/7/2022 2:30:00 PM 1.66 34.988 0.048 6.81 2.1 14.02
1/7/2022 2:45:00 PM 1.66 34.988 0.048 6.81 2.15 14.02
1/7/2022 3:00:00 PM 1.61 34.898 0.048 6.79 2.08 14
1/7/2022 3:15:00 PM 1.59 34.862 0.048 6.8 2.07 13.98
1/7/2022 3:30:00 PM 1.58 34.844 0.048 6.8 2.08 13.99
1/7/2022 3:45:00 PM 1.53 34.754 0.048 6.79 2.07 13.98
1/7/2022 4:00:00 PM 1.48 34.664 0.049 6.8 2.05 13.98
1/7/2022 4:15:00 PM 1.45 34.61 0.049 6.78 2.06 13.99
1/7/2022 4:30:00 PM 1.41 34.538 0.049 6.79 2.11 13.98
1/7/2022 4:45:00 PM 1.37 34.466 0.049 6.76 2.14 13.97
1/7/2022 5:00:00 PM 1.32 34.376 0.049 6.78 2.14 13.96
1/7/2022 5:15:00 PM 1.25 34.25 0.049 6.74 2.2 13.95
1/7/2022 5:30:00 PM 1.19 34.142 0.049 6.76 2.19 13.95
1/7/2022 5:45:00 PM 1.11 33.998 0.049 6.75 2.3 13.96
1/7/2022 6:00:00 PM 1.03 33.854 0.049 6.74 2.34 13.97
1/7/2022 6:15:00 PM 0.96 33.728 0.049 6.71 2.46 13.99
1/7/2022 6:30:00 PM 0.9 33.62 0.049 6.74 2.45 14.01
1/7/2022 6:45:00 PM 0.85 33.53 0.049 6.71 2.45 14.03
1/7/2022 7:00:00 PM 0.79 33.422 0.049 6.71 2.44 14.06
1/7/2022 7:15:00 PM 0.74 33.332 0.049 6.71 2.55 14.09
1/7/2022 7:30:00 PM 0.69 33.242 0.049 6.7 2.54 14.1
1/7/2022 7:45:00 PM 0.64 33.152 0.049 6.7 2.6 14.12
1/7/2022 8:00:00 PM 0.6 33.08 0.049 6.68 2.64 14.14
1/7/2022 8:15:00 PM 0.57 33.026 0.049 6.65 2.63 14.16
1/7/2022 8:30:00 PM 0.53 32.954 0.049 6.66 2.75 14.19
1/7/2022 8:45:00 PM 0.49 32.882 0.049 6.66 2.61 14.2
1/7/2022 9:00:00 PM 0.46 32.828 0.049 6.63 2.59 14.22
1/7/2022 9:15:00 PM 0.43 32.774 0.049 6.65 2.6 14.24
1/7/2022 9:30:00 PM 0.41 32.738 0.049 6.65 2.49 14.25
1/7/2022 9:45:00 PM 0.39 32.702 0.049 6.64 2.53 14.27
1/7/2022 10:00:00 PM 0.36 32.648 0.049 6.64 2.57 14.29
1/7/2022 10:15:00 PM 0.34 32.612 0.049 6.66 2.56 14.3
1/7/2022 10:30:00 PM 0.31 32.558 0.049 6.66 2.47 14.31
1/7/2022 10:45:00 PM 0.29 32.522 0.049 6.63 2.48 14.33
1/7/2022 11:00:00 PM 0.27 32.486 0.049 6.65 2.45 14.34
1/7/2022 11:15:00 PM 0.24 32.432 0.05 6.64 2.51 14.36
1/7/2022 11:30:00 PM 0.21 32.378 0.05 6.66 2.51 14.37
1/7/2022 11:45:00 PM 0.17 32.306 0.049 6.66 2.5 14.38
1/8/2022 12:00:00 AM 0.13 32.234 0.049 6.65 2.47 14.39
1/8/2022 12:15:00 AM 0.09 32.162 0.05 6.65 2.45 14.41
1/8/2022 12:30:00 AM 0.05 32.09 0.05 6.66 2.45 14.42
1/8/2022 12:45:00 AM 0.01 32.018 0.05 6.67 2.44 14.44
1/8/2022 1:00:00 AM -0.02 31.964 0.05 6.67 2.43 14.46
1/8/2022 1:15:00 AM -0.03 31.946 0.05 6.7 2.75 14.48
1/8/2022 1:30:00 AM -0.02 31.964 0.05 6.69 2.63 14.5
1/8/2022 1:45:00 AM -0.02 31.964 0.05 6.7 2.72 14.52
1/8/2022 2:00:00 AM -0.01 31.982 0.05 6.71 2.71 14.54
1/8/2022 2:15:00 AM -0.01 31.982 0.05 6.73 2.85 14.54
1/8/2022 2:30:00 AM -0.01 31.982 0.05 6.74 2.76 14.55
1/8/2022 2:45:00 AM 0 32 0.05 6.79 3.08 14.56
1/8/2022 3:00:00 AM -0.01 31.982 0.05 6.78 2.98 14.57
1/8/2022 3:15:00 AM 0 32 0.049 6.77 3.12 14.58
1/8/2022 3:30:00 AM 0 32 0.05 6.77 3.01 14.58
1/8/2022 3:45:00 AM 0 32 0.05 6.76 3 14.58
1/8/2022 4:00:00 AM 0 32 0.05 6.78 3.15 14.57
1/8/2022 4:15:00 AM 0 32 0.05 6.77 3.32 14.58
1/8/2022 4:30:00 AM 0 32 0.05 6.8 3.21 14.58
1/8/2022 4:45:00 AM 0 32 0.05 6.83 3.03 14.57
1/8/2022 5:00:00 AM 0 32 0.05 6.79 3.14 14.57
1/8/2022 5:15:00 AM 0 32 0.05 6.85 3.12 14.57
1/8/2022 5:30:00 AM 0 32 0.05 6.85 3.1 14.58
1/8/2022 5:45:00 AM 0 32 0.05 6.85 3.17 14.58
1/8/2022 6:00:00 AM 0 32 0.05 6.77 3.05 14.59
1/8/2022 6:15:00 AM 0 32 0.05 6.83 3.08 14.59
1/8/2022 6:30:00 AM 0 32 0.05 6.82 2.93 14.59
1/8/2022 6:45:00 AM 0 32 0.05 6.86 3 14.59
1/8/2022 7:00:00 AM 0 32 0.05 6.81 2.95 14.6
1/8/2022 7:15:00 AM 0 32 0.05 6.86 2.99 14.6
1/8/2022 7:30:00 AM 0 32 0.05 6.84 2.93 14.61
1/8/2022 7:45:00 AM 0 32 0.05 6.81 2.9 14.62
1/8/2022 8:00:00 AM 0 32 0.05 6.82 2.92 14.64
1/8/2022 8:15:00 AM 0 32 0.05 6.83 2.86 14.66
1/8/2022 8:30:00 AM 0 32 0.05 6.86 2.93 14.69
1/8/2022 8:45:00 AM 0 32 0.05 6.85 2.81 14.71
1/8/2022 9:00:00 AM 0 32 0.05 6.82 2.81 14.74
1/8/2022 9:15:00 AM 0 32 0.051 6.86 2.93 14.76
1/8/2022 9:30:00 AM 0 32 0.05 6.87 2.81 14.78
1/8/2022 9:45:00 AM 0 32 0.05 6.89 2.74 14.79
1/8/2022 10:00:00 AM 0 32 0.05 6.9 2.8 14.79
1/8/2022 10:15:00 AM 0 32 0.05 6.83 2.83 14.79
1/8/2022 10:30:00 AM 0 32 0.051 6.88 2.81 14.8
1/8/2022 10:45:00 AM 0 32 0.051 6.87 3.15 14.82
1/8/2022 11:00:00 AM 0 32 0.051 6.88 2.57 14.77
1/8/2022 11:15:00 AM 0 32 0.051 6.91 2.71 14.8
1/8/2022 11:30:00 AM 0 32 0.051 6.84 2.83 14.77
1/8/2022 11:45:00 AM 0 32 0.051 6.89 2.88 14.76
1/8/2022 12:00:00 PM 0 32 0.05 6.86 3.09 14.73
1/8/2022 12:15:00 PM 0 32 0.05 6.9 3.35 14.67
1/8/2022 12:30:00 PM 0 32 0.05 6.9 3.36 14.55
1/8/2022 12:45:00 PM 0 32 0.05 6.9 3.31 14.6
1/8/2022 1:00:00 PM 0 32 0.05 6.84 3.38 14.58
1/8/2022 1:15:00 PM 0 32 0.05 6.9 3.58 14.57
1/8/2022 1:30:00 PM 0.03 32.054 0.05 6.85 3.82 14.66
1/8/2022 1:45:00 PM 0.16 32.288 0.05 6.93 3.1 14.69
1/8/2022 2:00:00 PM 0.22 32.396 0.05 6.81 2.69 14.68
1/8/2022 2:15:00 PM 0.29 32.522 0.05 6.84 2.67 14.66
1/8/2022 2:30:00 PM 0.34 32.612 0.05 6.82 2.52 14.64
1/8/2022 2:45:00 PM 0.37 32.666 0.05 6.8 2.41 14.62
1/8/2022 3:00:00 PM 0.38 32.684 0.05 6.83 2.37 14.61
1/8/2022 3:15:00 PM 0.38 32.684 0.05 6.79 2.35 14.58
1/8/2022 3:30:00 PM 0.38 32.684 0.05 6.82 2.34 14.56
1/8/2022 3:45:00 PM 0.36 32.648 0.05 6.8 2.39 14.55
1/8/2022 4:00:00 PM 0.33 32.594 0.05 6.82 2.36 14.54
1/8/2022 4:15:00 PM 0.29 32.522 0.05 6.83 2.31 14.53
1/8/2022 4:30:00 PM 0.27 32.486 0.05 6.82 2.32 14.52
1/8/2022 4:45:00 PM 0.24 32.432 0.05 6.83 2.37 14.51
1/8/2022 5:00:00 PM 0.22 32.396 0.05 6.78 2.35 14.5
1/8/2022 5:15:00 PM 0.2 32.36 0.05 6.82 2.35 14.49
1/8/2022 5:30:00 PM 0.18 32.324 0.05 6.77 2.35 14.48
1/8/2022 5:45:00 PM 0.17 32.306 0.05 6.8 2.39 14.47
1/8/2022 6:00:00 PM 0.15 32.27 0.05 6.8 2.38 14.46
1/8/2022 6:15:00 PM 0.15 32.27 0.05 6.8 2.39 14.46
1/8/2022 6:30:00 PM 0.14 32.252 0.05 6.8 2.38 14.46
1/8/2022 6:45:00 PM 0.14 32.252 0.05 6.8 2.38 14.45
1/8/2022 7:00:00 PM 0.13 32.234 0.05 6.8 2.35 14.45
1/8/2022 7:15:00 PM 0.12 32.216 0.05 6.81 2.39 14.45
1/8/2022 7:30:00 PM 0.11 32.198 0.05 6.79 2.39 14.45
1/8/2022 7:45:00 PM 0.1 32.18 0.05 6.8 2.39 14.46
1/8/2022 8:00:00 PM 0.09 32.162 0.05 6.75 2.33 14.46
1/8/2022 8:15:00 PM 0.08 32.144 0.05 6.79 2.37 14.46
1/8/2022 8:30:00 PM 0.07 32.126 0.05 6.79 2.34 14.46
1/8/2022 8:45:00 PM 0.06 32.108 0.05 6.77 2.32 14.47
1/8/2022 9:00:00 PM 0.05 32.09 0.05 6.79 2.26 14.47
1/8/2022 9:15:00 PM 0.05 32.09 0.05 6.8 2.36 14.47
1/8/2022 9:30:00 PM 0.06 32.108 0.05 6.79 2.29 14.46
1/8/2022 9:45:00 PM 0.08 32.144 0.05 6.8 2.25 14.46
1/8/2022 10:00:00 PM 0.1 32.18 0.05 6.79 2.25 14.46
1/8/2022 10:15:00 PM 0.1 32.18 0.05 6.83 2.25 14.46
1/8/2022 10:30:00 PM 0.12 32.216 0.05 6.83 2.2 14.45
1/8/2022 10:45:00 PM 0.12 32.216 0.05 6.85 2.15 14.45
1/8/2022 11:00:00 PM 0.12 32.216 0.05 6.83 2.21 14.45
1/8/2022 11:15:00 PM 0.13 32.234 0.05 6.84 2.25 14.44
1/8/2022 11:30:00 PM 0.14 32.252 0.05 6.82 2.23 14.43
1/8/2022 11:45:00 PM 0.16 32.288 0.05 6.78 2.23 14.43
1/9/2022 12:00:00 AM 0.17 32.306 0.05 6.77 2.21 14.42
1/9/2022 12:15:00 AM 0.19 32.342 0.05 6.76 2.23 14.41
1/9/2022 12:30:00 AM 0.21 32.378 0.05 6.75 2.24 14.41
1/9/2022 12:45:00 AM 0.22 32.396 0.05 6.71 2.25 14.39
1/9/2022 1:00:00 AM 0.23 32.414 0.05 6.76 2.29 14.39
1/9/2022 1:15:00 AM 0.24 32.432 0.05 6.74 2.34 14.37
1/9/2022 1:30:00 AM 0.26 32.468 0.05 6.75 2.31 14.36
1/9/2022 1:45:00 AM 0.28 32.504 0.05 6.75 2.21 14.36
1/9/2022 2:00:00 AM 0.3 32.54 0.05 6.75 2.23 14.34
1/9/2022 2:15:00 AM 0.32 32.576 0.05 6.75 2.25 14.33
1/9/2022 2:30:00 AM 0.35 32.63 0.05 6.75 2.22 14.32
1/9/2022 2:45:00 AM 0.36 32.648 0.05 6.75 2.22 14.31
1/9/2022 3:00:00 AM 0.38 32.684 0.05 6.75 2.26 14.3
1/9/2022 3:15:00 AM 0.39 32.702 0.05 6.75 2.27 14.3
1/9/2022 3:30:00 AM 0.41 32.738 0.05 6.75 2.25 14.28
1/9/2022 3:45:00 AM 0.42 32.756 0.05 6.75 2.18 14.28
1/9/2022 4:00:00 AM 0.45 32.81 0.05 6.75 2.25 14.26
1/9/2022 4:15:00 AM 0.46 32.828 0.05 6.75 2.23 14.25
1/9/2022 4:30:00 AM 0.47 32.846 0.05 6.74 2.2 14.25
1/9/2022 4:45:00 AM 0.49 32.882 0.052 6.75 2.22 14.24
1/9/2022 5:00:00 AM 0.52 32.936 0.053 6.75 2.24 14.22
1/9/2022 5:15:00 AM 0.54 32.972 0.054 6.76 2.23 14.21
1/9/2022 5:30:00 AM 0.56 33.008 0.053 6.76 2.3 14.19
1/9/2022 5:45:00 AM 0.58 33.044 0.053 6.76 2.25 14.19
1/9/2022 6:00:00 AM 0.6 33.08 0.052 6.76 2.27 14.17
1/9/2022 6:15:00 AM 0.62 33.116 0.054 6.74 2.34 14.17
1/9/2022 6:30:00 AM 0.64 33.152 0.059 6.72 2.35 14.16
1/9/2022 6:45:00 AM 0.66 33.188 0.057 6.75 2.33 14.15
1/9/2022 7:00:00 AM 0.67 33.206 0.057 6.75 2.29 14.14
1/9/2022 7:15:00 AM 0.7 33.26 0.055 6.75 2.3 14.12
1/9/2022 7:30:00 AM 0.72 33.296 0.055 6.74 2.23 14.12
1/9/2022 7:45:00 AM 0.75 33.35 0.059 6.75 2.82 14.11
1/9/2022 8:00:00 AM 0.77 33.386 0.065 6.74 2.54 14.1
1/9/2022 8:15:00 AM 0.8 33.44 0.059 6.76 2.41 14.09
1/9/2022 8:30:00 AM 0.82 33.476 0.059 6.76 2.41 14.08
1/9/2022 8:45:00 AM 0.85 33.53 0.057 6.75 2.47 14.09
1/9/2022 9:00:00 AM 0.88 33.584 0.056 6.76 2.47 14.09
1/9/2022 9:15:00 AM 0.91 33.638 0.06 6.76 2.49 14.08
1/9/2022 9:30:00 AM 0.94 33.692 0.057 6.76 2.62 14.08
1/9/2022 9:45:00 AM 0.98 33.764 0.058 6.77 2.85 14.08
1/9/2022 10:00:00 AM 1.01 33.818 0.057 6.76 2.76 14.08
1/9/2022 10:15:00 AM 1.05 33.89 0.056 6.77 2.73 14.08
1/9/2022 10:30:00 AM 1.09 33.962 0.055 6.77 2.82 14.08
1/9/2022 10:45:00 AM 1.13 34.034 0.055 6.83 2.88 14.08
1/9/2022 11:00:00 AM 1.17 34.106 0.056 6.82 2.84 14.07
1/9/2022 11:15:00 AM 1.22 34.196 0.057 6.8 2.91 14.07
1/9/2022 11:30:00 AM 1.25 34.25 0.059 6.81 3.06 14.05
1/9/2022 11:45:00 AM 1.28 34.304 0.06 6.79 3.08 14.03
1/9/2022 12:00:00 PM 1.32 34.376 0.059 6.78 3.04 14.01
1/9/2022 12:15:00 PM 1.36 34.448 0.059 6.79 3.14 14
1/9/2022 12:30:00 PM 1.39 34.502 0.06 6.8 3.14 13.99
1/9/2022 12:45:00 PM 1.42 34.556 0.06 6.76 3.18 13.98
1/9/2022 1:00:00 PM 1.46 34.628 0.061 6.78 3.33 13.96
1/9/2022 1:15:00 PM 1.51 34.718 0.061 6.77 3.39 13.95
1/9/2022 1:30:00 PM 1.54 34.772 0.063 6.79 3.5 13.93
1/9/2022 1:45:00 PM 1.56 34.808 0.065 6.82 3.62 13.9
1/9/2022 2:00:00 PM 1.59 34.862 0.068 6.84 3.82 13.89
1/9/2022 2:15:00 PM 1.62 34.916 0.069 6.85 4.11 13.88
1/9/2022 2:30:00 PM 1.64 34.952 0.07 6.82 4.08 13.87
1/9/2022 2:45:00 PM 1.67 35.006 0.07 6.84 4.15 13.85
1/9/2022 3:00:00 PM 1.69 35.042 0.07 6.82 4.47 13.83
1/9/2022 3:15:00 PM 1.71 35.078 0.07 6.83 4.41 13.82
1/9/2022 3:30:00 PM 1.73 35.114 0.07 6.84 4.91 13.8
1/9/2022 3:45:00 PM 1.74 35.132 0.069 6.83 4.94 13.79
1/9/2022 4:00:00 PM 1.75 35.15 0.07 6.81 5.17 13.76
1/9/2022 4:15:00 PM 1.77 35.186 0.07 6.86 4.94 13.74
1/9/2022 4:30:00 PM 1.79 35.222 0.07 6.83 5.44 13.74
1/9/2022 4:45:00 PM 1.79 35.222 0.07 6.8 5.63 13.71
1/9/2022 5:00:00 PM 1.8 35.24 0.069 6.8 5.7 13.69
1/9/2022 5:15:00 PM 1.82 35.276 0.07 6.79 5.65 13.69
1/9/2022 5:30:00 PM 1.82 35.276 0.069 6.77 6.03 13.66
1/9/2022 5:45:00 PM 1.82 35.276 0.069 6.78 6.14 13.65
1/9/2022 6:00:00 PM 1.81 35.258 0.068 6.78 6.09 13.65
1/9/2022 6:15:00 PM 1.8 35.24 0.067 6.78 6.22 13.64
1/9/2022 6:30:00 PM 1.8 35.24 0.067 6.75 6.26 13.65
1/9/2022 6:45:00 PM 1.79 35.222 0.066 6.78 6.19 13.65
1/9/2022 7:00:00 PM 1.79 35.222 0.066 6.77 6.19 13.64
1/9/2022 7:15:00 PM 1.79 35.222 0.066 6.78 6.39 13.64
1/9/2022 7:30:00 PM 1.8 35.24 0.066 6.77 6.1 13.64
1/9/2022 7:45:00 PM 1.81 35.258 0.066 6.76 6.04 13.63
1/9/2022 8:00:00 PM 1.83 35.294 0.066 6.75 5.91 13.63
1/9/2022 8:15:00 PM 1.85 35.33 0.066 6.73 6.35 13.61
1/9/2022 8:30:00 PM 1.88 35.384 0.066 6.74 5.96 13.6
1/9/2022 8:45:00 PM 1.91 35.438 0.065 6.75 5.92 13.6
1/9/2022 9:00:00 PM 1.94 35.492 0.065 6.75 5.79 13.57
1/9/2022 9:15:00 PM 1.97 35.546 0.066 6.75 5.57 13.57
1/9/2022 9:30:00 PM 1.98 35.564 0.065 6.75 5.51 13.55
1/9/2022 9:45:00 PM 1.99 35.582 0.065 6.79 5.4 13.56
1/9/2022 10:00:00 PM 1.96 35.528 0.065 6.76 5.58 13.56
1/9/2022 10:15:00 PM 1.93 35.474 0.065 6.78 5.27 13.56
1/9/2022 10:30:00 PM 1.9 35.42 0.064 6.77 4.99 13.57
1/9/2022 10:45:00 PM 1.87 35.366 0.064 6.77 5.11 13.57
1/9/2022 11:00:00 PM 1.84 35.312 0.064 6.77 4.92 13.6
1/9/2022 11:15:00 PM 1.81 35.258 0.064 6.8 4.88 13.6
1/9/2022 11:30:00 PM 1.77 35.186 0.063 6.78 4.88 13.62
1/9/2022 11:45:00 PM 1.74 35.132 0.063 6.77 4.72 13.63
1/10/2022 12:00:00 AM 1.71 35.078 0.063 6.78 4.63 13.64
1/10/2022 12:15:00 AM 1.69 35.042 0.063 6.81 4.56 13.66
1/10/2022 12:30:00 AM 1.67 35.006 0.062 6.79 4.52 13.67
1/10/2022 12:45:00 AM 1.64 34.952 0.062 6.79 4.44 13.68
1/10/2022 1:00:00 AM 1.61 34.898 0.062 6.79 4.52 13.69
1/10/2022 1:15:00 AM 1.58 34.844 0.062 6.79 4.33 13.71
1/10/2022 1:30:00 AM 1.54 34.772 0.062 6.77 4.37 13.73
1/10/2022 1:45:00 AM 1.49 34.682 0.061 6.76 4.29 13.74
1/10/2022 2:00:00 AM 1.45 34.61 0.061 6.76 4.28 13.76
1/10/2022 2:15:00 AM 1.4 34.52 0.061 6.79 4.16 13.78
1/10/2022 2:30:00 AM 1.36 34.448 0.061 6.76 4.15 13.8
1/10/2022 2:45:00 AM 1.33 34.394 0.061 6.77 4.01 13.82
1/10/2022 3:00:00 AM 1.29 34.322 0.061 6.8 3.93 13.83
1/10/2022 3:15:00 AM 1.25 34.25 0.06 6.77 4 13.85
1/10/2022 3:30:00 AM 1.2 34.16 0.06 6.79 3.93 13.88
1/10/2022 3:45:00 AM 1.15 34.07 0.06 6.79 3.87 13.9
1/10/2022 4:00:00 AM 1.1 33.98 0.06 6.78 3.87 13.92
1/10/2022 4:15:00 AM 1.04 33.872 0.06 6.8 3.76 13.94
1/10/2022 4:30:00 AM 0.98 33.764 0.06 6.78 3.88 13.96
1/10/2022 4:45:00 AM 0.93 33.674 0.06 6.79 3.71 13.99
1/10/2022 5:00:00 AM 0.88 33.584 0.059 6.8 3.78 14
1/10/2022 5:15:00 AM 0.84 33.512 0.059 6.75 3.8 14.02
1/10/2022 5:30:00 AM 0.78 33.404 0.059 6.78 3.69 14.05
1/10/2022 5:45:00 AM 0.73 33.314 0.059 6.8 3.63 14.07
1/10/2022 6:00:00 AM 0.68 33.224 0.059 6.79 3.74 14.09
1/10/2022 6:15:00 AM 0.64 33.152 0.059 6.79 3.57 14.11
1/10/2022 6:30:00 AM 0.59 33.062 0.059 6.79 3.56 14.13
1/10/2022 6:45:00 AM 0.54 32.972 0.059 6.79 3.58 14.16
1/10/2022 7:00:00 AM 0.49 32.882 0.059 6.79 3.51 14.17
1/10/2022 7:15:00 AM 0.45 32.81 0.058 6.79 3.54 14.19
1/10/2022 7:30:00 AM 0.4 32.72 0.058 6.79 3.55 14.22
1/10/2022 7:45:00 AM 0.36 32.648 0.058 6.8 3.4 14.24
1/10/2022 8:00:00 AM 0.32 32.576 0.058 6.8 3.44 14.27
1/10/2022 8:15:00 AM 0.3 32.54 0.058 6.8 3.3 14.3
1/10/2022 8:30:00 AM 0.29 32.522 0.058 6.77 3.14 14.33
1/10/2022 8:45:00 AM 0.28 32.504 0.058 6.8 3.23 14.36
1/10/2022 9:00:00 AM 0.26 32.468 0.058 6.81 3.25 14.4
1/10/2022 9:15:00 AM 0.25 32.45 0.058 6.79 3.22 14.43
1/10/2022 9:30:00 AM 0.26 32.468 0.058 6.8 3.27 14.46
1/10/2022 9:45:00 AM 0.27 32.486 0.057 6.8 3.28 14.48
1/10/2022 10:00:00 AM 0.29 32.522 0.057 6.8 3.15 14.51
1/10/2022 10:15:00 AM 0.32 32.576 0.057 6.83 3.04 14.52
1/10/2022 10:30:00 AM 0.35 32.63 0.057 6.8 3.12 14.54
1/10/2022 10:45:00 AM 0.41 32.738 0.057 6.8 3 14.54
1/10/2022 11:00:00 AM 0.43 32.774 0.057 6.81 2.97 14.54
1/10/2022 11:15:00 AM 0.46 32.828 0.057 6.83 2.94 14.53
1/10/2022 11:30:00 AM 0.48 32.864 0.057 6.84 2.92 14.52
1/10/2022 11:45:00 AM 0.54 32.972 0.056 6.83 2.89 14.52
1/10/2022 12:00:00 PM 0.63 33.134 0.056 6.82 2.82 14.5
1/10/2022 12:15:00 PM 0.67 33.206 0.056 6.83 2.78 14.49
1/10/2022 12:30:00 PM 0.7 33.26 0.056 6.84 2.8 14.47
1/10/2022 12:45:00 PM 0.72 33.296 0.056 6.83 2.8 14.45
1/10/2022 1:00:00 PM 0.81 33.458 0.056 6.85 2.79 14.44
1/10/2022 1:15:00 PM 0.89 33.602 0.056 6.83 2.78 14.42
1/10/2022 1:30:00 PM 0.93 33.674 0.056 6.85 2.76 14.4
1/10/2022 1:45:00 PM 0.94 33.692 0.056 6.84 2.71 14.39
1/10/2022 2:00:00 PM 0.91 33.638 0.056 6.82 2.65 14.38
1/10/2022 2:15:00 PM 0.88 33.584 0.056 6.84 2.64 14.36
1/10/2022 2:30:00 PM 0.86 33.548 0.056 6.83 2.66 14.34
1/10/2022 2:45:00 PM 0.83 33.494 0.056 6.83 2.66 14.32
1/10/2022 3:00:00 PM 0.8 33.44 0.056 6.83 2.63 14.31
1/10/2022 3:15:00 PM 0.78 33.404 0.056 6.83 2.61 14.32
1/10/2022 3:30:00 PM 0.78 33.404 0.056 6.79 2.67 14.32
1/10/2022 3:45:00 PM 0.74 33.332 0.055 6.81 2.62 14.33
1/10/2022 4:00:00 PM 0.72 33.296 0.055 6.82 2.65 14.31
1/10/2022 4:15:00 PM 0.69 33.242 0.055 6.82 2.56 14.3
1/10/2022 4:30:00 PM 0.67 33.206 0.055 6.82 2.53 14.3
1/10/2022 4:45:00 PM 0.63 33.134 0.056 6.84 2.57 14.29
1/10/2022 5:00:00 PM 0.59 33.062 0.055 6.83 2.56 14.27
1/10/2022 5:15:00 PM 0.54 32.972 0.055 6.82 2.58 14.27
1/10/2022 5:30:00 PM 0.49 32.882 0.055 6.8 2.72 14.26
1/10/2022 5:45:00 PM 0.45 32.81 0.055 6.8 2.57 14.26
1/10/2022 6:00:00 PM 0.41 32.738 0.055 6.78 2.57 14.26
1/10/2022 6:15:00 PM 0.37 32.666 0.055 6.81 2.59 14.27
1/10/2022 6:30:00 PM 0.33 32.594 0.055 6.77 2.66 14.28
1/10/2022 6:45:00 PM 0.3 32.54 0.055 6.78 2.66 14.29
1/10/2022 7:00:00 PM 0.26 32.468 0.055 6.79 2.67 14.3
1/10/2022 7:15:00 PM 0.22 32.396 0.055 6.77 2.8 14.31
1/10/2022 7:30:00 PM 0.19 32.342 0.055 6.76 2.7 14.32
1/10/2022 7:45:00 PM 0.15 32.27 0.055 6.77 2.78 14.34
1/10/2022 8:00:00 PM 0.12 32.216 0.055 6.74 2.86 14.35
1/10/2022 8:15:00 PM 0.1 32.18 0.055 6.74 2.82 14.36
1/10/2022 8:30:00 PM 0.08 32.144 0.055 6.75 2.87 14.37
1/10/2022 8:45:00 PM 0.09 32.162 0.055 6.75 2.85 14.37
1/10/2022 9:00:00 PM 0.06 32.108 0.055 6.75 2.87 14.38
1/10/2022 9:15:00 PM 0.04 32.072 0.055 6.75 2.88 14.39
1/10/2022 9:30:00 PM 0.02 32.036 0.055 6.76 2.92 14.4
1/10/2022 9:45:00 PM -0.01 31.982 0.055 6.76 2.9 14.42
1/10/2022 10:00:00 PM -0.02 31.964 0.054 6.78 2.93 14.44
1/10/2022 10:15:00 PM -0.01 31.982 0.055 6.72 2.77 14.46
1/10/2022 10:30:00 PM -0.01 31.982 0.054 6.75 2.82 14.47
1/10/2022 10:45:00 PM 0 32 0.054 6.78 2.71 14.49
1/10/2022 11:00:00 PM 0 32 0.054 6.78 3 14.51
1/10/2022 11:15:00 PM 0 32 0.054 6.79 2.83 14.52
1/10/2022 11:30:00 PM 0 32 0.054 6.8 2.66 14.53
1/10/2022 11:45:00 PM 0 32 0.054 6.78 2.75 14.54
1/11/2022 12:00:00 AM 0 32 0.054 6.78 2.66 14.55
1/11/2022 12:15:00 AM 0 32 0.054 6.81 2.72 14.56
1/11/2022 12:30:00 AM 0 32 0.054 6.82 2.72 14.56
1/11/2022 12:45:00 AM 0 32 0.054 6.84 2.6 14.57
1/11/2022 1:00:00 AM 0 32 0.054 6.84 2.65 14.57
1/11/2022 1:15:00 AM 0 32 0.054 6.85 2.75 14.58
1/11/2022 1:30:00 AM 0 32 0.054 6.86 2.67 14.58
1/11/2022 1:45:00 AM 0 32 0.054 6.82 2.75 14.59
1/11/2022 2:00:00 AM 0 32 0.055 6.84 2.8 14.59
1/11/2022 2:15:00 AM 0 32 0.055 6.82 2.91 14.6
1/11/2022 2:30:00 AM 0 32 0.055 6.84 2.76 14.6
1/11/2022 2:45:00 AM 0 32 0.055 6.81 2.87 14.6
1/11/2022 3:00:00 AM 0 32 0.055 6.83 3.1 14.61
1/11/2022 3:15:00 AM 0 32 0.055 6.81 3.09 14.61
1/11/2022 3:30:00 AM 0 32 0.055 6.83 3.22 14.61
1/11/2022 3:45:00 AM 0 32 0.055 6.84 3.21 14.61
1/11/2022 4:00:00 AM 0 32 0.055 6.84 3.13 14.61
1/11/2022 4:15:00 AM 0 32 0.055 6.85 3.02 14.61
1/11/2022 4:30:00 AM 0 32 0.055 6.81 2.87 14.61
1/11/2022 4:45:00 AM 0 32 0.055 6.83 2.88 14.61
1/11/2022 5:00:00 AM 0 32 0.055 6.85 2.93 14.62
1/11/2022 5:15:00 AM 0 32 0.055 6.82 2.89 14.62
1/11/2022 5:30:00 AM 0 32 0.055 6.84 2.94 14.62
1/11/2022 5:45:00 AM 0 32 0.055 6.82 2.95 14.62
1/11/2022 6:00:00 AM 0 32 0.055 6.82 3.11 14.63
1/11/2022 6:15:00 AM 0 32 0.055 6.82 3.02 14.63
1/11/2022 6:30:00 AM 0 32 0.055 6.82 2.78 14.64
1/11/2022 6:45:00 AM 0 32 0.055 6.83 2.86 14.64
1/11/2022 7:00:00 AM 0 32 0.055 6.84 2.85 14.65
1/11/2022 7:15:00 AM 0 32 0.055 6.81 2.62 14.65
1/11/2022 7:30:00 AM 0 32 0.055 6.83 2.69 14.66
1/11/2022 7:45:00 AM 0 32 0.056 6.86 2.65 14.66
1/11/2022 8:00:00 AM 0 32 0.056 6.86 2.7 14.68
1/11/2022 8:15:00 AM 0 32 0.056 6.86 2.68 14.7
1/11/2022 8:30:00 AM 0 32 0.056 6.85 2.61 14.73
1/11/2022 8:45:00 AM 0 32 0.056 6.86 2.7 14.75
1/11/2022 9:00:00 AM 0 32 0.056 6.88 2.67 14.78
1/11/2022 9:15:00 AM 0 32 0.056 6.86 2.76 14.8
1/11/2022 9:30:00 AM 0 32 0.056 6.89 2.66 14.82
1/11/2022 9:45:00 AM 0 32 0.056 6.84 2.6 14.82
1/11/2022 10:00:00 AM 0 32 0.056 6.87 2.6 14.83
1/11/2022 10:15:00 AM 0 32 0.056 6.91 2.82 14.84
1/11/2022 10:30:00 AM 0 32 0.056 6.87 2.99 14.84
1/11/2022 10:45:00 AM 0 32 0.056 6.91 2.81 14.85
1/11/2022 11:00:00 AM 0 32 0.056 6.89 2.82 14.85
1/11/2022 11:15:00 AM 0 32 0.056 6.88 2.76 14.85
1/11/2022 11:30:00 AM 0 32 0.055 6.91 3 14.86
1/11/2022 11:45:00 AM 0 32 0.055 6.91 2.9 14.86
1/11/2022 12:00:00 PM 0 32 0.055 6.9 2.99 14.86
1/11/2022 12:15:00 PM 0 32 0.055 6.9 3.05 14.85
1/11/2022 12:30:00 PM 0 32 0.055 6.88 3.11 14.84
1/11/2022 12:45:00 PM 0 32 0.054 6.85 3.09 14.83
1/11/2022 1:00:00 PM 0 32 0.054 6.89 3.36 14.83
1/11/2022 1:15:00 PM 0 32 0.054 6.88 3.44 14.82
1/11/2022 1:30:00 PM 0 32 0.054 6.85 3.53 14.82
1/11/2022 1:45:00 PM 0 32 0.054 6.88 3.46 14.81
1/11/2022 2:00:00 PM 0 32 0.054 6.88 3.63 14.81
1/11/2022 2:15:00 PM 0 32 0.054 6.87 3.57 14.8
1/11/2022 2:30:00 PM 0 32 0.053 6.86 3.59 14.79
1/11/2022 2:45:00 PM 0 32 0.053 6.86 3.84 14.78
1/11/2022 3:00:00 PM 0 32 0.053 6.85 3.76 14.78
1/11/2022 3:15:00 PM 0 32 0.053 6.83 3.66 14.78
1/11/2022 3:30:00 PM 0 32 0.053 6.82 3.69 14.78
1/11/2022 3:45:00 PM 0 32 0.053 6.84 3.52 14.77
1/11/2022 4:00:00 PM 0 32 0.053 6.85 3.38 14.77
1/11/2022 4:15:00 PM 0 32 0.053 6.85 3.34 14.76
1/11/2022 4:30:00 PM 0 32 0.053 6.86 3.23 14.75
1/11/2022 4:45:00 PM 0 32 0.053 6.86 3.12 14.73
1/11/2022 5:00:00 PM 0 32 0.053 6.87 2.89 14.72
1/11/2022 5:15:00 PM 0 32 0.053 6.85 3.17 14.71
1/11/2022 5:30:00 PM 0 32 0.053 6.86 3.03 14.69
1/11/2022 5:45:00 PM 0 32 0.053 6.86 2.89 14.67
1/11/2022 6:00:00 PM 0 32 0.053 6.86 2.86 14.66
1/11/2022 6:15:00 PM 0 32 0.053 6.86 2.98 14.65
1/11/2022 6:30:00 PM 0 32 0.053 6.85 2.88 14.64
1/11/2022 6:45:00 PM 0 32 0.053 6.84 3.04 14.63
1/11/2022 7:00:00 PM 0 32 0.053 6.84 2.97 14.63
1/11/2022 7:15:00 PM 0 32 0.053 6.86 2.73 14.62
1/11/2022 7:30:00 PM 0 32 0.053 6.86 2.94 14.62
1/11/2022 7:45:00 PM 0 32 0.053 6.84 2.96 14.62
1/11/2022 8:00:00 PM 0 32 0.053 6.85 2.85 14.62
1/11/2022 8:15:00 PM 0 32 0.053 6.83 2.88 14.61
1/11/2022 8:30:00 PM 0 32 0.053 6.8 2.92 14.61
1/11/2022 8:45:00 PM 0 32 0.053 6.84 2.82 14.6
1/11/2022 9:00:00 PM 0 32 0.053 6.85 2.91 14.6
1/11/2022 9:15:00 PM 0 32 0.053 6.8 2.85 14.59
1/11/2022 9:30:00 PM 0 32 0.053 6.85 2.89 14.59
1/11/2022 9:45:00 PM 0 32 0.054 6.86 3.07 14.59
1/11/2022 10:00:00 PM 0 32 0.054 6.81 2.96 14.58
1/11/2022 10:15:00 PM 0 32 0.054 6.81 3.08 14.57
1/11/2022 10:30:00 PM 0 32 0.054 6.85 2.9 14.57
1/11/2022 10:45:00 PM 0 32 0.054 6.86 2.93 14.56
1/11/2022 11:00:00 PM 0 32 0.054 6.83 2.87 14.56
1/11/2022 11:15:00 PM 0 32 0.054 6.85 2.82 14.55
1/11/2022 11:30:00 PM 0 32 0.054 6.85 2.85 14.55
1/11/2022 11:45:00 PM 0 32 0.054 6.83 2.83 14.55
1/12/2022 12:00:00 AM 0 32 0.054 6.84 2.81 14.55
1/12/2022 12:15:00 AM 0 32 0.054 6.83 2.92 14.55
1/12/2022 12:30:00 AM 0 32 0.054 6.8 2.82 14.54
1/12/2022 12:45:00 AM 0 32 0.054 6.86 2.98 14.54
1/12/2022 1:00:00 AM 0 32 0.054 6.85 2.83 14.53
1/12/2022 1:15:00 AM 0 32 0.054 6.8 2.77 14.53
1/12/2022 1:30:00 AM 0 32 0.054 6.85 2.87 14.52
1/12/2022 1:45:00 AM 0 32 0.054 6.85 2.8 14.52
1/12/2022 2:00:00 AM 0 32 0.054 6.83 2.73 14.52
1/12/2022 2:15:00 AM 0 32 0.054 6.79 2.75 14.51
1/12/2022 2:30:00 AM 0 32 0.054 6.83 2.74 14.51
1/12/2022 2:45:00 AM 0 32 0.054 6.84 2.8 14.5
1/12/2022 3:00:00 AM 0 32 0.054 6.83 2.89 14.5
1/12/2022 3:15:00 AM 0 32 0.054 6.8 2.79 14.49
1/12/2022 3:30:00 AM 0 32 0.054 6.83 2.82 14.49
1/12/2022 3:45:00 AM 0 32 0.055 6.81 2.76 14.49
1/12/2022 4:00:00 AM 0 32 0.055 6.83 2.8 14.48
1/12/2022 4:15:00 AM 0 32 0.055 6.84 2.68 14.47
1/12/2022 4:30:00 AM 0 32 0.055 6.85 2.71 14.47
1/12/2022 4:45:00 AM 0 32 0.055 6.83 2.71 14.47
1/12/2022 5:00:00 AM 0 32 0.055 6.84 2.73 14.47
1/12/2022 5:15:00 AM 0 32 0.055 6.79 2.73 14.46
1/12/2022 5:30:00 AM 0 32 0.055 6.83 2.76 14.46
1/12/2022 5:45:00 AM 0.01 32.018 0.055 6.83 2.76 14.45
1/12/2022 6:00:00 AM 0 32 0.055 6.82 2.73 14.45
1/12/2022 6:15:00 AM 0.01 32.018 0.055 6.85 2.62 14.45
1/12/2022 6:30:00 AM 0 32 0.055 6.84 2.68 14.44
1/12/2022 6:45:00 AM 0 32 0.055 6.85 2.7 14.44
1/12/2022 7:00:00 AM 0.01 32.018 0.055 6.84 2.69 14.44
1/12/2022 7:15:00 AM 0 32 0.055 6.84 2.73 14.43
1/12/2022 7:30:00 AM 0.01 32.018 0.055 6.85 2.59 14.42
1/12/2022 7:45:00 AM 0.01 32.018 0.055 6.84 2.61 14.43
1/12/2022 8:00:00 AM 0.01 32.018 0.055 6.82 2.67 14.45
1/12/2022 8:15:00 AM 0.01 32.018 0.055 6.85 2.62 14.47
1/12/2022 8:30:00 AM 0.01 32.018 0.055 6.87 2.65 14.5
1/12/2022 8:45:00 AM 0.01 32.018 0.055 6.87 2.66 14.51
1/12/2022 9:00:00 AM 0.01 32.018 0.055 6.87 2.62 14.54
1/12/2022 9:15:00 AM 0.01 32.018 0.055 6.86 2.69 14.56
1/12/2022 9:30:00 AM 0.01 32.018 0.055 6.87 2.71 14.57
1/12/2022 9:45:00 AM 0.02 32.036 0.055 6.89 2.77 14.58
1/12/2022 10:00:00 AM 0.02 32.036 0.055 6.85 2.7 14.59
1/12/2022 10:15:00 AM 0.02 32.036 0.055 6.87 2.84 14.61
1/12/2022 10:30:00 AM 0.02 32.036 0.055 6.89 2.79 14.61
1/12/2022 10:45:00 AM 0.02 32.036 0.054 6.9 2.93 14.61
1/12/2022 11:00:00 AM 0.03 32.054 0.054 6.88 3.06 14.6
1/12/2022 11:15:00 AM 0.02 32.036 0.054 6.9 3.21 14.59
1/12/2022 11:30:00 AM 0.01 32.018 0.054 6.9 3.47 14.57
1/12/2022 11:45:00 AM 0.01 32.018 0.054 6.86 3.37 14.55
1/12/2022 12:00:00 PM 0.01 32.018 0.054 6.87 3.66 14.54
1/12/2022 12:15:00 PM 0.01 32.018 0.054 6.84 3.65 14.53
1/12/2022 12:30:00 PM 0.01 32.018 0.053 6.84 3.9 14.52
1/12/2022 12:45:00 PM 0.01 32.018 0.053 6.85 3.86 14.51
1/12/2022 1:00:00 PM 0.01 32.018 0.052 6.86 4.11 14.51
1/12/2022 1:15:00 PM 0.01 32.018 0.052 6.83 4.38 14.49
1/12/2022 1:30:00 PM 0.01 32.018 0.052 6.81 4.49 14.49
1/12/2022 1:45:00 PM 0.01 32.018 0.051 6.82 4.97 14.48
1/12/2022 2:00:00 PM 0 32 0.051 6.83 4.93 14.47
1/12/2022 2:15:00 PM 0 32 0.051 6.82 5.01 14.47
1/12/2022 2:30:00 PM 0 32 0.051 6.81 5.5 14.46
1/12/2022 2:45:00 PM 0 32 0.05 6.83 5.9 14.45
1/12/2022 3:00:00 PM 0.01 32.018 0.05 6.8 5.79 14.45
1/12/2022 3:15:00 PM 0 32 0.05 6.84 5.8 14.44
1/12/2022 3:30:00 PM 0.01 32.018 0.05 6.84 6.18 14.43
1/12/2022 3:45:00 PM 0 32 0.05 6.83 6.72 14.42
1/12/2022 4:00:00 PM 0 32 0.05 6.82 6.26 14.42
1/12/2022 4:15:00 PM 0 32 0.05 6.79 6.32 14.41
1/12/2022 4:30:00 PM 0 32 0.049 6.79 6.67 14.39
1/12/2022 4:45:00 PM 0 32 0.049 6.81 7.45 14.39
1/12/2022 5:00:00 PM 0 32 0.049 6.79 6.81 14.37
1/12/2022 5:15:00 PM 0 32 0.05 6.79 6.87 14.36
1/12/2022 5:30:00 PM 0 32 0.05 6.81 6.63 14.34
1/12/2022 5:45:00 PM 0 32 0.05 6.82 6.71 14.33
1/12/2022 6:00:00 PM 0 32 0.05 6.82 6.13 14.33
1/12/2022 6:15:00 PM 0 32 0.05 6.79 6.53 14.32
1/12/2022 6:30:00 PM 0 32 0.049 6.77 6.69 14.32
1/12/2022 6:45:00 PM 0 32 0.049 6.78 7 14.31
1/12/2022 7:00:00 PM 0 32 0.049 6.76 6.44 14.31
1/12/2022 7:15:00 PM 0 32 0.049 6.78 6.41 14.3
1/12/2022 7:30:00 PM 0 32 0.05 6.76 6.41 14.3
1/12/2022 7:45:00 PM 0 32 0.05 6.77 6.3 14.3
1/12/2022 8:00:00 PM 0 32 0.05 6.74 6.2 14.29
1/12/2022 8:15:00 PM 0.01 32.018 0.05 6.73 6.25 14.3
1/12/2022 8:30:00 PM 0.01 32.018 0.05 6.74 5.71 14.3
1/12/2022 8:45:00 PM 0.01 32.018 0.05 6.77 5.89 14.3
1/12/2022 9:00:00 PM 0.01 32.018 0.049 6.71 6.4 14.31
1/12/2022 9:15:00 PM 0.02 32.036 0.049 6.75 6.09 14.3
1/12/2022 9:30:00 PM 0.03 32.054 0.049 6.74 6.13 14.3
1/12/2022 9:45:00 PM 0.03 32.054 0.049 6.73 5.86 14.29
1/12/2022 10:00:00 PM 0.03 32.054 0.049 6.72 5.68 14.28
1/12/2022 10:15:00 PM 0.04 32.072 0.049 6.74 5.53 14.28
1/12/2022 10:30:00 PM 0.05 32.09 0.049 6.77 5.4 14.28
1/12/2022 10:45:00 PM 0.05 32.09 0.049 6.66 5.57 14.27
1/12/2022 11:00:00 PM 0.05 32.09 0.049 6.7 5.22 14.27
1/12/2022 11:15:00 PM 0.06 32.108 0.049 6.72 5.17 14.26
1/12/2022 11:30:00 PM 0.06 32.108 0.049 6.72 5.09 14.26
1/12/2022 11:45:00 PM 0.07 32.126 0.049 6.7 5.15 14.26
1/13/2022 12:00:00 AM 0.07 32.126 0.049 6.66 4.93 14.25
1/13/2022 12:15:00 AM 0.08 32.144 0.049 6.65 4.92 14.24
1/13/2022 12:30:00 AM 0.08 32.144 0.049 6.66 4.95 14.24
1/13/2022 12:45:00 AM 0.09 32.162 0.049 6.67 5 14.23
1/13/2022 1:00:00 AM 0.09 32.162 0.049 6.67 4.91 14.23
1/13/2022 1:15:00 AM 0.1 32.18 0.049 6.65 4.84 14.22
1/13/2022 1:30:00 AM 0.11 32.198 0.049 6.68 5.14 14.21
1/13/2022 1:45:00 AM 0.12 32.216 0.049 6.68 5.73 14.2
1/13/2022 2:00:00 AM 0.14 32.252 0.049 6.71 4.8 14.19
1/13/2022 2:15:00 AM 0.16 32.288 0.049 6.71 4.68 14.19
1/13/2022 2:30:00 AM 0.17 32.306 0.049 6.66 4.81 14.18
1/13/2022 2:45:00 AM 0.18 32.324 0.049 6.67 4.72 14.17
1/13/2022 3:00:00 AM 0.2 32.36 0.049 6.7 4.54 14.16
1/13/2022 3:15:00 AM 0.21 32.378 0.049 6.72 4.53 14.15
1/13/2022 3:30:00 AM 0.24 32.432 0.049 6.73 4.53 14.15
1/13/2022 3:45:00 AM 0.25 32.45 0.049 6.74 4.74 14.14
1/13/2022 4:00:00 AM 0.26 32.468 0.049 6.74 4.41 14.12
1/13/2022 4:15:00 AM 0.28 32.504 0.049 6.75 4.58 14.11
1/13/2022 4:30:00 AM 0.3 32.54 0.049 6.73 4.31 14.11
1/13/2022 4:45:00 AM 0.32 32.576 0.049 6.73 4.43 14.1
1/13/2022 5:00:00 AM 0.35 32.63 0.049 6.75 4.19 14.08
1/13/2022 5:15:00 AM 0.37 32.666 0.049 6.76 4.26 14.08
1/13/2022 5:30:00 AM 0.38 32.684 0.049 6.81 4.35 14.07
1/13/2022 5:45:00 AM 0.41 32.738 0.049 6.69 4.22 14.06
1/13/2022 6:00:00 AM 0.43 32.774 0.049 6.67 4.14 14.05
1/13/2022 6:15:00 AM 0.45 32.81 0.049 6.68 4.22 14.04
1/13/2022 6:30:00 AM 0.48 32.864 0.049 6.69 4.11 14.03
1/13/2022 6:45:00 AM 0.51 32.918 0.05 6.67 4.04 14.01
1/13/2022 7:00:00 AM 0.54 32.972 0.049 6.7 3.96 14
1/13/2022 7:15:00 AM 0.57 33.026 0.05 6.7 3.94 14
1/13/2022 7:30:00 AM 0.6 33.08 0.049 6.68 3.87 13.99
1/13/2022 7:45:00 AM 0.64 33.152 0.05 6.7 3.89 13.98
1/13/2022 8:00:00 AM 0.67 33.206 0.05 6.7 3.82 13.97
1/13/2022 8:15:00 AM 0.7 33.26 0.049 6.72 3.75 13.97
1/13/2022 8:30:00 AM 0.74 33.332 0.05 6.72 3.92 13.98
1/13/2022 8:45:00 AM 0.77 33.386 0.05 6.72 3.55 13.98
1/13/2022 9:00:00 AM 0.82 33.476 0.05 6.73 3.69 14
1/13/2022 9:15:00 AM 0.86 33.548 0.049 6.78 3.69 14.01
1/13/2022 9:30:00 AM 0.92 33.656 0.05 6.73 3.78 14.03
1/13/2022 9:45:00 AM 0.98 33.764 0.049 6.71 3.48 14.03
1/13/2022 10:00:00 AM 1.05 33.89 0.05 6.71 3.49 14.02
1/13/2022 10:15:00 AM 1.12 34.016 0.049 6.69 3.35 14.03
1/13/2022 10:30:00 AM 1.2 34.16 0.049 6.72 3.36 14.02
1/13/2022 10:45:00 AM 1.25 34.25 0.049 6.74 3.37 14.01
1/13/2022 11:00:00 AM 1.35 34.43 0.049 6.71 3.42 14
1/13/2022 11:15:00 AM 1.47 34.646 0.049 6.74 3.4 13.98
1/13/2022 11:30:00 AM 1.57 34.826 0.049 6.74 3.26 13.96
1/13/2022 11:45:00 AM 1.68 35.024 0.049 6.74 3.26 13.93
1/13/2022 12:00:00 PM 1.75 35.15 0.049 6.76 3.14 13.9
1/13/2022 12:15:00 PM 1.83 35.294 0.049 6.76 3.21 13.87
1/13/2022 12:30:00 PM 1.9 35.42 0.049 6.76 3.06 13.84
1/13/2022 12:45:00 PM 1.99 35.582 0.052 6.77 3.1 13.82
1/13/2022 1:00:00 PM 2.1 35.78 0.051 6.77 3.16 13.78
1/13/2022 1:15:00 PM 2.19 35.942 0.05 6.77 3.15 13.75
1/13/2022 1:30:00 PM 2.24 36.032 0.05 6.76 3.29 13.71
1/13/2022 1:45:00 PM 2.3 36.14 0.05 6.77 3.37 13.7
1/13/2022 2:00:00 PM 2.35 36.23 0.053 6.76 3.27 13.67
1/13/2022 2:15:00 PM 2.38 36.284 0.052 6.79 3.23 13.63
1/13/2022 2:30:00 PM 2.4 36.32 0.051 6.79 3.38 13.62
1/13/2022 2:45:00 PM 2.45 36.41 0.05 6.84 3.2 13.59
1/13/2022 3:00:00 PM 2.51 36.518 0.051 6.86 3.25 13.57
1/13/2022 3:15:00 PM 2.53 36.554 0.05 6.86 3.22 13.54
1/13/2022 3:30:00 PM 2.57 36.626 0.05 6.85 3.29 13.52
1/13/2022 3:45:00 PM 2.59 36.662 0.049 6.84 3.27 13.5
1/13/2022 4:00:00 PM 2.61 36.698 0.05 6.83 3.35 13.47
1/13/2022 4:15:00 PM 2.62 36.716 0.049 6.84 3.32 13.45
1/13/2022 4:30:00 PM 2.63 36.734 0.049 6.84 3.3 13.43
1/13/2022 4:45:00 PM 2.63 36.734 0.049 6.83 3.48 13.4
1/13/2022 5:00:00 PM 2.62 36.716 0.049 6.82 3.31 13.38
1/13/2022 5:15:00 PM 2.61 36.698 0.049 6.81 3.33 13.36
1/13/2022 5:30:00 PM 2.6 36.68 0.049 6.81 3.5 13.34
1/13/2022 5:45:00 PM 2.58 36.644 0.049 6.8 3.41 13.34
1/13/2022 6:00:00 PM 2.56 36.608 0.049 6.8 3.56 13.33
1/13/2022 6:15:00 PM 2.54 36.572 0.05 6.78 3.51 13.33
1/13/2022 6:30:00 PM 2.54 36.572 0.05 6.77 3.33 13.33
1/13/2022 6:45:00 PM 2.51 36.518 0.05 6.77 3.48 13.33
1/13/2022 7:00:00 PM 2.48 36.464 0.05 6.76 3.78 13.34
1/13/2022 7:15:00 PM 2.46 36.428 0.05 6.76 3.78 13.34
1/13/2022 7:30:00 PM 2.45 36.41 0.05 6.76 4.11 13.35
1/13/2022 7:45:00 PM 2.44 36.392 0.05 6.74 3.92 13.35
1/13/2022 8:00:00 PM 2.43 36.374 0.05 6.74 3.95 13.35
1/13/2022 8:15:00 PM 2.42 36.356 0.05 6.75 3.72 13.35
1/13/2022 8:30:00 PM 2.4 36.32 0.05 6.75 3.7 13.36
1/13/2022 8:45:00 PM 2.4 36.32 0.05 6.76 3.63 13.36
1/13/2022 9:00:00 PM 2.39 36.302 0.05 6.74 3.56 13.36
1/13/2022 9:15:00 PM 2.38 36.284 0.05 6.76 3.65 13.37
1/13/2022 9:30:00 PM 2.37 36.266 0.05 6.76 3.71 13.37
1/13/2022 9:45:00 PM 2.36 36.248 0.05 6.76 3.72 13.38
1/13/2022 10:00:00 PM 2.36 36.248 0.05 6.76 3.5 13.38
1/13/2022 10:15:00 PM 2.35 36.23 0.05 6.73 3.64 13.38
1/13/2022 10:30:00 PM 2.34 36.212 0.05 6.75 3.66 13.38
1/13/2022 10:45:00 PM 2.34 36.212 0.05 6.75 3.59 13.38
1/13/2022 11:00:00 PM 2.34 36.212 0.051 6.75 3.58 13.39
1/13/2022 11:15:00 PM 2.33 36.194 0.051 6.74 3.5 13.39
1/13/2022 11:30:00 PM 2.32 36.176 0.051 6.75 3.66 13.39
1/13/2022 11:45:00 PM 2.33 36.194 0.051 6.74 3.57 13.4
1/14/2022 12:00:00 AM 2.32 36.176 0.051 6.75 3.5 13.4
1/14/2022 12:15:00 AM 2.32 36.176 0.051 6.74 3.46 13.4
1/14/2022 12:30:00 AM 2.32 36.176 0.051 6.75 3.51 13.39
1/14/2022 12:45:00 AM 2.32 36.176 0.051 6.75 3.51 13.39
1/14/2022 1:00:00 AM 2.31 36.158 0.051 6.75 3.51 13.4
1/14/2022 1:15:00 AM 2.3 36.14 0.051 6.72 3.51 13.4
1/14/2022 1:30:00 AM 2.31 36.158 0.051 6.75 3.49 13.39
1/14/2022 1:45:00 AM 2.31 36.158 0.051 6.75 3.56 13.39
1/14/2022 2:00:00 AM 2.31 36.158 0.051 6.75 3.39 13.4
1/14/2022 2:15:00 AM 2.31 36.158 0.051 6.75 3.47 13.39
1/14/2022 2:30:00 AM 2.31 36.158 0.051 6.7 3.41 13.4
1/14/2022 2:45:00 AM 2.31 36.158 0.051 6.74 3.55 13.39
1/14/2022 3:00:00 AM 2.31 36.158 0.051 6.74 3.51 13.38
1/14/2022 3:15:00 AM 2.31 36.158 0.051 6.74 3.51 13.39
1/14/2022 3:30:00 AM 2.31 36.158 0.052 6.73 3.51 13.38
1/14/2022 3:45:00 AM 2.31 36.158 0.052 6.72 3.38 13.38
1/14/2022 4:00:00 AM 2.32 36.176 0.052 6.72 3.43 13.39
1/14/2022 4:15:00 AM 2.32 36.176 0.051 6.71 3.47 13.38
1/14/2022 4:30:00 AM 2.33 36.194 0.052 6.72 3.45 13.38
1/14/2022 4:45:00 AM 2.33 36.194 0.051 6.71 3.4 13.37
1/14/2022 5:00:00 AM 2.34 36.212 0.051 6.71 3.41 13.37
1/14/2022 5:15:00 AM 2.34 36.212 0.051 6.72 3.27 13.37
1/14/2022 5:30:00 AM 2.35 36.23 0.051 6.72 3.29 13.37
1/14/2022 5:45:00 AM 2.37 36.266 0.052 6.72 3.36 13.36
1/14/2022 6:00:00 AM 2.37 36.266 0.051 6.71 3.3 13.36
1/14/2022 6:15:00 AM 2.39 36.302 0.052 6.72 3.34 13.36
1/14/2022 6:30:00 AM 2.41 36.338 0.052 6.73 3.31 13.35
1/14/2022 6:45:00 AM 2.41 36.338 0.052 6.73 3.27 13.36
1/14/2022 7:00:00 AM 2.42 36.356 0.051 6.74 3.21 13.35
1/14/2022 7:15:00 AM 2.44 36.392 0.051 6.74 3.14 13.35
1/14/2022 7:30:00 AM 2.45 36.41 0.052 6.73 3.3 13.34
1/14/2022 7:45:00 AM 2.46 36.428 0.051 6.74 3.11 13.34
1/14/2022 8:00:00 AM 2.47 36.446 0.052 6.74 3.11 13.34
1/14/2022 8:15:00 AM 2.48 36.464 0.051 6.75 3.2 13.35
1/14/2022 8:30:00 AM 2.49 36.482 0.052 6.73 3.15 13.35
1/14/2022 8:45:00 AM 2.49 36.482 0.051 6.74 3.08 13.36
1/14/2022 9:00:00 AM 2.5 36.5 0.052 6.76 2.98 13.37
1/14/2022 9:15:00 AM 2.51 36.518 0.052 6.75 2.93 13.38
1/14/2022 9:30:00 AM 2.53 36.554 0.051 6.76 3.03 13.4
1/14/2022 9:45:00 AM 2.55 36.59 0.051 6.77 2.93 13.42
1/14/2022 10:00:00 AM 2.58 36.644 0.051 6.78 2.9 13.45
1/14/2022 10:15:00 AM 2.59 36.662 0.051 6.78 2.87 13.46
1/14/2022 10:30:00 AM 2.6 36.68 0.051 6.79 2.93 13.47
1/14/2022 10:45:00 AM 2.63 36.734 0.051 6.8 2.83 13.49
1/14/2022 11:00:00 AM 2.66 36.788 0.051 6.8 2.82 13.5
1/14/2022 11:15:00 AM 2.69 36.842 0.051 6.81 2.84 13.52
1/14/2022 11:30:00 AM 2.72 36.896 0.051 6.82 2.76 13.52
1/14/2022 11:45:00 AM 2.74 36.932 0.051 6.81 2.75 13.52
1/14/2022 12:00:00 PM 2.75 36.95 0.051 6.81 2.72 13.52
1/14/2022 12:15:00 PM 2.75 36.95 0.051 6.82 2.77 13.52
1/14/2022 12:30:00 PM 2.75 36.95 0.051 6.82 2.66 13.51
1/14/2022 12:45:00 PM 2.74 36.932 0.051 6.82 2.72 13.51
1/14/2022 1:00:00 PM 2.74 36.932 0.051 6.82 2.69 13.51
1/14/2022 1:15:00 PM 2.73 36.914 0.051 6.82 2.64 13.51
1/14/2022 1:30:00 PM 2.72 36.896 0.051 6.82 2.71 13.51
1/14/2022 1:45:00 PM 2.71 36.878 0.051 6.82 2.61 13.5
1/14/2022 2:00:00 PM 2.7 36.86 0.051 6.82 2.59 13.5
1/14/2022 2:15:00 PM 2.68 36.824 0.051 6.82 2.61 13.49
1/14/2022 2:30:00 PM 2.67 36.806 0.051 6.82 2.58 13.48
1/14/2022 2:45:00 PM 2.65 36.77 0.051 6.81 2.63 13.47
1/14/2022 3:00:00 PM 2.63 36.734 0.051 6.8 2.61 13.48
1/14/2022 3:15:00 PM 2.62 36.716 0.051 6.81 2.51 13.48
1/14/2022 3:30:00 PM 2.6 36.68 0.051 6.81 2.58 13.48
1/14/2022 3:45:00 PM 2.59 36.662 0.051 6.81 2.61 13.51
1/14/2022 4:00:00 PM 2.57 36.626 0.051 6.81 2.55 13.52
1/14/2022 4:15:00 PM 2.55 36.59 0.051 6.81 2.53 13.52
1/14/2022 4:30:00 PM 2.52 36.536 0.051 6.8 2.6 13.52
1/14/2022 4:45:00 PM 2.46 36.428 0.051 6.8 2.6 13.52
1/14/2022 5:00:00 PM 2.42 36.356 0.051 6.79 2.54 13.51
1/14/2022 5:15:00 PM 2.39 36.302 0.051 6.78 2.58 13.5
1/14/2022 5:30:00 PM 2.33 36.194 0.051 6.79 2.66 13.5
1/14/2022 5:45:00 PM 2.27 36.086 0.051 6.77 2.68 13.49
1/14/2022 6:00:00 PM 2.21 35.978 0.051 6.77 2.81 13.51
1/14/2022 6:15:00 PM 2.15 35.87 0.051 6.77 2.81 13.51
1/14/2022 6:30:00 PM 2.1 35.78 0.051 6.76 2.89 13.53
1/14/2022 6:45:00 PM 2.06 35.708 0.051 6.76 2.8 13.53
1/14/2022 7:00:00 PM 2 35.6 0.051 6.76 2.89 13.56
1/14/2022 7:15:00 PM 1.94 35.492 0.051 6.76 2.9 13.57
1/14/2022 7:30:00 PM 1.87 35.366 0.051 6.74 2.81 13.6
1/14/2022 7:45:00 PM 1.81 35.258 0.051 6.76 2.93 13.62
1/14/2022 8:00:00 PM 1.73 35.114 0.051 6.76 2.92 13.64
1/14/2022 8:15:00 PM 1.66 34.988 0.051 6.75 2.89 13.67
1/14/2022 8:30:00 PM 1.6 34.88 0.051 6.75 2.83 13.7
1/14/2022 8:45:00 PM 1.5 34.7 0.051 6.74 2.95 13.72
1/14/2022 9:00:00 PM 1.42 34.556 0.052 6.75 2.89 13.75
1/14/2022 9:15:00 PM 1.33 34.394 0.051 6.76 2.88 13.79
1/14/2022 9:30:00 PM 1.24 34.232 0.052 6.76 2.98 13.82
1/14/2022 9:45:00 PM 1.16 34.088 0.052 6.75 3.06 13.86
1/14/2022 10:00:00 PM 1.06 33.908 0.052 6.75 2.93 13.89
1/14/2022 10:15:00 PM 0.98 33.764 0.052 6.75 2.86 13.92
1/14/2022 10:30:00 PM 0.9 33.62 0.052 6.75 2.91 13.96
1/14/2022 10:45:00 PM 0.82 33.476 0.052 6.74 2.88 13.99
1/14/2022 11:00:00 PM 0.73 33.314 0.052 6.75 2.96 14.03
1/14/2022 11:15:00 PM 0.65 33.17 0.052 6.74 2.89 14.06
1/14/2022 11:30:00 PM 0.57 33.026 0.052 6.73 2.84 14.09
1/14/2022 11:45:00 PM 0.49 32.882 0.052 6.74 2.85 14.13
1/15/2022 12:00:00 AM 0.4 32.72 0.052 6.74 2.86 14.16
1/15/2022 12:15:00 AM 0.32 32.576 0.052 6.74 2.77 14.2
1/15/2022 12:30:00 AM 0.25 32.45 0.052 6.74 2.84 14.24
1/15/2022 12:45:00 AM 0.17 32.306 0.052 6.75 2.75 14.27
1/15/2022 1:00:00 AM 0.09 32.162 0.052 6.74 2.84 14.3
1/15/2022 1:15:00 AM 0.02 32.036 0.052 6.75 2.85 14.34
1/15/2022 1:30:00 AM -0.05 31.91 0.052 6.73 2.83 14.38
1/15/2022 1:45:00 AM -0.02 31.964 0.052 6.76 2.89 14.42
1/15/2022 2:00:00 AM -0.01 31.982 0.052 6.75 3.01 14.45
1/15/2022 2:15:00 AM -0.01 31.982 0.052 6.8 2.97 14.47
1/15/2022 2:30:00 AM 0 32 0.052 6.79 3.01 14.49
1/15/2022 2:45:00 AM 0 32 0.052 6.79 2.99 14.5
1/15/2022 3:00:00 AM 0 32 0.052 6.84 3.15 14.51
1/15/2022 3:15:00 AM 0 32 0.052 6.81 2.72 14.52
1/15/2022 3:30:00 AM -0.01 31.982 0.052 6.83 2.73 14.53
1/15/2022 3:45:00 AM 0 32 0.052 6.82 2.71 14.54
1/15/2022 4:00:00 AM 0 32 0.052 6.83 2.65 14.55
1/15/2022 4:15:00 AM 0 32 0.052 6.84 2.69 14.55
1/15/2022 4:30:00 AM 0 32 0.053 6.83 2.78 14.56
1/15/2022 4:45:00 AM 0 32 0.053 6.85 2.88 14.56
1/15/2022 5:00:00 AM 0 32 0.053 6.86 2.71 14.57
1/15/2022 5:15:00 AM 0 32 0.053 6.86 2.79 14.57
1/15/2022 5:30:00 AM 0 32 0.054 6.88 2.79 14.57
1/15/2022 5:45:00 AM 0 32 0.054 6.88 2.7 14.58
1/15/2022 6:00:00 AM 0 32 0.054 6.85 2.73 14.58
1/15/2022 6:15:00 AM 0 32 0.054 6.86 2.68 14.58
1/15/2022 6:30:00 AM 0 32 0.055 6.87 2.75 14.58
1/15/2022 6:45:00 AM 0 32 0.055 6.89 2.6 14.58
1/15/2022 7:00:00 AM 0 32 0.055 6.87 2.67 14.58
1/15/2022 7:15:00 AM 0 32 0.055 6.86 2.68 14.58
1/15/2022 7:30:00 AM 0 32 0.056 6.87 2.7 14.58
1/15/2022 7:45:00 AM 0 32 0.056 6.87 2.7 14.59
1/15/2022 8:00:00 AM 0 32 0.056 6.84 2.73 14.61
1/15/2022 8:15:00 AM 0 32 0.056 6.88 2.58 14.62
1/15/2022 8:30:00 AM 0 32 0.056 6.87 2.64 14.65
1/15/2022 8:45:00 AM 0 32 0.056 6.89 2.53 14.68
1/15/2022 9:00:00 AM 0 32 0.056 6.89 2.56 14.7
1/15/2022 9:15:00 AM 0 32 0.057 6.9 2.53 14.73
1/15/2022 9:30:00 AM 0 32 0.057 6.85 2.53 14.75
1/15/2022 9:45:00 AM 0 32 0.057 6.91 2.66 14.77
1/15/2022 10:00:00 AM 0 32 0.057 6.91 2.63 14.79
1/15/2022 10:15:00 AM 0 32 0.057 6.91 2.62 14.8
1/15/2022 10:30:00 AM 0 32 0.057 6.94 2.6 14.8
1/15/2022 10:45:00 AM 0 32 0.057 6.91 2.68 14.81
1/15/2022 11:00:00 AM 0 32 0.057 6.96 2.83 14.81
1/15/2022 11:15:00 AM 0 32 0.057 6.94 2.76 14.81
1/15/2022 11:30:00 AM 0 32 0.056 6.96 2.73 14.81
1/15/2022 11:45:00 AM 0 32 0.056 6.96 2.71 14.81
1/15/2022 12:00:00 PM 0 32 0.056 6.95 2.65 14.81
1/15/2022 12:15:00 PM 0 32 0.056 6.98 2.71 14.8
1/15/2022 12:30:00 PM 0 32 0.056 6.98 2.83 14.79
1/15/2022 12:45:00 PM 0 32 0.055 6.93 2.74 14.79
1/15/2022 1:00:00 PM 0 32 0.055 6.97 3.1 14.79
1/15/2022 1:15:00 PM 0 32 0.055 6.98 2.74 14.78
1/15/2022 1:30:00 PM 0 32 0.055 6.9 3.02 14.78
1/15/2022 1:45:00 PM 0 32 0.055 6.96 3.21 14.77
1/15/2022 2:00:00 PM 0 32 0.054 6.98 3.05 14.77
1/15/2022 2:15:00 PM 0 32 0.054 6.95 3.25 14.76
1/15/2022 2:30:00 PM 0 32 0.054 6.93 3.25 14.76
1/15/2022 2:45:00 PM 0 32 0.054 6.95 3.31 14.75
1/15/2022 3:00:00 PM 0 32 0.054 6.86 3.24 14.75
1/15/2022 3:15:00 PM 0 32 0.054 6.9 3.18 14.75
1/15/2022 3:30:00 PM 0 32 0.054 6.91 3.39 14.75
1/15/2022 3:45:00 PM 0 32 0.054 6.9 3.37 14.75
1/15/2022 4:00:00 PM 0 32 0.054 6.89 3.33 14.74
1/15/2022 4:15:00 PM 0 32 0.054 6.87 3.29 14.73
1/15/2022 4:30:00 PM 0 32 0.054 6.88 3.19 14.73
1/15/2022 4:45:00 PM 0 32 0.054 6.9 3.12 14.72
1/15/2022 5:00:00 PM 0 32 0.054 6.86 3.1 14.71
1/15/2022 5:15:00 PM 0 32 0.054 6.9 3.16 14.7
1/15/2022 5:30:00 PM 0 32 0.054 6.87 2.97 14.68
1/15/2022 5:45:00 PM 0 32 0.054 6.89 2.95 14.66
1/15/2022 6:00:00 PM 0 32 0.054 6.87 2.89 14.65
1/15/2022 6:15:00 PM 0 32 0.055 6.87 2.65 14.64
1/15/2022 6:30:00 PM 0 32 0.055 6.87 2.89 14.64
1/15/2022 6:45:00 PM 0 32 0.055 6.85 2.81 14.63
1/15/2022 7:00:00 PM 0 32 0.055 6.87 2.99 14.62
1/15/2022 7:15:00 PM 0 32 0.055 6.87 2.88 14.63
1/15/2022 7:30:00 PM 0 32 0.055 6.84 3.12 14.62
1/15/2022 7:45:00 PM 0 32 0.055 6.85 2.82 14.62
1/15/2022 8:00:00 PM 0 32 0.055 6.82 2.92 14.62
1/15/2022 8:15:00 PM 0 32 0.055 6.85 3.06 14.62
1/15/2022 8:30:00 PM 0 32 0.055 6.82 3.01 14.62
1/15/2022 8:45:00 PM 0 32 0.055 6.85 2.75 14.62
1/15/2022 9:00:00 PM 0 32 0.056 6.81 2.97 14.62
1/15/2022 9:15:00 PM 0 32 0.056 6.86 2.71 14.62
1/15/2022 9:30:00 PM 0 32 0.056 6.82 2.77 14.62
1/15/2022 9:45:00 PM 0 32 0.056 6.85 2.62 14.62
1/15/2022 10:00:00 PM 0 32 0.056 6.85 2.81 14.62
1/15/2022 10:15:00 PM 0 32 0.056 6.85 2.72 14.62
1/15/2022 10:30:00 PM 0 32 0.056 6.87 2.76 14.62
1/15/2022 10:45:00 PM 0 32 0.056 6.84 2.57 14.62
1/15/2022 11:00:00 PM 0 32 0.056 6.86 2.58 14.62
1/15/2022 11:15:00 PM 0 32 0.056 6.85 2.49 14.62
1/15/2022 11:30:00 PM 0 32 0.056 6.87 2.46 14.62
1/15/2022 11:45:00 PM 0 32 0.056 6.87 2.4 14.62
1/16/2022 12:00:00 AM 0 32 0.057 6.89 2.46 14.62
1/16/2022 12:15:00 AM 0 32 0.057 6.87 2.46 14.62
1/16/2022 12:30:00 AM 0 32 0.057 6.87 2.52 14.62
1/16/2022 12:45:00 AM 0 32 0.057 6.86 2.44 14.62
1/16/2022 1:00:00 AM 0 32 0.057 6.87 2.53 14.62
1/16/2022 1:15:00 AM 0 32 0.057 6.85 2.55 14.62
1/16/2022 1:30:00 AM 0 32 0.057 6.88 2.51 14.61
1/16/2022 1:45:00 AM 0 32 0.057 6.88 2.49 14.62
1/16/2022 2:00:00 AM 0 32 0.057 6.84 2.47 14.62
1/16/2022 2:15:00 AM 0 32 0.057 6.88 2.49 14.62
1/16/2022 2:30:00 AM 0 32 0.058 6.87 2.45 14.62
1/16/2022 2:45:00 AM 0 32 0.058 6.81 2.51 14.61
1/16/2022 3:00:00 AM 0 32 0.058 6.88 2.55 14.61
1/16/2022 3:15:00 AM 0 32 0.058 6.88 2.42 14.61
1/16/2022 3:30:00 AM 0 32 0.058 6.87 2.43 14.6
1/16/2022 3:45:00 AM 0 32 0.058 6.86 2.39 14.6
1/16/2022 4:00:00 AM 0 32 0.058 6.84 2.55 14.6
1/16/2022 4:15:00 AM 0 32 0.059 6.85 2.47 14.6
1/16/2022 4:30:00 AM 0 32 0.059 6.85 2.5 14.6
1/16/2022 4:45:00 AM 0 32 0.059 6.86 2.59 14.59
1/16/2022 5:00:00 AM 0 32 0.059 6.84 2.42 14.59
1/16/2022 5:15:00 AM 0 32 0.059 6.86 2.49 14.59
1/16/2022 5:30:00 AM 0 32 0.059 6.86 2.49 14.58
1/16/2022 5:45:00 AM 0 32 0.059 6.86 2.53 14.58
1/16/2022 6:00:00 AM 0 32 0.059 6.86 2.52 14.58
1/16/2022 6:15:00 AM 0 32 0.059 6.87 2.49 14.58
1/16/2022 6:30:00 AM 0.01 32.018 0.059 6.84 2.47 14.57
1/16/2022 6:45:00 AM 0 32 0.059 6.85 2.5 14.58
1/16/2022 7:00:00 AM 0.01 32.018 0.059 6.86 2.5 14.57
1/16/2022 7:15:00 AM 0.01 32.018 0.06 6.85 2.5 14.57
1/16/2022 7:30:00 AM 0.01 32.018 0.06 6.85 2.56 14.57
1/16/2022 7:45:00 AM 0 32 0.06 6.87 2.52 14.58
1/16/2022 8:00:00 AM 0 32 0.06 6.84 2.55 14.6
1/16/2022 8:15:00 AM 0 32 0.06 6.86 2.53 14.6
1/16/2022 8:30:00 AM 0.01 32.018 0.06 6.87 2.65 14.62
1/16/2022 8:45:00 AM 0 32 0.06 6.87 2.59 14.63
1/16/2022 9:00:00 AM 0 32 0.06 6.89 2.63 14.64
1/16/2022 9:15:00 AM 0 32 0.06 6.88 2.64 14.66
1/16/2022 9:30:00 AM 0.01 32.018 0.06 6.89 2.79 14.67
1/16/2022 9:45:00 AM 0.01 32.018 0.06 6.86 2.87 14.68
1/16/2022 10:00:00 AM 0.01 32.018 0.06 6.87 3.03 14.69
1/16/2022 10:15:00 AM 0.01 32.018 0.06 6.89 2.97 14.69
1/16/2022 10:30:00 AM 0.01 32.018 0.06 6.89 3.34 14.71
1/16/2022 10:45:00 AM 0.01 32.018 0.06 6.89 3.12 14.7
1/16/2022 11:00:00 AM 0.01 32.018 0.06 6.9 3.17 14.71
1/16/2022 11:15:00 AM 0.01 32.018 0.06 6.86 3.28 14.7
1/16/2022 11:30:00 AM 0.01 32.018 0.06 6.88 3.49 14.7
1/16/2022 11:45:00 AM